PWSweather.com
Personal Weather Stations
Station Observations
HVALPSUND
Hvalpsund, FarsoeDK 9640

HvalpsundFarsoeDK 9640

Lat: 56.705311, Lon: 9.203638

Elevation: 5

Station Type: Vantage Pro2

http://hvalpsundvejr.dk

High Low Average
Temperature 43.6°F6.4°C 39.4°F4.1°C 41.5°F5.3°C
Dew Point 41.4°F5.2°C 37.2°F2.9°C 39.0°F3.9°C
Winds 22.9 mph 36.9 kmh 2.0 mph 3.2 kmh 10.0 mph SSW16.1 kmh SSW
Wind Gusts 30.0 mph48.3 kmh 4.0 mph6.4 kmh 13.0 mph20.9 kmh
Humidity 93% 87% 91%
Pressure 29.30 in992.2 mb 29.06 in984.1 mb -
Precipitation 0.35 in8.9 mm - -
Hour Temp Dew Point Humidity Winds Wind Gusts Pressure Precip Precip Rate Daily Precip Total
12:00 AM 42.9°F6.1°C 40.2°F4.6°C 90% 8.7 mph SSW14.0 kmh SSW 15.0 mph24.1 kmh 29.14 in986.8 mb 0.00 in0.0 mm 0.00 in0.0 mm 0.22 in5.6 mm
12:01 AM 43.0°F6.1°C 40.3°F4.6°C 90% 9.3 mph SSW15.0 kmh SSW 15.0 mph24.1 kmh 29.14 in986.8 mb 0.00 in0.0 mm 0.00 in0.0 mm 0.00 in0.0 mm
12:02 AM 42.9°F6.1°C 40.2°F4.6°C 90% 10.2 mph SSW16.4 kmh SSW 15.0 mph24.1 kmh 29.14 in986.8 mb 0.00 in0.0 mm 0.00 in0.0 mm 0.00 in0.0 mm
12:03 AM 42.9°F6.1°C 40.5°F4.7°C 91% 11.2 mph SSW18.0 kmh SSW 15.0 mph24.1 kmh 29.14 in986.8 mb 0.00 in0.0 mm 0.00 in0.0 mm 0.00 in0.0 mm
12:04 AM 43.0°F6.1°C 40.6°F4.8°C 91% 8.5 mph SSW13.7 kmh SSW 15.0 mph24.1 kmh 29.14 in986.8 mb 0.00 in0.0 mm 0.00 in0.0 mm 0.00 in0.0 mm
12:05 AM 43.0°F6.1°C 40.6°F4.8°C 91% 7.9 mph SSW12.7 kmh SSW 13.0 mph20.9 kmh 29.14 in986.8 mb 0.00 in0.0 mm 0.00 in0.0 mm 0.00 in0.0 mm
12:06 AM 42.9°F6.1°C 40.2°F4.6°C 90% 6.8 mph SSW10.9 kmh SSW 13.0 mph20.9 kmh 29.14 in986.8 mb 0.00 in0.0 mm 0.00 in0.0 mm 0.00 in0.0 mm
12:07 AM 42.9°F6.1°C 40.2°F4.6°C 90% 8.4 mph SSW13.5 kmh SSW 12.0 mph19.3 kmh 29.14 in986.8 mb 0.00 in0.0 mm 0.00 in0.0 mm 0.00 in0.0 mm
12:08 AM 42.9°F6.1°C 40.2°F4.6°C 90% 9.0 mph S14.5 kmh S 13.0 mph20.9 kmh 29.14 in986.8 mb 0.00 in0.0 mm 0.00 in0.0 mm 0.00 in0.0 mm
12:09 AM 42.9°F6.1°C 40.2°F4.6°C 90% 9.5 mph S15.3 kmh S 13.0 mph20.9 kmh 29.14 in986.8 mb 0.00 in0.0 mm 0.00 in0.0 mm 0.00 in0.0 mm
12:10 AM 42.9°F6.1°C 40.2°F4.6°C 90% 7.9 mph SSW12.7 kmh SSW 13.0 mph20.9 kmh 29.14 in986.8 mb 0.00 in0.0 mm 0.00 in0.0 mm 0.00 in0.0 mm
12:11 AM 42.9°F6.1°C 40.2°F4.6°C 90% 9.7 mph SSW15.6 kmh SSW 14.0 mph22.5 kmh 29.14 in986.8 mb 0.00 in0.0 mm 0.00 in0.0 mm 0.00 in0.0 mm
12:12 AM 42.9°F6.1°C 40.5°F4.7°C 91% 8.1 mph S13.0 kmh S 14.0 mph22.5 kmh 29.14 in986.8 mb 0.00 in0.0 mm 0.00 in0.0 mm 0.00 in0.0 mm
12:13 AM 42.9°F6.1°C 40.5°F4.7°C 91% 9.0 mph S14.5 kmh S 14.0 mph22.5 kmh 29.14 in986.8 mb 0.00 in0.0 mm 0.00 in0.0 mm 0.00 in0.0 mm
12:14 AM 42.9°F6.1°C 40.5°F4.7°C 91% 8.9 mph SSW14.3 kmh SSW 13.0 mph20.9 kmh 29.14 in986.8 mb 0.00 in0.0 mm 0.00 in0.0 mm 0.00 in0.0 mm
12:15 AM 42.8°F6.0°C 40.4°F4.7°C 91% 8.0 mph S12.9 kmh S 13.0 mph20.9 kmh 29.14 in986.8 mb 0.00 in0.0 mm 0.00 in0.0 mm 0.00 in0.0 mm
12:16 AM 42.8°F6.0°C 40.4°F4.7°C 91% 7.6 mph S12.2 kmh S 12.0 mph19.3 kmh 29.14 in986.8 mb 0.00 in0.0 mm 0.00 in0.0 mm 0.00 in0.0 mm
12:17 AM 42.8°F6.0°C 40.1°F4.5°C 90% 7.3 mph S11.7 kmh S 11.0 mph17.7 kmh 29.14 in986.8 mb 0.00 in0.0 mm 0.00 in0.0 mm 0.00 in0.0 mm
12:18 AM 42.7°F5.9°C 40.0°F4.4°C 90% 4.7 mph S7.6 kmh S 10.0 mph16.1 kmh 29.14 in986.8 mb 0.00 in0.0 mm 0.00 in0.0 mm 0.00 in0.0 mm
12:19 AM 42.7°F5.9°C 40.3°F4.6°C 91% 6.9 mph S11.1 kmh S 11.0 mph17.7 kmh 29.14 in986.8 mb 0.00 in0.0 mm 0.00 in0.0 mm 0.00 in0.0 mm
12:20 AM 42.7°F5.9°C 40.3°F4.6°C 91% 5.9 mph S9.5 kmh S 11.0 mph17.7 kmh 29.14 in986.8 mb 0.00 in0.0 mm 0.00 in0.0 mm 0.00 in0.0 mm
12:21 AM 42.7°F5.9°C 40.3°F4.6°C 91% 8.2 mph S13.2 kmh S 11.0 mph17.7 kmh 29.14 in986.8 mb 0.00 in0.0 mm 0.00 in0.0 mm 0.00 in0.0 mm
12:22 AM 42.7°F5.9°C 40.3°F4.6°C 91% 9.2 mph S14.8 kmh S 12.0 mph19.3 kmh 29.14 in986.8 mb 0.00 in0.0 mm 0.00 in0.0 mm 0.00 in0.0 mm
12:23 AM 42.8°F6.0°C 40.4°F4.7°C 91% 7.1 mph S11.4 kmh S 12.0 mph19.3 kmh 29.14 in986.8 mb 0.00 in0.0 mm 0.00 in0.0 mm 0.00 in0.0 mm
12:24 AM 42.7°F5.9°C 40.3°F4.6°C 91% 7.7 mph S12.4 kmh S 10.0 mph16.1 kmh 29.14 in986.8 mb 0.00 in0.0 mm 0.00 in0.0 mm 0.00 in0.0 mm
12:25 AM 42.7°F5.9°C 40.3°F4.6°C 91% 7.1 mph S11.4 kmh S 11.0 mph17.7 kmh 29.14 in986.8 mb 0.00 in0.0 mm 0.00 in0.0 mm 0.00 in0.0 mm
12:26 AM 42.7°F5.9°C 40.3°F4.6°C 91% 7.8 mph SSW12.6 kmh SSW 12.0 mph19.3 kmh 29.14 in986.8 mb 0.00 in0.0 mm 0.00 in0.0 mm 0.00 in0.0 mm
12:27 AM 42.7°F5.9°C 40.3°F4.6°C 91% 6.5 mph SSW10.5 kmh SSW 12.0 mph19.3 kmh 29.14 in986.8 mb 0.00 in0.0 mm 0.00 in0.0 mm 0.00 in0.0 mm
12:28 AM 42.7°F5.9°C 40.3°F4.6°C 91% 4.0 mph S6.4 kmh S 10.0 mph16.1 kmh 29.14 in986.8 mb 0.00 in0.0 mm 0.00 in0.0 mm 0.00 in0.0 mm
12:29 AM 42.7°F5.9°C 40.3°F4.6°C 91% 5.2 mph S8.4 kmh S 10.0 mph16.1 kmh 29.14 in986.8 mb 0.00 in0.0 mm 0.00 in0.0 mm 0.00 in0.0 mm
12:30 AM 42.6°F5.9°C 40.2°F4.6°C 91% 6.6 mph SSW10.6 kmh SSW 10.0 mph16.1 kmh 29.14 in986.8 mb 0.00 in0.0 mm 0.00 in0.0 mm 0.00 in0.0 mm
12:31 AM 42.6°F5.9°C 40.2°F4.6°C 91% 4.3 mph S6.9 kmh S 10.0 mph16.1 kmh 29.14 in986.8 mb 0.00 in0.0 mm 0.00 in0.0 mm 0.00 in0.0 mm
12:32 AM 42.6°F5.9°C 40.2°F4.6°C 91% 5.9 mph S9.5 kmh S 9.0 mph14.5 kmh 29.14 in986.8 mb 0.00 in0.0 mm 0.00 in0.0 mm 0.00 in0.0 mm
12:33 AM 42.6°F5.9°C 40.2°F4.6°C 91% 7.8 mph S12.6 kmh S 11.0 mph17.7 kmh 29.14 in986.8 mb 0.00 in0.0 mm 0.00 in0.0 mm 0.00 in0.0 mm
12:34 AM 42.6°F5.9°C 40.2°F4.6°C 91% 6.6 mph S10.6 kmh S 11.0 mph17.7 kmh 29.14 in986.8 mb 0.00 in0.0 mm 0.00 in0.0 mm 0.00 in0.0 mm
12:35 AM 42.7°F5.9°C 40.3°F4.6°C 91% 5.5 mph S8.9 kmh S 9.0 mph14.5 kmh 29.14 in986.8 mb 0.00 in0.0 mm 0.00 in0.0 mm 0.00 in0.0 mm
12:36 AM 42.6°F5.9°C 40.2°F4.6°C 91% 4.5 mph S7.2 kmh S 9.0 mph14.5 kmh 29.14 in986.8 mb 0.00 in0.0 mm 0.00 in0.0 mm 0.00 in0.0 mm
12:37 AM 42.6°F5.9°C 40.2°F4.6°C 91% 3.6 mph SSW5.8 kmh SSW 6.0 mph9.7 kmh 29.14 in986.8 mb 0.00 in0.0 mm 0.00 in0.0 mm 0.00 in0.0 mm
12:38 AM 42.6°F5.9°C 40.2°F4.6°C 91% 4.3 mph S6.9 kmh S 6.0 mph9.7 kmh 29.14 in986.8 mb 0.00 in0.0 mm 0.00 in0.0 mm 0.00 in0.0 mm
12:39 AM 42.6°F5.9°C 40.2°F4.6°C 91% 3.9 mph S6.3 kmh S 6.0 mph9.7 kmh 29.14 in986.8 mb 0.00 in0.0 mm 0.00 in0.0 mm 0.00 in0.0 mm
12:40 AM 42.5°F5.8°C 40.1°F4.5°C 91% 4.3 mph S6.9 kmh S 6.0 mph9.7 kmh 29.14 in986.8 mb 0.00 in0.0 mm 0.00 in0.0 mm 0.00 in0.0 mm
12:41 AM 42.6°F5.9°C 40.2°F4.6°C 91% 4.4 mph S7.1 kmh S 7.0 mph11.3 kmh 29.14 in986.8 mb 0.00 in0.0 mm 0.00 in0.0 mm 0.00 in0.0 mm
12:42 AM 42.6°F5.9°C 40.2°F4.6°C 91% 5.4 mph S8.7 kmh S 7.0 mph11.3 kmh 29.14 in986.8 mb 0.00 in0.0 mm 0.00 in0.0 mm 0.00 in0.0 mm
12:43 AM 42.6°F5.9°C 40.2°F4.6°C 91% 3.8 mph S6.1 kmh S 6.0 mph9.7 kmh 29.14 in986.8 mb 0.00 in0.0 mm 0.00 in0.0 mm 0.00 in0.0 mm
12:44 AM 42.5°F5.8°C 40.1°F4.5°C 91% 3.5 mph S5.6 kmh S 6.0 mph9.7 kmh 29.14 in986.8 mb 0.00 in0.0 mm 0.00 in0.0 mm 0.00 in0.0 mm
12:45 AM 42.6°F5.9°C 40.2°F4.6°C 91% 5.4 mph SSW8.7 kmh SSW 10.0 mph16.1 kmh 29.14 in986.8 mb 0.00 in0.0 mm 0.00 in0.0 mm 0.00 in0.0 mm
12:46 AM 42.6°F5.9°C 40.2°F4.6°C 91% 6.4 mph SSW10.3 kmh SSW 10.0 mph16.1 kmh 29.14 in986.8 mb 0.00 in0.0 mm 0.00 in0.0 mm 0.00 in0.0 mm
12:47 AM 42.7°F5.9°C 40.3°F4.6°C 91% 5.3 mph S8.5 kmh S 10.0 mph16.1 kmh 29.14 in986.8 mb 0.00 in0.0 mm 0.00 in0.0 mm 0.00 in0.0 mm
12:48 AM 42.7°F5.9°C 40.3°F4.6°C 91% 5.4 mph S8.7 kmh S 8.0 mph12.9 kmh 29.14 in986.8 mb 0.00 in0.0 mm 0.00 in0.0 mm 0.00 in0.0 mm
12:49 AM 42.7°F5.9°C 40.3°F4.6°C 91% 5.4 mph SW8.7 kmh SW 7.0 mph11.3 kmh 29.14 in986.8 mb 0.00 in0.0 mm 0.00 in0.0 mm 0.00 in0.0 mm
12:50 AM 42.8°F6.0°C 40.4°F4.7°C 91% 3.6 mph SSW5.8 kmh SSW 7.0 mph11.3 kmh 29.14 in986.8 mb 0.00 in0.0 mm 0.00 in0.0 mm 0.00 in0.0 mm
12:51 AM 42.8°F6.0°C 40.4°F4.7°C 91% 5.2 mph SSW8.4 kmh SSW 7.0 mph11.3 kmh 29.14 in986.8 mb 0.00 in0.0 mm 0.00 in0.0 mm 0.00 in0.0 mm
12:52 AM 42.7°F5.9°C 40.3°F4.6°C 91% 5.2 mph SSW8.4 kmh SSW 7.0 mph11.3 kmh 29.14 in986.8 mb 0.00 in0.0 mm 0.00 in0.0 mm 0.00 in0.0 mm
12:53 AM 42.8°F6.0°C 40.4°F4.7°C 91% 4.3 mph S6.9 kmh S 8.0 mph12.9 kmh 29.14 in986.8 mb 0.00 in0.0 mm 0.00 in0.0 mm 0.00 in0.0 mm
12:54 AM 42.8°F6.0°C 40.4°F4.7°C 91% 4.5 mph S7.2 kmh S 8.0 mph12.9 kmh 29.14 in986.8 mb 0.00 in0.0 mm 0.00 in0.0 mm 0.00 in0.0 mm
12:55 AM 42.8°F6.0°C 40.4°F4.7°C 91% 3.5 mph S5.6 kmh S 6.0 mph9.7 kmh 29.14 in986.8 mb 0.00 in0.0 mm 0.00 in0.0 mm 0.00 in0.0 mm
12:56 AM 42.8°F6.0°C 40.4°F4.7°C 91% 6.2 mph SW10.0 kmh SW 9.0 mph14.5 kmh 29.14 in986.8 mb 0.00 in0.0 mm 0.00 in0.0 mm 0.00 in0.0 mm
12:57 AM 42.9°F6.1°C 40.5°F4.7°C 91% 4.4 mph SSW7.1 kmh SSW 9.0 mph14.5 kmh 29.14 in986.8 mb 0.00 in0.0 mm 0.00 in0.0 mm 0.00 in0.0 mm
12:58 AM 42.8°F6.0°C 40.4°F4.7°C 91% 4.1 mph S6.6 kmh S 6.0 mph9.7 kmh 29.14 in986.8 mb 0.00 in0.0 mm 0.00 in0.0 mm 0.00 in0.0 mm
12:59 AM 42.9°F6.1°C 40.5°F4.7°C 91% 3.9 mph S6.3 kmh S 6.0 mph9.7 kmh 29.14 in986.8 mb 0.00 in0.0 mm 0.00 in0.0 mm 0.00 in0.0 mm
01:00 AM 42.8°F6.0°C 40.4°F4.7°C 91% 3.9 mph S6.3 kmh S 6.0 mph9.7 kmh 29.14 in986.8 mb 0.00 in0.0 mm 0.00 in0.0 mm 0.00 in0.0 mm
01:01 AM 42.9°F6.1°C 40.5°F4.7°C 91% 6.6 mph SSW10.6 kmh SSW 10.0 mph16.1 kmh 29.14 in986.8 mb 0.00 in0.0 mm 0.00 in0.0 mm 0.00 in0.0 mm
01:02 AM 42.9°F6.1°C 40.5°F4.7°C 91% 4.8 mph SSW7.7 kmh SSW 10.0 mph16.1 kmh 29.14 in986.8 mb 0.00 in0.0 mm 0.00 in0.0 mm 0.00 in0.0 mm
01:03 AM 42.9°F6.1°C 40.5°F4.7°C 91% 3.9 mph S6.3 kmh S 7.0 mph11.3 kmh 29.14 in986.8 mb 0.00 in0.0 mm 0.00 in0.0 mm 0.00 in0.0 mm
01:04 AM 42.9°F6.1°C 40.7°F4.8°C 92% 4.1 mph S6.6 kmh S 6.0 mph9.7 kmh 29.14 in986.8 mb 0.00 in0.0 mm 0.00 in0.0 mm 0.00 in0.0 mm
01:05 AM 42.9°F6.1°C 40.7°F4.8°C 92% 3.6 mph SSW5.8 kmh SSW 6.0 mph9.7 kmh 29.14 in986.8 mb 0.00 in0.0 mm 0.00 in0.0 mm 0.00 in0.0 mm
01:06 AM 42.9°F6.1°C 40.7°F4.8°C 92% 3.2 mph SSW5.1 kmh SSW 5.0 mph8.0 kmh 29.14 in986.8 mb 0.00 in0.0 mm 0.00 in0.0 mm 0.00 in0.0 mm
01:07 AM 42.9°F6.1°C 40.7°F4.8°C 92% 3.6 mph SSW5.8 kmh SSW 5.0 mph8.0 kmh 29.14 in986.8 mb 0.00 in0.0 mm 0.00 in0.0 mm 0.00 in0.0 mm
01:08 AM 43.0°F6.1°C 40.8°F4.9°C 92% 4.5 mph SSW7.2 kmh SSW 6.0 mph9.7 kmh 29.14 in986.8 mb 0.00 in0.0 mm 0.00 in0.0 mm 0.00 in0.0 mm
01:09 AM 43.0°F6.1°C 40.6°F4.8°C 91% 5.0 mph S8.0 kmh S 8.0 mph12.9 kmh 29.14 in986.8 mb 0.00 in0.0 mm 0.00 in0.0 mm 0.00 in0.0 mm
01:10 AM 42.9°F6.1°C 40.7°F4.8°C 92% 5.1 mph S8.2 kmh S 8.0 mph12.9 kmh 29.14 in986.8 mb 0.00 in0.0 mm 0.00 in0.0 mm 0.00 in0.0 mm
01:11 AM 43.0°F6.1°C 40.6°F4.8°C 91% 5.1 mph S8.2 kmh S 7.0 mph11.3 kmh 29.14 in986.8 mb 0.00 in0.0 mm 0.00 in0.0 mm 0.00 in0.0 mm
01:12 AM 43.0°F6.1°C 40.8°F4.9°C 92% 5.7 mph S9.2 kmh S 8.0 mph12.9 kmh 29.14 in986.8 mb 0.00 in0.0 mm 0.00 in0.0 mm 0.00 in0.0 mm
01:13 AM 43.0°F6.1°C 40.6°F4.8°C 91% 5.9 mph S9.5 kmh S 8.0 mph12.9 kmh 29.14 in986.8 mb 0.00 in0.0 mm 0.00 in0.0 mm 0.00 in0.0 mm
01:14 AM 43.0°F6.1°C 40.8°F4.9°C 92% 5.2 mph S8.4 kmh S 8.0 mph12.9 kmh 29.14 in986.8 mb 0.00 in0.0 mm 0.00 in0.0 mm 0.00 in0.0 mm
01:15 AM 43.0°F6.1°C 40.8°F4.9°C 92% 7.1 mph SSW11.4 kmh SSW 10.0 mph16.1 kmh 29.14 in986.8 mb 0.00 in0.0 mm 0.00 in0.0 mm 0.00 in0.0 mm
01:16 AM 43.0°F6.1°C 40.6°F4.8°C 91% 6.8 mph S10.9 kmh S 11.0 mph17.7 kmh 29.14 in986.8 mb 0.00 in0.0 mm 0.00 in0.0 mm 0.00 in0.0 mm
01:17 AM 43.1°F6.2°C 40.9°F4.9°C 92% 4.1 mph S6.6 kmh S 11.0 mph17.7 kmh 29.14 in986.8 mb 0.00 in0.0 mm 0.00 in0.0 mm 0.00 in0.0 mm
01:18 AM 43.0°F6.1°C 40.8°F4.9°C 92% 6.0 mph S9.7 kmh S 8.0 mph12.9 kmh 29.14 in986.8 mb 0.00 in0.0 mm 0.00 in0.0 mm 0.00 in0.0 mm
01:19 AM 43.0°F6.1°C 40.8°F4.9°C 92% 6.7 mph S10.8 kmh S 9.0 mph14.5 kmh 29.14 in986.8 mb 0.00 in0.0 mm 0.00 in0.0 mm 0.00 in0.0 mm
01:20 AM 43.1°F6.2°C 40.9°F4.9°C 92% 5.5 mph S8.9 kmh S 9.0 mph14.5 kmh 29.14 in986.8 mb 0.00 in0.0 mm 0.00 in0.0 mm 0.00 in0.0 mm
01:21 AM 43.0°F6.1°C 40.8°F4.9°C 92% 5.3 mph S8.5 kmh S 7.0 mph11.3 kmh 29.14 in986.8 mb 0.00 in0.0 mm 0.00 in0.0 mm 0.00 in0.0 mm
01:22 AM 43.0°F6.1°C 40.8°F4.9°C 92% 7.0 mph SSW11.3 kmh SSW 9.0 mph14.5 kmh 29.14 in986.8 mb 0.00 in0.0 mm 0.00 in0.0 mm 0.00 in0.0 mm
01:23 AM 43.0°F6.1°C 40.8°F4.9°C 92% 5.4 mph S8.7 kmh S 9.0 mph14.5 kmh 29.14 in986.8 mb 0.00 in0.0 mm 0.00 in0.0 mm 0.00 in0.0 mm
01:24 AM 43.0°F6.1°C 40.8°F4.9°C 92% 6.9 mph S11.1 kmh S 10.0 mph16.1 kmh 29.13 in986.5 mb 0.00 in0.0 mm 0.00 in0.0 mm 0.00 in0.0 mm
01:25 AM 43.0°F6.1°C 40.8°F4.9°C 92% 5.1 mph S8.2 kmh S 10.0 mph16.1 kmh 29.13 in986.5 mb 0.00 in0.0 mm 0.00 in0.0 mm 0.00 in0.0 mm
01:26 AM 43.0°F6.1°C 40.8°F4.9°C 92% 5.7 mph S9.2 kmh S 8.0 mph12.9 kmh 29.13 in986.5 mb 0.00 in0.0 mm 0.00 in0.0 mm 0.00 in0.0 mm
01:27 AM 43.0°F6.1°C 40.8°F4.9°C 92% 5.1 mph S8.2 kmh S 8.0 mph12.9 kmh 29.13 in986.5 mb 0.00 in0.0 mm 0.00 in0.0 mm 0.00 in0.0 mm
01:28 AM 42.9°F6.1°C 40.7°F4.8°C 92% 4.6 mph S7.4 kmh S 7.0 mph11.3 kmh 29.13 in986.5 mb 0.00 in0.0 mm 0.00 in0.0 mm 0.00 in0.0 mm
01:29 AM 43.0°F6.1°C 40.6°F4.8°C 91% 5.2 mph S8.4 kmh S 8.0 mph12.9 kmh 29.13 in986.5 mb 0.00 in0.0 mm 0.00 in0.0 mm 0.00 in0.0 mm
01:30 AM 42.9°F6.1°C 40.5°F4.7°C 91% 4.3 mph S6.9 kmh S 8.0 mph12.9 kmh 29.13 in986.5 mb 0.00 in0.0 mm 0.00 in0.0 mm 0.00 in0.0 mm
01:31 AM 43.0°F6.1°C 40.6°F4.8°C 91% 4.5 mph S7.2 kmh S 6.0 mph9.7 kmh 29.13 in986.5 mb 0.00 in0.0 mm 0.00 in0.0 mm 0.00 in0.0 mm
01:32 AM 43.0°F6.1°C 40.6°F4.8°C 91% 6.2 mph S10.0 kmh S 8.0 mph12.9 kmh 29.13 in986.5 mb 0.00 in0.0 mm 0.00 in0.0 mm 0.00 in0.0 mm
01:33 AM 42.9°F6.1°C 40.5°F4.7°C 91% 6.5 mph S10.5 kmh S 10.0 mph16.1 kmh 29.13 in986.5 mb 0.00 in0.0 mm 0.00 in0.0 mm 0.00 in0.0 mm
01:34 AM 43.0°F6.1°C 40.8°F4.9°C 92% 5.6 mph S9.0 kmh S 10.0 mph16.1 kmh 29.13 in986.5 mb 0.00 in0.0 mm 0.00 in0.0 mm 0.00 in0.0 mm
01:35 AM 43.0°F6.1°C 40.8°F4.9°C 92% 6.0 mph S9.7 kmh S 10.0 mph16.1 kmh 29.13 in986.5 mb 0.00 in0.0 mm 0.00 in0.0 mm 0.00 in0.0 mm
01:36 AM 43.0°F6.1°C 40.8°F4.9°C 92% 5.4 mph S8.7 kmh S 10.0 mph16.1 kmh 29.13 in986.5 mb 0.00 in0.0 mm 0.00 in0.0 mm 0.00 in0.0 mm
01:37 AM 43.0°F6.1°C 40.8°F4.9°C 92% 5.8 mph S9.3 kmh S 9.0 mph14.5 kmh 29.13 in986.5 mb 0.00 in0.0 mm 0.00 in0.0 mm 0.00 in0.0 mm
01:38 AM 43.0°F6.1°C 40.8°F4.9°C 92% 5.9 mph S9.5 kmh S 9.0 mph14.5 kmh 29.13 in986.5 mb 0.00 in0.0 mm 0.00 in0.0 mm 0.00 in0.0 mm
01:39 AM 43.0°F6.1°C 40.6°F4.8°C 91% 6.0 mph S9.7 kmh S 9.0 mph14.5 kmh 29.13 in986.5 mb 0.00 in0.0 mm 0.00 in0.0 mm 0.00 in0.0 mm
01:40 AM 42.9°F6.1°C 40.7°F4.8°C 92% 6.3 mph S10.1 kmh S 9.0 mph14.5 kmh 29.12 in986.1 mb 0.00 in0.0 mm 0.00 in0.0 mm 0.00 in0.0 mm
01:41 AM 42.9°F6.1°C 40.7°F4.8°C 92% 3.7 mph S6.0 kmh S 8.0 mph12.9 kmh 29.12 in986.1 mb 0.00 in0.0 mm 0.00 in0.0 mm 0.00 in0.0 mm
01:42 AM 42.9°F6.1°C 40.5°F4.7°C 91% 5.0 mph S8.0 kmh S 7.0 mph11.3 kmh 29.12 in986.1 mb 0.00 in0.0 mm 0.00 in0.0 mm 0.00 in0.0 mm
01:43 AM 43.0°F6.1°C 40.6°F4.8°C 91% 5.0 mph S8.0 kmh S 8.0 mph12.9 kmh 29.12 in986.1 mb 0.00 in0.0 mm 0.00 in0.0 mm 0.00 in0.0 mm
01:44 AM 42.9°F6.1°C 40.5°F4.7°C 91% 6.2 mph S10.0 kmh S 9.0 mph14.5 kmh 29.13 in986.5 mb 0.00 in0.0 mm 0.00 in0.0 mm 0.00 in0.0 mm
01:45 AM 42.9°F6.1°C 40.7°F4.8°C 92% 6.7 mph S10.8 kmh S 11.0 mph17.7 kmh 29.13 in986.5 mb 0.00 in0.0 mm 0.00 in0.0 mm 0.00 in0.0 mm
01:46 AM 42.9°F6.1°C 40.7°F4.8°C 92% 6.0 mph S9.7 kmh S 11.0 mph17.7 kmh 29.13 in986.5 mb 0.00 in0.0 mm 0.00 in0.0 mm 0.00 in0.0 mm
01:47 AM 42.9°F6.1°C 40.7°F4.8°C 92% 5.6 mph S9.0 kmh S 9.0 mph14.5 kmh 29.12 in986.1 mb 0.00 in0.0 mm 0.00 in0.0 mm 0.00 in0.0 mm
01:48 AM 42.9°F6.1°C 40.7°F4.8°C 92% 6.2 mph S10.0 kmh S 9.0 mph14.5 kmh 29.12 in986.1 mb 0.00 in0.0 mm 0.00 in0.0 mm 0.00 in0.0 mm
01:49 AM 42.9°F6.1°C 40.7°F4.8°C 92% 5.2 mph S8.4 kmh S 8.0 mph12.9 kmh 29.12 in986.1 mb 0.00 in0.0 mm 0.00 in0.0 mm 0.00 in0.0 mm
01:50 AM 42.9°F6.1°C 40.7°F4.8°C 92% 4.8 mph S7.7 kmh S 8.0 mph12.9 kmh 29.12 in986.1 mb 0.00 in0.0 mm 0.00 in0.0 mm 0.00 in0.0 mm
01:51 AM 42.9°F6.1°C 40.7°F4.8°C 92% 4.7 mph S7.6 kmh S 8.0 mph12.9 kmh 29.12 in986.1 mb 0.00 in0.0 mm 0.00 in0.0 mm 0.00 in0.0 mm
01:52 AM 42.8°F6.0°C 40.6°F4.8°C 92% 5.0 mph S8.0 kmh S 8.0 mph12.9 kmh 29.12 in986.1 mb 0.00 in0.0 mm 0.00 in0.0 mm 0.00 in0.0 mm
01:53 AM 42.8°F6.0°C 40.6°F4.8°C 92% 5.8 mph S9.3 kmh S 8.0 mph12.9 kmh 29.12 in986.1 mb 0.00 in0.0 mm 0.00 in0.0 mm 0.00 in0.0 mm
01:54 AM 42.9°F6.1°C 40.7°F4.8°C 92% 5.3 mph S8.5 kmh S 8.0 mph12.9 kmh 29.12 in986.1 mb 0.00 in0.0 mm 0.00 in0.0 mm 0.00 in0.0 mm
01:55 AM 42.8°F6.0°C 40.6°F4.8°C 92% 5.5 mph S8.9 kmh S 9.0 mph14.5 kmh 29.12 in986.1 mb 0.00 in0.0 mm 0.00 in0.0 mm 0.00 in0.0 mm
01:56 AM 42.8°F6.0°C 40.6°F4.8°C 92% 4.9 mph S7.9 kmh S 9.0 mph14.5 kmh 29.12 in986.1 mb 0.00 in0.0 mm 0.00 in0.0 mm 0.00 in0.0 mm
01:57 AM 42.8°F6.0°C 40.6°F4.8°C 92% 4.7 mph S7.6 kmh S 7.0 mph11.3 kmh 29.12 in986.1 mb 0.00 in0.0 mm 0.00 in0.0 mm 0.00 in0.0 mm
01:58 AM 42.8°F6.0°C 40.6°F4.8°C 92% 5.2 mph S8.4 kmh S 7.0 mph11.3 kmh 29.12 in986.1 mb 0.00 in0.0 mm 0.00 in0.0 mm 0.00 in0.0 mm
01:59 AM 42.8°F6.0°C 40.6°F4.8°C 92% 5.9 mph S9.5 kmh S 9.0 mph14.5 kmh 29.12 in986.1 mb 0.00 in0.0 mm 0.00 in0.0 mm 0.00 in0.0 mm
02:00 AM 42.8°F6.0°C 40.6°F4.8°C 92% 7.1 mph S11.4 kmh S 10.0 mph16.1 kmh 29.12 in986.1 mb 0.00 in0.0 mm 0.00 in0.0 mm 0.00 in0.0 mm
02:01 AM 42.8°F6.0°C 40.6°F4.8°C 92% 5.3 mph S8.5 kmh S 10.0 mph16.1 kmh 29.12 in986.1 mb 0.00 in0.0 mm 0.00 in0.0 mm 0.00 in0.0 mm
02:02 AM 42.8°F6.0°C 40.6°F4.8°C 92% 4.5 mph S7.2 kmh S 7.0 mph11.3 kmh 29.12 in986.1 mb 0.00 in0.0 mm 0.00 in0.0 mm 0.00 in0.0 mm
02:03 AM 42.8°F6.0°C 40.6°F4.8°C 92% 5.5 mph S8.9 kmh S 9.0 mph14.5 kmh 29.12 in986.1 mb 0.00 in0.0 mm 0.00 in0.0 mm 0.00 in0.0 mm
02:04 AM 42.8°F6.0°C 40.6°F4.8°C 92% 5.3 mph S8.5 kmh S 9.0 mph14.5 kmh 29.12 in986.1 mb 0.00 in0.0 mm 0.00 in0.0 mm 0.00 in0.0 mm
02:05 AM 42.8°F6.0°C 40.6°F4.8°C 92% 5.0 mph S8.0 kmh S 8.0 mph12.9 kmh 29.12 in986.1 mb 0.00 in0.0 mm 0.00 in0.0 mm 0.00 in0.0 mm
02:06 AM 42.8°F6.0°C 40.6°F4.8°C 92% 5.7 mph S9.2 kmh S 9.0 mph14.5 kmh 29.12 in986.1 mb 0.00 in0.0 mm 0.00 in0.0 mm 0.00 in0.0 mm
02:07 AM 42.8°F6.0°C 40.6°F4.8°C 92% 5.0 mph S8.0 kmh S 9.0 mph14.5 kmh 29.12 in986.1 mb 0.00 in0.0 mm 0.00 in0.0 mm 0.00 in0.0 mm
02:08 AM 42.8°F6.0°C 40.6°F4.8°C 92% 4.9 mph S7.9 kmh S 9.0 mph14.5 kmh 29.12 in986.1 mb 0.00 in0.0 mm 0.00 in0.0 mm 0.00 in0.0 mm
02:09 AM 42.8°F6.0°C 40.6°F4.8°C 92% 6.3 mph S10.1 kmh S 9.0 mph14.5 kmh 29.12 in986.1 mb 0.00 in0.0 mm 0.00 in0.0 mm 0.00 in0.0 mm
02:10 AM 42.7°F5.9°C 40.5°F4.7°C 92% 4.3 mph SSE6.9 kmh SSE 9.0 mph14.5 kmh 29.12 in986.1 mb 0.00 in0.0 mm 0.00 in0.0 mm 0.00 in0.0 mm
02:11 AM 42.7°F5.9°C 40.5°F4.7°C 92% 6.1 mph S9.8 kmh S 8.0 mph12.9 kmh 29.12 in986.1 mb 0.00 in0.0 mm 0.00 in0.0 mm 0.00 in0.0 mm
02:12 AM 42.7°F5.9°C 40.5°F4.7°C 92% 5.2 mph S8.4 kmh S 8.0 mph12.9 kmh 29.12 in986.1 mb 0.00 in0.0 mm 0.00 in0.0 mm 0.00 in0.0 mm
02:13 AM 42.7°F5.9°C 40.5°F4.7°C 92% 5.7 mph S9.2 kmh S 9.0 mph14.5 kmh 29.12 in986.1 mb 0.00 in0.0 mm 0.00 in0.0 mm 0.00 in0.0 mm
02:14 AM 42.7°F5.9°C 40.5°F4.7°C 92% 5.4 mph SSE8.7 kmh SSE 9.0 mph14.5 kmh 29.12 in986.1 mb 0.00 in0.0 mm 0.00 in0.0 mm 0.00 in0.0 mm
02:15 AM 42.7°F5.9°C 40.5°F4.7°C 92% 5.2 mph S8.4 kmh S 9.0 mph14.5 kmh 29.12 in986.1 mb 0.00 in0.0 mm 0.00 in0.0 mm 0.00 in0.0 mm
02:16 AM 42.7°F5.9°C 40.5°F4.7°C 92% 6.0 mph S9.7 kmh S 8.0 mph12.9 kmh 29.12 in986.1 mb 0.00 in0.0 mm 0.00 in0.0 mm 0.00 in0.0 mm
02:17 AM 42.7°F5.9°C 40.5°F4.7°C 92% 6.7 mph S10.8 kmh S 9.0 mph14.5 kmh 29.12 in986.1 mb 0.00 in0.0 mm 0.00 in0.0 mm 0.00 in0.0 mm
02:18 AM 42.7°F5.9°C 40.5°F4.7°C 92% 6.5 mph S10.5 kmh S 9.0 mph14.5 kmh 29.12 in986.1 mb 0.00 in0.0 mm 0.00 in0.0 mm 0.00 in0.0 mm
02:19 AM 42.7°F5.9°C 40.5°F4.7°C 92% 6.4 mph S10.3 kmh S 10.0 mph16.1 kmh 29.12 in986.1 mb 0.00 in0.0 mm 0.00 in0.0 mm 0.00 in0.0 mm
02:20 AM 42.7°F5.9°C 40.5°F4.7°C 92% 6.4 mph S10.3 kmh S 10.0 mph16.1 kmh 29.12 in986.1 mb 0.00 in0.0 mm 0.00 in0.0 mm 0.00 in0.0 mm
02:21 AM 42.7°F5.9°C 40.5°F4.7°C 92% 6.7 mph S10.8 kmh S 10.0 mph16.1 kmh 29.12 in986.1 mb 0.00 in0.0 mm 0.00 in0.0 mm 0.00 in0.0 mm
02:22 AM 42.7°F5.9°C 40.5°F4.7°C 92% 5.8 mph S9.3 kmh S 10.0 mph16.1 kmh 29.12 in986.1 mb 0.00 in0.0 mm 0.00 in0.0 mm 0.00 in0.0 mm
02:23 AM 42.6°F5.9°C 40.4°F4.7°C 92% 6.2 mph S10.0 kmh S 10.0 mph16.1 kmh 29.12 in986.1 mb 0.00 in0.0 mm 0.00 in0.0 mm 0.00 in0.0 mm
02:24 AM 42.7°F5.9°C 40.5°F4.7°C 92% 6.5 mph S10.5 kmh S 10.0 mph16.1 kmh 29.12 in986.1 mb 0.00 in0.0 mm 0.00 in0.0 mm 0.00 in0.0 mm
02:25 AM 42.7°F5.9°C 40.5°F4.7°C 92% 7.4 mph S11.9 kmh S 9.0 mph14.5 kmh 29.12 in986.1 mb 0.00 in0.0 mm 0.00 in0.0 mm 0.00 in0.0 mm
02:26 AM 42.7°F5.9°C 40.5°F4.7°C 92% 6.6 mph S10.6 kmh S 9.0 mph14.5 kmh 29.12 in986.1 mb 0.00 in0.0 mm 0.00 in0.0 mm 0.00 in0.0 mm
02:27 AM 42.7°F5.9°C 40.5°F4.7°C 92% 6.6 mph S10.6 kmh S 10.0 mph16.1 kmh 29.12 in986.1 mb 0.00 in0.0 mm 0.00 in0.0 mm 0.00 in0.0 mm
02:28 AM 42.7°F5.9°C 40.5°F4.7°C 92% 4.6 mph S7.4 kmh S 10.0 mph16.1 kmh 29.12 in986.1 mb 0.00 in0.0 mm 0.00 in0.0 mm 0.00 in0.0 mm
02:29 AM 42.8°F6.0°C 40.6°F4.8°C 92% 7.1 mph S11.4 kmh S 12.0 mph19.3 kmh 29.12 in986.1 mb 0.00 in0.0 mm 0.00 in0.0 mm 0.00 in0.0 mm
02:30 AM 42.8°F6.0°C 40.6°F4.8°C 92% 6.3 mph S10.1 kmh S 12.0 mph19.3 kmh 29.12 in986.1 mb 0.00 in0.0 mm 0.00 in0.0 mm 0.00 in0.0 mm
02:31 AM 42.7°F5.9°C 40.5°F4.7°C 92% 7.0 mph S11.3 kmh S 9.0 mph14.5 kmh 29.12 in986.1 mb 0.00 in0.0 mm 0.00 in0.0 mm 0.00 in0.0 mm
02:32 AM 42.8°F6.0°C 40.6°F4.8°C 92% 6.5 mph S10.5 kmh S 9.0 mph14.5 kmh 29.12 in986.1 mb 0.00 in0.0 mm 0.00 in0.0 mm 0.00 in0.0 mm
02:33 AM 42.8°F6.0°C 40.6°F4.8°C 92% 7.2 mph S11.6 kmh S 11.0 mph17.7 kmh 29.12 in986.1 mb 0.00 in0.0 mm 0.00 in0.0 mm 0.00 in0.0 mm
02:34 AM 42.8°F6.0°C 40.6°F4.8°C 92% 7.2 mph S11.6 kmh S 11.0 mph17.7 kmh 29.12 in986.1 mb 0.00 in0.0 mm 0.00 in0.0 mm 0.00 in0.0 mm
02:35 AM 42.8°F6.0°C 40.6°F4.8°C 92% 7.4 mph S11.9 kmh S 11.0 mph17.7 kmh 29.12 in986.1 mb 0.00 in0.0 mm 0.00 in0.0 mm 0.00 in0.0 mm
02:36 AM 42.9°F6.1°C 40.7°F4.8°C 92% 6.8 mph S10.9 kmh S 11.0 mph17.7 kmh 29.12 in986.1 mb 0.00 in0.0 mm 0.00 in0.0 mm 0.00 in0.0 mm
02:37 AM 42.9°F6.1°C 40.7°F4.8°C 92% 10.1 mph S16.3 kmh S 14.0 mph22.5 kmh 29.12 in986.1 mb 0.00 in0.0 mm 0.00 in0.0 mm 0.00 in0.0 mm
02:38 AM 42.9°F6.1°C 40.7°F4.8°C 92% 9.0 mph S14.5 kmh S 14.0 mph22.5 kmh 29.12 in986.1 mb 0.00 in0.0 mm 0.00 in0.0 mm 0.00 in0.0 mm
02:39 AM 42.9°F6.1°C 40.7°F4.8°C 92% 8.3 mph S13.4 kmh S 12.0 mph19.3 kmh 29.12 in986.1 mb 0.00 in0.0 mm 0.00 in0.0 mm 0.00 in0.0 mm
02:40 AM 43.0°F6.1°C 40.8°F4.9°C 92% 8.7 mph S14.0 kmh S 11.0 mph17.7 kmh 29.12 in986.1 mb 0.00 in0.0 mm 0.00 in0.0 mm 0.00 in0.0 mm
02:41 AM 43.0°F6.1°C 40.8°F4.9°C 92% 8.0 mph S12.9 kmh S 11.0 mph17.7 kmh 29.12 in986.1 mb 0.00 in0.0 mm 0.00 in0.0 mm 0.00 in0.0 mm
02:42 AM 43.1°F6.2°C 40.9°F4.9°C 92% 6.7 mph S10.8 kmh S 11.0 mph17.7 kmh 29.12 in986.1 mb 0.00 in0.0 mm 0.00 in0.0 mm 0.00 in0.0 mm
02:43 AM 43.0°F6.1°C 40.8°F4.9°C 92% 7.2 mph S11.6 kmh S 11.0 mph17.7 kmh 29.12 in986.1 mb 0.00 in0.0 mm 0.00 in0.0 mm 0.00 in0.0 mm
02:44 AM 43.0°F6.1°C 40.8°F4.9°C 92% 7.1 mph S11.4 kmh S 11.0 mph17.7 kmh 29.12 in986.1 mb 0.00 in0.0 mm 0.00 in0.0 mm 0.00 in0.0 mm
02:45 AM 43.1°F6.2°C 40.9°F4.9°C 92% 5.8 mph S9.3 kmh S 10.0 mph16.1 kmh 29.12 in986.1 mb 0.00 in0.0 mm 0.00 in0.0 mm 0.00 in0.0 mm
02:46 AM 43.1°F6.2°C 40.9°F4.9°C 92% 7.3 mph S11.7 kmh S 10.0 mph16.1 kmh 29.11 in985.8 mb 0.00 in0.0 mm 0.00 in0.0 mm 0.00 in0.0 mm
02:47 AM 43.1°F6.2°C 40.9°F4.9°C 92% 6.9 mph S11.1 kmh S 10.0 mph16.1 kmh 29.11 in985.8 mb 0.00 in0.0 mm 0.00 in0.0 mm 0.00 in0.0 mm
02:48 AM 43.1°F6.2°C 40.9°F4.9°C 92% 5.8 mph S9.3 kmh S 10.0 mph16.1 kmh 29.12 in986.1 mb 0.00 in0.0 mm 0.00 in0.0 mm 0.00 in0.0 mm
02:49 AM 43.1°F6.2°C 40.9°F4.9°C 92% 6.7 mph S10.8 kmh S 10.0 mph16.1 kmh 29.11 in985.8 mb 0.00 in0.0 mm 0.00 in0.0 mm 0.00 in0.0 mm
02:50 AM 43.1°F6.2°C 40.9°F4.9°C 92% 6.3 mph S10.1 kmh S 10.0 mph16.1 kmh 29.12 in986.1 mb 0.00 in0.0 mm 0.00 in0.0 mm 0.00 in0.0 mm
02:51 AM 43.1°F6.2°C 40.9°F4.9°C 92% 6.1 mph S9.8 kmh S 10.0 mph16.1 kmh 29.11 in985.8 mb 0.00 in0.0 mm 0.00 in0.0 mm 0.00 in0.0 mm
02:52 AM 43.2°F6.2°C 41.0°F5.0°C 92% 6.9 mph S11.1 kmh S 10.0 mph16.1 kmh 29.11 in985.8 mb 0.00 in0.0 mm 0.00 in0.0 mm 0.00 in0.0 mm
02:53 AM 43.2°F6.2°C 41.0°F5.0°C 92% 7.0 mph S11.3 kmh S 10.0 mph16.1 kmh 29.11 in985.8 mb 0.00 in0.0 mm 0.00 in0.0 mm 0.00 in0.0 mm
02:54 AM 43.1°F6.2°C 40.9°F4.9°C 92% 6.5 mph S10.5 kmh S 11.0 mph17.7 kmh 29.11 in985.8 mb 0.00 in0.0 mm 0.00 in0.0 mm 0.00 in0.0 mm
02:55 AM 43.1°F6.2°C 40.9°F4.9°C 92% 6.5 mph S10.5 kmh S 11.0 mph17.7 kmh 29.11 in985.8 mb 0.00 in0.0 mm 0.00 in0.0 mm 0.00 in0.0 mm
02:56 AM 43.1°F6.2°C 40.9°F4.9°C 92% 6.9 mph S11.1 kmh S 10.0 mph16.1 kmh 29.11 in985.8 mb 0.00 in0.0 mm 0.00 in0.0 mm 0.00 in0.0 mm
02:57 AM 43.2°F6.2°C 41.0°F5.0°C 92% 6.4 mph S10.3 kmh S 10.0 mph16.1 kmh 29.11 in985.8 mb 0.00 in0.0 mm 0.00 in0.0 mm 0.00 in0.0 mm
02:58 AM 43.2°F6.2°C 41.0°F5.0°C 92% 6.9 mph S11.1 kmh S 11.0 mph17.7 kmh 29.11 in985.8 mb 0.00 in0.0 mm 0.00 in0.0 mm 0.00 in0.0 mm
02:59 AM 43.2°F6.2°C 41.0°F5.0°C 92% 7.4 mph S11.9 kmh S 11.0 mph17.7 kmh 29.11 in985.8 mb 0.00 in0.0 mm 0.00 in0.0 mm 0.00 in0.0 mm
03:00 AM 43.3°F6.3°C 41.1°F5.1°C 92% 6.7 mph S10.8 kmh S 11.0 mph17.7 kmh 29.11 in985.8 mb 0.00 in0.0 mm 0.00 in0.0 mm 0.00 in0.0 mm
03:01 AM 43.3°F6.3°C 41.1°F5.1°C 92% 7.2 mph S11.6 kmh S 13.0 mph20.9 kmh 29.11 in985.8 mb 0.00 in0.0 mm 0.00 in0.0 mm 0.00 in0.0 mm
03:02 AM 43.3°F6.3°C 41.1°F5.1°C 92% 7.4 mph S11.9 kmh S 13.0 mph20.9 kmh 29.11 in985.8 mb 0.00 in0.0 mm 0.00 in0.0 mm 0.00 in0.0 mm
03:03 AM 43.3°F6.3°C 41.1°F5.1°C 92% 6.8 mph S10.9 kmh S 11.0 mph17.7 kmh 29.11 in985.8 mb 0.00 in0.0 mm 0.00 in0.0 mm 0.00 in0.0 mm
03:04 AM 43.3°F6.3°C 41.1°F5.1°C 92% 6.9 mph S11.1 kmh S 11.0 mph17.7 kmh 29.11 in985.8 mb 0.00 in0.0 mm 0.00 in0.0 mm 0.00 in0.0 mm
03:05 AM 43.3°F6.3°C 41.1°F5.1°C 92% 6.4 mph S10.3 kmh S 10.0 mph16.1 kmh 29.11 in985.8 mb 0.00 in0.0 mm 0.00 in0.0 mm 0.00 in0.0 mm
03:06 AM 43.3°F6.3°C 41.1°F5.1°C 92% 6.0 mph S9.7 kmh S 10.0 mph16.1 kmh 29.11 in985.8 mb 0.00 in0.0 mm 0.00 in0.0 mm 0.00 in0.0 mm
03:07 AM 43.4°F6.3°C 41.2°F5.1°C 92% 7.5 mph S12.1 kmh S 13.0 mph20.9 kmh 29.12 in986.1 mb 0.00 in0.0 mm 0.00 in0.0 mm 0.00 in0.0 mm
03:08 AM 43.3°F6.3°C 41.1°F5.1°C 92% 5.4 mph S8.7 kmh S 13.0 mph20.9 kmh 29.11 in985.8 mb 0.00 in0.0 mm 0.00 in0.0 mm 0.00 in0.0 mm
03:09 AM 43.4°F6.3°C 41.2°F5.1°C 92% 6.6 mph S10.6 kmh S 10.0 mph16.1 kmh 29.11 in985.8 mb 0.00 in0.0 mm 0.00 in0.0 mm 0.00 in0.0 mm
03:10 AM 43.4°F6.3°C 41.2°F5.1°C 92% 6.6 mph S10.6 kmh S 10.0 mph16.1 kmh 29.11 in985.8 mb 0.00 in0.0 mm 0.00 in0.0 mm 0.00 in0.0 mm
03:11 AM 43.4°F6.3°C 41.2°F5.1°C 92% 5.9 mph S9.5 kmh S 10.0 mph16.1 kmh 29.11 in985.8 mb 0.00 in0.0 mm 0.00 in0.0 mm 0.00 in0.0 mm
03:12 AM 43.4°F6.3°C 41.2°F5.1°C 92% 6.8 mph S10.9 kmh S 10.0 mph16.1 kmh 29.11 in985.8 mb 0.00 in0.0 mm 0.00 in0.0 mm 0.00 in0.0 mm
03:13 AM 43.4°F6.3°C 41.2°F5.1°C 92% 8.3 mph S13.4 kmh S 11.0 mph17.7 kmh 29.11 in985.8 mb 0.00 in0.0 mm 0.00 in0.0 mm 0.00 in0.0 mm
03:14 AM 43.4°F6.3°C 41.2°F5.1°C 92% 8.4 mph S13.5 kmh S 12.0 mph19.3 kmh 29.11 in985.8 mb 0.00 in0.0 mm 0.00 in0.0 mm 0.00 in0.0 mm
03:15 AM 43.4°F6.3°C 41.2°F5.1°C 92% 6.9 mph S11.1 kmh S 12.0 mph19.3 kmh 29.11 in985.8 mb 0.00 in0.0 mm 0.00 in0.0 mm 0.00 in0.0 mm
03:16 AM 43.4°F6.3°C 41.2°F5.1°C 92% 5.3 mph S8.5 kmh S 10.0 mph16.1 kmh 29.11 in985.8 mb 0.00 in0.0 mm 0.00 in0.0 mm 0.00 in0.0 mm
03:17 AM 43.4°F6.3°C 41.2°F5.1°C 92% 7.2 mph S11.6 kmh S 10.0 mph16.1 kmh 29.11 in985.8 mb 0.00 in0.0 mm 0.00 in0.0 mm 0.00 in0.0 mm
03:18 AM 43.4°F6.3°C 41.2°F5.1°C 92% 5.1 mph S8.2 kmh S 10.0 mph16.1 kmh 29.11 in985.8 mb 0.00 in0.0 mm 0.00 in0.0 mm 0.00 in0.0 mm
03:19 AM 43.5°F6.4°C 41.3°F5.2°C 92% 5.2 mph S8.4 kmh S 8.0 mph12.9 kmh 29.11 in985.8 mb 0.00 in0.0 mm 0.00 in0.0 mm 0.00 in0.0 mm
03:20 AM 43.4°F6.3°C 41.2°F5.1°C 92% 5.5 mph S8.9 kmh S 8.0 mph12.9 kmh 29.11 in985.8 mb 0.00 in0.0 mm 0.00 in0.0 mm 0.00 in0.0 mm
03:21 AM 43.5°F6.4°C 41.3°F5.2°C 92% 5.5 mph S8.9 kmh S 8.0 mph12.9 kmh 29.11 in985.8 mb 0.00 in0.0 mm 0.00 in0.0 mm 0.00 in0.0 mm
03:22 AM 43.4°F6.3°C 41.2°F5.1°C 92% 5.4 mph S8.7 kmh S 8.0 mph12.9 kmh 29.11 in985.8 mb 0.00 in0.0 mm 0.00 in0.0 mm 0.00 in0.0 mm
03:23 AM 43.4°F6.3°C 41.2°F5.1°C 92% 4.7 mph S7.6 kmh S 7.0 mph11.3 kmh 29.11 in985.8 mb 0.00 in0.0 mm 0.00 in0.0 mm 0.00 in0.0 mm
03:24 AM 43.4°F6.3°C 41.2°F5.1°C 92% 5.5 mph S8.9 kmh S 8.0 mph12.9 kmh 29.11 in985.8 mb 0.00 in0.0 mm 0.00 in0.0 mm 0.00 in0.0 mm
03:25 AM 43.4°F6.3°C 41.2°F5.1°C 92% 6.3 mph S10.1 kmh S 9.0 mph14.5 kmh 29.11 in985.8 mb 0.00 in0.0 mm 0.00 in0.0 mm 0.00 in0.0 mm
03:26 AM 43.4°F6.3°C 41.2°F5.1°C 92% 6.1 mph S9.8 kmh S 9.0 mph14.5 kmh 29.11 in985.8 mb 0.00 in0.0 mm 0.00 in0.0 mm 0.00 in0.0 mm
03:27 AM 43.5°F6.4°C 41.3°F5.2°C 92% 6.8 mph S10.9 kmh S 9.0 mph14.5 kmh 29.11 in985.8 mb 0.00 in0.0 mm 0.00 in0.0 mm 0.00 in0.0 mm
03:28 AM 43.5°F6.4°C 41.3°F5.2°C 92% 6.5 mph S10.5 kmh S 9.0 mph14.5 kmh 29.11 in985.8 mb 0.00 in0.0 mm 0.00 in0.0 mm 0.00 in0.0 mm
03:29 AM 43.5°F6.4°C 41.3°F5.2°C 92% 5.0 mph S8.0 kmh S 9.0 mph14.5 kmh 29.11 in985.8 mb 0.00 in0.0 mm 0.00 in0.0 mm 0.00 in0.0 mm
03:30 AM 43.5°F6.4°C 41.3°F5.2°C 92% 7.3 mph S11.7 kmh S 9.0 mph14.5 kmh 29.11 in985.8 mb 0.00 in0.0 mm 0.00 in0.0 mm 0.00 in0.0 mm
03:31 AM 43.5°F6.4°C 41.3°F5.2°C 92% 5.9 mph S9.5 kmh S 9.0 mph14.5 kmh 29.11 in985.8 mb 0.00 in0.0 mm 0.00 in0.0 mm 0.00 in0.0 mm
03:32 AM 43.6°F6.4°C 41.4°F5.2°C 92% 7.3 mph S11.7 kmh S 11.0 mph17.7 kmh 29.11 in985.8 mb 0.00 in0.0 mm 0.00 in0.0 mm 0.00 in0.0 mm
03:33 AM 43.5°F6.4°C 41.3°F5.2°C 92% 6.4 mph S10.3 kmh S 11.0 mph17.7 kmh 29.11 in985.8 mb 0.00 in0.0 mm 0.00 in0.0 mm 0.00 in0.0 mm
03:34 AM 43.6°F6.4°C 41.4°F5.2°C 92% 5.3 mph S8.5 kmh S 9.0 mph14.5 kmh 29.11 in985.8 mb 0.00 in0.0 mm 0.00 in0.0 mm 0.00 in0.0 mm
03:35 AM 43.6°F6.4°C 41.4°F5.2°C 92% 6.9 mph S11.1 kmh S 10.0 mph16.1 kmh 29.11 in985.8 mb 0.00 in0.0 mm 0.00 in0.0 mm 0.00 in0.0 mm
03:36 AM 43.5°F6.4°C 41.3°F5.2°C 92% 6.1 mph S9.8 kmh S 10.0 mph16.1 kmh 29.11 in985.8 mb 0.00 in0.0 mm 0.00 in0.0 mm 0.00 in0.0 mm
03:37 AM 43.6°F6.4°C 41.4°F5.2°C 92% 5.9 mph S9.5 kmh S 9.0 mph14.5 kmh 29.11 in985.8 mb 0.00 in0.0 mm 0.00 in0.0 mm 0.00 in0.0 mm
03:38 AM 43.5°F6.4°C 41.3°F5.2°C 92% 7.1 mph S11.4 kmh S 11.0 mph17.7 kmh 29.11 in985.8 mb 0.00 in0.0 mm 0.00 in0.0 mm 0.00 in0.0 mm
03:39 AM 43.6°F6.4°C 41.4°F5.2°C 92% 6.9 mph S11.1 kmh S 11.0 mph17.7 kmh 29.11 in985.8 mb 0.00 in0.0 mm 0.00 in0.0 mm 0.00 in0.0 mm
03:40 AM 43.6°F6.4°C 41.4°F5.2°C 92% 5.9 mph S9.5 kmh S 10.0 mph16.1 kmh 29.11 in985.8 mb 0.00 in0.0 mm 0.00 in0.0 mm 0.00 in0.0 mm
03:41 AM 43.5°F6.4°C 41.3°F5.2°C 92% 6.3 mph S10.1 kmh S 11.0 mph17.7 kmh 29.11 in985.8 mb 0.00 in0.0 mm 0.00 in0.0 mm 0.00 in0.0 mm
03:42 AM 43.6°F6.4°C 41.4°F5.2°C 92% 7.0 mph S11.3 kmh S 11.0 mph17.7 kmh 29.11 in985.8 mb 0.00 in0.0 mm 0.00 in0.0 mm 0.00 in0.0 mm
03:43 AM 43.5°F6.4°C 41.3°F5.2°C 92% 7.8 mph S12.6 kmh S 11.0 mph17.7 kmh 29.10 in985.4 mb 0.00 in0.0 mm 0.00 in0.0 mm 0.00 in0.0 mm
03:44 AM 43.5°F6.4°C 41.3°F5.2°C 92% 7.5 mph S12.1 kmh S 11.0 mph17.7 kmh 29.10 in985.4 mb 0.00 in0.0 mm 0.00 in0.0 mm 0.00 in0.0 mm
03:45 AM 43.6°F6.4°C 41.4°F5.2°C 92% 7.5 mph S12.1 kmh S 11.0 mph17.7 kmh 29.10 in985.4 mb 0.00 in0.0 mm 0.00 in0.0 mm 0.00 in0.0 mm
03:46 AM 43.5°F6.4°C 41.3°F5.2°C 92% 6.8 mph S10.9 kmh S 10.0 mph16.1 kmh 29.11 in985.8 mb 0.00 in0.0 mm 0.00 in0.0 mm 0.00 in0.0 mm
03:47 AM 43.5°F6.4°C 41.3°F5.2°C 92% 7.5 mph S12.1 kmh S 10.0 mph16.1 kmh 29.10 in985.4 mb 0.00 in0.0 mm 0.00 in0.0 mm 0.00 in0.0 mm
03:48 AM 43.5°F6.4°C 41.3°F5.2°C 92% 4.6 mph S7.4 kmh S 10.0 mph16.1 kmh 29.10 in985.4 mb 0.00 in0.0 mm 0.00 in0.0 mm 0.00 in0.0 mm
03:49 AM 43.5°F6.4°C 41.3°F5.2°C 92% 7.8 mph S12.6 kmh S 12.0 mph19.3 kmh 29.10 in985.4 mb 0.00 in0.0 mm 0.00 in0.0 mm 0.00 in0.0 mm
03:50 AM 43.5°F6.4°C 41.3°F5.2°C 92% 7.9 mph S12.7 kmh S 12.0 mph19.3 kmh 29.10 in985.4 mb 0.00 in0.0 mm 0.00 in0.0 mm 0.00 in0.0 mm
03:51 AM 43.4°F6.3°C 41.2°F5.1°C 92% 7.5 mph S12.1 kmh S 11.0 mph17.7 kmh 29.10 in985.4 mb 0.00 in0.0 mm 0.00 in0.0 mm 0.00 in0.0 mm
03:52 AM 43.4°F6.3°C 41.2°F5.1°C 92% 8.9 mph S14.3 kmh S 13.0 mph20.9 kmh 29.10 in985.4 mb 0.00 in0.0 mm 0.00 in0.0 mm 0.00 in0.0 mm
03:53 AM 43.4°F6.3°C 41.2°F5.1°C 92% 6.7 mph S10.8 kmh S 13.0 mph20.9 kmh 29.10 in985.4 mb 0.00 in0.0 mm 0.00 in0.0 mm 0.00 in0.0 mm
03:54 AM 43.4°F6.3°C 41.2°F5.1°C 92% 6.5 mph S10.5 kmh S 11.0 mph17.7 kmh 29.10 in985.4 mb 0.00 in0.0 mm 0.00 in0.0 mm 0.00 in0.0 mm
03:55 AM 43.4°F6.3°C 41.2°F5.1°C 92% 5.6 mph S9.0 kmh S 9.0 mph14.5 kmh 29.10 in985.4 mb 0.00 in0.0 mm 0.00 in0.0 mm 0.00 in0.0 mm
03:56 AM 43.4°F6.3°C 41.2°F5.1°C 92% 7.0 mph S11.3 kmh S 8.0 mph12.9 kmh 29.10 in985.4 mb 0.00 in0.0 mm 0.00 in0.0 mm 0.00 in0.0 mm
03:57 AM 43.4°F6.3°C 41.2°F5.1°C 92% 7.2 mph S11.6 kmh S 10.0 mph16.1 kmh 29.10 in985.4 mb 0.00 in0.0 mm 0.00 in0.0 mm 0.00 in0.0 mm
03:58 AM 43.4°F6.3°C 41.2°F5.1°C 92% 8.1 mph S13.0 kmh S 10.0 mph16.1 kmh 29.10 in985.4 mb 0.00 in0.0 mm 0.00 in0.0 mm 0.00 in0.0 mm
03:59 AM 43.4°F6.3°C 41.2°F5.1°C 92% 8.0 mph S12.9 kmh S 10.0 mph16.1 kmh 29.10 in985.4 mb 0.00 in0.0 mm 0.00 in0.0 mm 0.00 in0.0 mm
04:00 AM 43.4°F6.3°C 41.2°F5.1°C 92% 6.8 mph S10.9 kmh S 10.0 mph16.1 kmh 29.10 in985.4 mb 0.00 in0.0 mm 0.00 in0.0 mm 0.00 in0.0 mm
04:01 AM 43.4°F6.3°C 41.0°F5.0°C 91% 9.0 mph SSW14.5 kmh SSW 13.0 mph20.9 kmh 29.10 in985.4 mb 0.00 in0.0 mm 0.00 in0.0 mm 0.00 in0.0 mm
04:02 AM 43.4°F6.3°C 41.0°F5.0°C 91% 8.4 mph SSW13.5 kmh SSW 13.0 mph20.9 kmh 29.10 in985.4 mb 0.00 in0.0 mm 0.00 in0.0 mm 0.00 in0.0 mm
04:03 AM 43.4°F6.3°C 41.0°F5.0°C 91% 7.5 mph SSW12.1 kmh SSW 12.0 mph19.3 kmh 29.10 in985.4 mb 0.00 in0.0 mm 0.00 in0.0 mm 0.00 in0.0 mm
04:04 AM 43.4°F6.3°C 41.0°F5.0°C 91% 7.4 mph S11.9 kmh S 11.0 mph17.7 kmh 29.10 in985.4 mb 0.00 in0.0 mm 0.00 in0.0 mm 0.00 in0.0 mm
04:05 AM 43.4°F6.3°C 41.0°F5.0°C 91% 6.8 mph S10.9 kmh S 11.0 mph17.7 kmh 29.10 in985.4 mb 0.00 in0.0 mm 0.00 in0.0 mm 0.00 in0.0 mm
04:06 AM 43.4°F6.3°C 41.0°F5.0°C 91% 7.7 mph S12.4 kmh S 11.0 mph17.7 kmh 29.09 in985.1 mb 0.00 in0.0 mm 0.00 in0.0 mm 0.00 in0.0 mm
04:07 AM 43.4°F6.3°C 41.0°F5.0°C 91% 9.2 mph S14.8 kmh S 13.0 mph20.9 kmh 29.09 in985.1 mb 0.00 in0.0 mm 0.00 in0.0 mm 0.00 in0.0 mm
04:08 AM 43.4°F6.3°C 41.0°F5.0°C 91% 11.2 mph S18.0 kmh S 15.0 mph24.1 kmh 29.09 in985.1 mb 0.00 in0.0 mm 0.00 in0.0 mm 0.00 in0.0 mm
04:09 AM 43.4°F6.3°C 41.0°F5.0°C 91% 9.6 mph S15.4 kmh S 15.0 mph24.1 kmh 29.09 in985.1 mb 0.00 in0.0 mm 0.00 in0.0 mm 0.00 in0.0 mm
04:10 AM 43.4°F6.3°C 41.0°F5.0°C 91% 7.4 mph S11.9 kmh S 14.0 mph22.5 kmh 29.09 in985.1 mb 0.00 in0.0 mm 0.00 in0.0 mm 0.00 in0.0 mm
04:11 AM 43.4°F6.3°C 40.7°F4.8°C 90% 8.5 mph S13.7 kmh S 13.0 mph20.9 kmh 29.09 in985.1 mb 0.00 in0.0 mm 0.00 in0.0 mm 0.00 in0.0 mm
04:12 AM 43.4°F6.3°C 40.7°F4.8°C 90% 8.0 mph S12.9 kmh S 13.0 mph20.9 kmh 29.09 in985.1 mb 0.00 in0.0 mm 0.00 in0.0 mm 0.00 in0.0 mm
04:13 AM 43.4°F6.3°C 40.7°F4.8°C 90% 7.1 mph SSW11.4 kmh SSW 10.0 mph16.1 kmh 29.09 in985.1 mb 0.00 in0.0 mm 0.00 in0.0 mm 0.00 in0.0 mm
04:14 AM 43.4°F6.3°C 40.7°F4.8°C 90% 6.6 mph S10.6 kmh S 9.0 mph14.5 kmh 29.09 in985.1 mb 0.00 in0.0 mm 0.00 in0.0 mm 0.00 in0.0 mm
04:15 AM 43.4°F6.3°C 40.7°F4.8°C 90% 7.1 mph SSW11.4 kmh SSW 9.0 mph14.5 kmh 29.09 in985.1 mb 0.00 in0.0 mm 0.00 in0.0 mm 0.00 in0.0 mm
04:16 AM 43.4°F6.3°C 40.7°F4.8°C 90% 8.8 mph SSW14.2 kmh SSW 14.0 mph22.5 kmh 29.09 in985.1 mb 0.00 in0.0 mm 0.00 in0.0 mm 0.00 in0.0 mm
04:17 AM 43.4°F6.3°C 40.7°F4.8°C 90% 11.5 mph S18.5 kmh S 14.0 mph22.5 kmh 29.09 in985.1 mb 0.00 in0.0 mm 0.00 in0.0 mm 0.00 in0.0 mm
04:18 AM 43.4°F6.3°C 40.7°F4.8°C 90% 8.3 mph S13.4 kmh S 15.0 mph24.1 kmh 29.09 in985.1 mb 0.00 in0.0 mm 0.00 in0.0 mm 0.00 in0.0 mm
04:19 AM 43.4°F6.3°C 40.7°F4.8°C 90% 6.5 mph S10.5 kmh S 15.0 mph24.1 kmh 29.09 in985.1 mb 0.00 in0.0 mm 0.00 in0.0 mm 0.00 in0.0 mm
04:20 AM 43.4°F6.3°C 40.7°F4.8°C 90% 8.3 mph S13.4 kmh S 12.0 mph19.3 kmh 29.09 in985.1 mb 0.00 in0.0 mm 0.00 in0.0 mm 0.00 in0.0 mm
04:21 AM 43.4°F6.3°C 40.7°F4.8°C 90% 8.1 mph S13.0 kmh S 12.0 mph19.3 kmh 29.09 in985.1 mb 0.00 in0.0 mm 0.00 in0.0 mm 0.00 in0.0 mm
04:22 AM 43.3°F6.3°C 40.6°F4.8°C 90% 8.3 mph S13.4 kmh S 11.0 mph17.7 kmh 29.09 in985.1 mb 0.00 in0.0 mm 0.00 in0.0 mm 0.00 in0.0 mm
04:23 AM 43.3°F6.3°C 40.6°F4.8°C 90% 8.5 mph S13.7 kmh S 11.0 mph17.7 kmh 29.09 in985.1 mb 0.00 in0.0 mm 0.00 in0.0 mm 0.00 in0.0 mm
04:24 AM 43.3°F6.3°C 40.6°F4.8°C 90% 8.0 mph S12.9 kmh S 11.0 mph17.7 kmh 29.09 in985.1 mb 0.00 in0.0 mm 0.00 in0.0 mm 0.00 in0.0 mm
04:25 AM 43.3°F6.3°C 40.6°F4.8°C 90% 9.1 mph S14.6 kmh S 15.0 mph24.1 kmh 29.09 in985.1 mb 0.00 in0.0 mm 0.00 in0.0 mm 0.00 in0.0 mm
04:26 AM 43.2°F6.2°C 40.5°F4.7°C 90% 7.3 mph S11.7 kmh S 15.0 mph24.1 kmh 29.09 in985.1 mb 0.00 in0.0 mm 0.00 in0.0 mm 0.00 in0.0 mm
04:27 AM 43.1°F6.2°C 40.4°F4.7°C 90% 8.2 mph S13.2 kmh S 11.0 mph17.7 kmh 29.09 in985.1 mb 0.01 in0.3 mm 0.60 in15.2 mm 0.01 in0.3 mm
04:28 AM 43.1°F6.2°C 40.4°F4.7°C 90% 9.0 mph S14.5 kmh S 11.0 mph17.7 kmh 29.09 in985.1 mb 0.01 in0.3 mm 0.00 in0.0 mm 0.01 in0.3 mm
04:29 AM 43.1°F6.2°C 40.4°F4.7°C 90% 9.1 mph S14.6 kmh S 14.0 mph22.5 kmh 29.09 in985.1 mb 0.01 in0.3 mm 0.00 in0.0 mm 0.01 in0.3 mm
04:30 AM 43.1°F6.2°C 40.4°F4.7°C 90% 10.0 mph S16.1 kmh S 14.0 mph22.5 kmh 29.09 in985.1 mb 0.01 in0.3 mm 0.00 in0.0 mm 0.01 in0.3 mm
04:31 AM 43.1°F6.2°C 40.4°F4.7°C 90% 8.6 mph S13.8 kmh S 13.0 mph20.9 kmh 29.09 in985.1 mb 0.01 in0.3 mm 0.00 in0.0 mm 0.01 in0.3 mm
04:32 AM 43.0°F6.1°C 40.3°F4.6°C 90% 8.9 mph S14.3 kmh S 13.0 mph20.9 kmh 29.09 in985.1 mb 0.01 in0.3 mm 0.00 in0.0 mm 0.01 in0.3 mm
04:33 AM 42.9°F6.1°C 40.2°F4.6°C 90% 7.5 mph S12.1 kmh S 13.0 mph20.9 kmh 29.09 in985.1 mb 0.01 in0.3 mm 0.00 in0.0 mm 0.01 in0.3 mm
04:34 AM 42.9°F6.1°C 40.2°F4.6°C 90% 6.9 mph S11.1 kmh S 10.0 mph16.1 kmh 29.09 in985.1 mb 0.01 in0.3 mm 0.00 in0.0 mm 0.01 in0.3 mm
04:35 AM 42.9°F6.1°C 40.2°F4.6°C 90% 11.3 mph S18.2 kmh S 16.0 mph25.7 kmh 29.09 in985.1 mb 0.01 in0.3 mm 0.00 in0.0 mm 0.01 in0.3 mm
04:36 AM 42.8°F6.0°C 40.1°F4.5°C 90% 9.9 mph SSW15.9 kmh SSW 17.0 mph27.4 kmh 29.09 in985.1 mb 0.01 in0.3 mm 0.00 in0.0 mm 0.01 in0.3 mm
04:37 AM 42.9°F6.1°C 40.2°F4.6°C 90% 9.4 mph S15.1 kmh S 17.0 mph27.4 kmh 29.09 in985.1 mb 0.01 in0.3 mm 0.00 in0.0 mm 0.01 in0.3 mm
04:38 AM 42.9°F6.1°C 40.2°F4.6°C 90% 12.6 mph S20.3 kmh S 19.0 mph30.6 kmh 29.09 in985.1 mb 0.01 in0.3 mm 0.00 in0.0 mm 0.01 in0.3 mm
04:39 AM 42.9°F6.1°C 40.2°F4.6°C 90% 9.8 mph S15.8 kmh S 19.0 mph30.6 kmh 29.09 in985.1 mb 0.01 in0.3 mm 0.00 in0.0 mm 0.01 in0.3 mm
04:40 AM 42.9°F6.1°C 40.2°F4.6°C 90% 10.7 mph SSW17.2 kmh SSW 15.0 mph24.1 kmh 29.09 in985.1 mb 0.01 in0.3 mm 0.00 in0.0 mm 0.01 in0.3 mm
04:41 AM 42.9°F6.1°C 40.2°F4.6°C 90% 9.2 mph SSW14.8 kmh SSW 15.0 mph24.1 kmh 29.09 in985.1 mb 0.01 in0.3 mm 0.00 in0.0 mm 0.01 in0.3 mm
04:42 AM 42.8°F6.0°C 40.1°F4.5°C 90% 9.6 mph SSW15.4 kmh SSW 12.0 mph19.3 kmh 29.09 in985.1 mb 0.02 in0.5 mm 0.60 in15.2 mm 0.02 in0.5 mm
04:43 AM 42.8°F6.0°C 40.1°F4.5°C 90% 8.7 mph SSW14.0 kmh SSW 15.0 mph24.1 kmh 29.09 in985.1 mb 0.02 in0.5 mm 0.00 in0.0 mm 0.02 in0.5 mm
04:44 AM 42.8°F6.0°C 40.1°F4.5°C 90% 8.7 mph SSW14.0 kmh SSW 15.0 mph24.1 kmh 29.09 in985.1 mb 0.02 in0.5 mm 0.00 in0.0 mm 0.02 in0.5 mm
04:45 AM 42.8°F6.0°C 40.1°F4.5°C 90% 7.7 mph SSW12.4 kmh SSW 12.0 mph19.3 kmh 29.09 in985.1 mb 0.02 in0.5 mm 0.00 in0.0 mm 0.02 in0.5 mm
04:46 AM 42.7°F5.9°C 40.0°F4.4°C 90% 8.2 mph S13.2 kmh S 11.0 mph17.7 kmh 29.09 in985.1 mb 0.02 in0.5 mm 0.00 in0.0 mm 0.02 in0.5 mm
04:47 AM 42.7°F5.9°C 40.0°F4.4°C 90% 8.4 mph SSW13.5 kmh SSW 12.0 mph19.3 kmh 29.09 in985.1 mb 0.02 in0.5 mm 0.00 in0.0 mm 0.02 in0.5 mm
04:48 AM 42.7°F5.9°C 40.3°F4.6°C 91% 8.4 mph S13.5 kmh S 12.0 mph19.3 kmh 29.09 in985.1 mb 0.02 in0.5 mm 0.00 in0.0 mm 0.02 in0.5 mm
04:49 AM 42.7°F5.9°C 40.3°F4.6°C 91% 7.7 mph S12.4 kmh S 11.0 mph17.7 kmh 29.09 in985.1 mb 0.02 in0.5 mm 0.00 in0.0 mm 0.02 in0.5 mm
04:50 AM 42.7°F5.9°C 40.3°F4.6°C 91% 9.0 mph SSW14.5 kmh SSW 12.0 mph19.3 kmh 29.09 in985.1 mb 0.02 in0.5 mm 0.00 in0.0 mm 0.02 in0.5 mm
04:51 AM 42.7°F5.9°C 40.3°F4.6°C 91% 9.2 mph S14.8 kmh S 14.0 mph22.5 kmh 29.09 in985.1 mb 0.02 in0.5 mm 0.00 in0.0 mm 0.02 in0.5 mm
04:52 AM 42.6°F5.9°C 40.2°F4.6°C 91% 7.4 mph SSW11.9 kmh SSW 14.0 mph22.5 kmh 29.09 in985.1 mb 0.02 in0.5 mm 0.00 in0.0 mm 0.02 in0.5 mm
04:53 AM 42.7°F5.9°C 40.3°F4.6°C 91% 7.9 mph S12.7 kmh S 12.0 mph19.3 kmh 29.09 in985.1 mb 0.02 in0.5 mm 0.00 in0.0 mm 0.02 in0.5 mm
04:54 AM 42.6°F5.9°C 40.2°F4.6°C 91% 7.9 mph SSW12.7 kmh SSW 12.0 mph19.3 kmh 29.09 in985.1 mb 0.02 in0.5 mm 0.00 in0.0 mm 0.02 in0.5 mm
04:55 AM 42.6°F5.9°C 40.2°F4.6°C 91% 8.0 mph S12.9 kmh S 11.0 mph17.7 kmh 29.09 in985.1 mb 0.02 in0.5 mm 0.00 in0.0 mm 0.02 in0.5 mm
04:56 AM 42.6°F5.9°C 40.2°F4.6°C 91% 9.4 mph SSW15.1 kmh SSW 13.0 mph20.9 kmh 29.09 in985.1 mb 0.02 in0.5 mm 0.00 in0.0 mm 0.02 in0.5 mm
04:57 AM 42.6°F5.9°C 40.2°F4.6°C 91% 8.2 mph SSW13.2 kmh SSW 13.0 mph20.9 kmh 29.09 in985.1 mb 0.02 in0.5 mm 0.00 in0.0 mm 0.02 in0.5 mm
04:58 AM 42.5°F5.8°C 40.1°F4.5°C 91% 7.5 mph SSW12.1 kmh SSW 12.0 mph19.3 kmh 29.09 in985.1 mb 0.02 in0.5 mm 0.00 in0.0 mm 0.02 in0.5 mm
04:59 AM 42.6°F5.9°C 40.2°F4.6°C 91% 8.3 mph SSW13.4 kmh SSW 12.0 mph19.3 kmh 29.09 in985.1 mb 0.02 in0.5 mm 0.00 in0.0 mm 0.02 in0.5 mm
05:00 AM 42.5°F5.8°C 40.1°F4.5°C 91% 7.9 mph SSW12.7 kmh SSW 12.0 mph19.3 kmh 29.09 in985.1 mb 0.02 in0.5 mm 0.00 in0.0 mm 0.02 in0.5 mm
05:01 AM 42.5°F5.8°C 40.1°F4.5°C 91% 9.5 mph SSW15.3 kmh SSW 12.0 mph19.3 kmh 29.09 in985.1 mb 0.02 in0.5 mm 0.00 in0.0 mm 0.02 in0.5 mm
05:02 AM 42.5°F5.8°C 40.1°F4.5°C 91% 9.2 mph SSW14.8 kmh SSW 12.0 mph19.3 kmh 29.09 in985.1 mb 0.02 in0.5 mm 0.00 in0.0 mm 0.02 in0.5 mm
05:03 AM 42.5°F5.8°C 40.1°F4.5°C 91% 8.2 mph SSW13.2 kmh SSW 12.0 mph19.3 kmh 29.09 in985.1 mb 0.02 in0.5 mm 0.00 in0.0 mm 0.02 in0.5 mm
05:04 AM 42.4°F5.8°C 40.0°F4.4°C 91% 6.4 mph S10.3 kmh S 9.0 mph14.5 kmh 29.09 in985.1 mb 0.02 in0.5 mm 0.00 in0.0 mm 0.02 in0.5 mm
05:05 AM 42.4°F5.8°C 40.0°F4.4°C 91% 7.0 mph SSW11.3 kmh SSW 9.0 mph14.5 kmh 29.09 in985.1 mb 0.02 in0.5 mm 0.00 in0.0 mm 0.02 in0.5 mm
05:06 AM 42.4°F5.8°C 40.0°F4.4°C 91% 7.0 mph S11.3 kmh S 10.0 mph16.1 kmh 29.09 in985.1 mb 0.02 in0.5 mm 0.00 in0.0 mm 0.02 in0.5 mm
05:07 AM 42.4°F5.8°C 40.0°F4.4°C 91% 6.9 mph SSW11.1 kmh SSW 10.0 mph16.1 kmh 29.09 in985.1 mb 0.03 in0.8 mm 0.60 in15.2 mm 0.03 in0.8 mm
05:08 AM 42.4°F5.8°C 40.0°F4.4°C 91% 7.0 mph SSW11.3 kmh SSW 12.0 mph19.3 kmh 29.09 in985.1 mb 0.03 in0.8 mm 0.00 in0.0 mm 0.03 in0.8 mm
05:09 AM 42.3°F5.7°C 39.9°F4.4°C 91% 10.6 mph S17.1 kmh S 13.0 mph20.9 kmh 29.08 in984.8 mb 0.03 in0.8 mm 0.00 in0.0 mm 0.03 in0.8 mm
05:10 AM 42.3°F5.7°C 39.9°F4.4°C 91% 8.2 mph SSW13.2 kmh SSW 14.0 mph22.5 kmh 29.09 in985.1 mb 0.03 in0.8 mm 0.00 in0.0 mm 0.03 in0.8 mm
05:11 AM 42.3°F5.7°C 39.9°F4.4°C 91% 7.9 mph S12.7 kmh S 14.0 mph22.5 kmh 29.08 in984.8 mb 0.03 in0.8 mm 0.00 in0.0 mm 0.03 in0.8 mm
05:12 AM 42.3°F5.7°C 39.9°F4.4°C 91% 9.0 mph S14.5 kmh S 12.0 mph19.3 kmh 29.08 in984.8 mb 0.03 in0.8 mm 0.00 in0.0 mm 0.03 in0.8 mm
05:13 AM 42.3°F5.7°C 39.9°F4.4°C 91% 9.3 mph S15.0 kmh S 12.0 mph19.3 kmh 29.08 in984.8 mb 0.04 in1.0 mm 0.60 in15.2 mm 0.04 in1.0 mm
05:14 AM 42.3°F5.7°C 39.9°F4.4°C 91% 6.7 mph S10.8 kmh S 12.0 mph19.3 kmh 29.08 in984.8 mb 0.04 in1.0 mm 0.00 in0.0 mm 0.04 in1.0 mm
05:15 AM 42.3°F5.7°C 39.9°F4.4°C 91% 8.1 mph S13.0 kmh S 11.0 mph17.7 kmh 29.08 in984.8 mb 0.04 in1.0 mm 0.00 in0.0 mm 0.04 in1.0 mm
05:16 AM 42.2°F5.7°C 39.8°F4.3°C 91% 7.3 mph S11.7 kmh S 11.0 mph17.7 kmh 29.08 in984.8 mb 0.04 in1.0 mm 0.00 in0.0 mm 0.04 in1.0 mm
05:17 AM 42.2°F5.7°C 39.8°F4.3°C 91% 7.8 mph SSW12.6 kmh SSW 11.0 mph17.7 kmh 29.08 in984.8 mb 0.04 in1.0 mm 0.00 in0.0 mm 0.04 in1.0 mm
05:18 AM 42.2°F5.7°C 39.8°F4.3°C 91% 6.4 mph S10.3 kmh S 11.0 mph17.7 kmh 29.08 in984.8 mb 0.04 in1.0 mm 0.00 in0.0 mm 0.04 in1.0 mm
05:19 AM 42.1°F5.6°C 39.7°F4.3°C 91% 7.5 mph SSW12.1 kmh SSW 11.0 mph17.7 kmh 29.08 in984.8 mb 0.05 in1.3 mm 0.60 in15.2 mm 0.05 in1.3 mm
05:20 AM 42.1°F5.6°C 39.7°F4.3°C 91% 9.1 mph S14.6 kmh S 13.0 mph20.9 kmh 29.08 in984.8 mb 0.05 in1.3 mm 0.00 in0.0 mm 0.05 in1.3 mm
05:21 AM 42.1°F5.6°C 39.7°F4.3°C 91% 8.5 mph S13.7 kmh S 13.0 mph20.9 kmh 29.08 in984.8 mb 0.05 in1.3 mm 0.00 in0.0 mm 0.05 in1.3 mm
05:22 AM 42.1°F5.6°C 39.7°F4.3°C 91% 6.6 mph SSW10.6 kmh SSW 13.0 mph20.9 kmh 29.08 in984.8 mb 0.05 in1.3 mm 0.00 in0.0 mm 0.05 in1.3 mm
05:23 AM 42.1°F5.6°C 39.7°F4.3°C 91% 7.5 mph SSW12.1 kmh SSW 10.0 mph16.1 kmh 29.08 in984.8 mb 0.05 in1.3 mm 0.00 in0.0 mm 0.05 in1.3 mm
05:24 AM 42.1°F5.6°C 39.7°F4.3°C 91% 6.9 mph S11.1 kmh S 10.0 mph16.1 kmh 29.08 in984.8 mb 0.06 in1.5 mm 0.60 in15.2 mm 0.06 in1.5 mm
05:25 AM 42.1°F5.6°C 39.7°F4.3°C 91% 9.1 mph SSW14.6 kmh SSW 13.0 mph20.9 kmh 29.08 in984.8 mb 0.06 in1.5 mm 0.00 in0.0 mm 0.06 in1.5 mm
05:26 AM 42.0°F5.6°C 39.6°F4.2°C 91% 8.5 mph SSW13.7 kmh SSW 13.0 mph20.9 kmh 29.08 in984.8 mb 0.06 in1.5 mm 0.00 in0.0 mm 0.06 in1.5 mm
05:27 AM 42.1°F5.6°C 39.7°F4.3°C 91% 8.1 mph SSW13.0 kmh SSW 11.0 mph17.7 kmh 29.08 in984.8 mb 0.05 in1.3 mm 0.00 in0.0 mm 0.06 in1.5 mm
05:28 AM 42.0°F5.6°C 39.6°F4.2°C 91% 8.2 mph SSW13.2 kmh SSW 12.0 mph19.3 kmh 29.08 in984.8 mb 0.05 in1.3 mm 0.00 in0.0 mm 0.06 in1.5 mm
05:29 AM 42.0°F5.6°C 39.6°F4.2°C 91% 7.7 mph S12.4 kmh S 13.0 mph20.9 kmh 29.08 in984.8 mb 0.06 in1.5 mm 0.60 in15.2 mm 0.06 in1.5 mm
05:30 AM 41.9°F5.5°C 39.5°F4.2°C 91% 7.3 mph SSW11.7 kmh SSW 13.0 mph20.9 kmh 29.08 in984.8 mb 0.06 in1.5 mm 0.00 in0.0 mm 0.06 in1.5 mm
05:31 AM 42.0°F5.6°C 39.6°F4.2°C 91% 8.0 mph S12.9 kmh S 12.0 mph19.3 kmh 29.08 in984.8 mb 0.06 in1.5 mm 0.00 in0.0 mm 0.06 in1.5 mm
05:32 AM 41.9°F5.5°C 39.5°F4.2°C 91% 7.4 mph S11.9 kmh S 12.0 mph19.3 kmh 29.08 in984.8 mb 0.06 in1.5 mm 0.00 in0.0 mm 0.06 in1.5 mm
05:33 AM 41.9°F5.5°C 39.5°F4.2°C 91% 7.0 mph SSW11.3 kmh SSW 11.0 mph17.7 kmh 29.08 in984.8 mb 0.06 in1.5 mm 0.00 in0.0 mm 0.07 in1.8 mm
05:34 AM 41.9°F5.5°C 39.5°F4.2°C 91% 5.6 mph S9.0 kmh S 10.0 mph16.1 kmh 29.08 in984.8 mb 0.06 in1.5 mm 0.00 in0.0 mm 0.07 in1.8 mm
05:35 AM 41.9°F5.5°C 39.5°F4.2°C 91% 6.5 mph SSW10.5 kmh SSW 9.0 mph14.5 kmh 29.08 in984.8 mb 0.06 in1.5 mm 0.00 in0.0 mm 0.07 in1.8 mm
05:36 AM 41.9°F5.5°C 39.5°F4.2°C 91% 8.5 mph SSW13.7 kmh SSW 12.0 mph19.3 kmh 29.08 in984.8 mb 0.06 in1.5 mm 0.00 in0.0 mm 0.07 in1.8 mm
05:37 AM 41.9°F5.5°C 39.5°F4.2°C 91% 7.1 mph SSW11.4 kmh SSW 12.0 mph19.3 kmh 29.08 in984.8 mb 0.07 in1.8 mm 0.60 in15.2 mm 0.08 in2.0 mm
05:38 AM 41.8°F5.4°C 39.4°F4.1°C 91% 6.3 mph S10.1 kmh S 11.0 mph17.7 kmh 29.08 in984.8 mb 0.07 in1.8 mm 0.00 in0.0 mm 0.08 in2.0 mm
05:39 AM 41.8°F5.4°C 39.4°F4.1°C 91% 5.5 mph S8.9 kmh S 11.0 mph17.7 kmh 29.08 in984.8 mb 0.07 in1.8 mm 0.00 in0.0 mm 0.08 in2.0 mm
05:40 AM 41.8°F5.4°C 39.4°F4.1°C 91% 6.1 mph SSW9.8 kmh SSW 9.0 mph14.5 kmh 29.08 in984.8 mb 0.07 in1.8 mm 0.00 in0.0 mm 0.08 in2.0 mm
05:41 AM 41.8°F5.4°C 39.4°F4.1°C 91% 5.9 mph SSW9.5 kmh SSW 9.0 mph14.5 kmh 29.08 in984.8 mb 0.08 in2.0 mm 0.60 in15.2 mm 0.09 in2.3 mm
05:42 AM 41.8°F5.4°C 39.4°F4.1°C 91% 6.5 mph SSW10.5 kmh SSW 12.0 mph19.3 kmh 29.08 in984.8 mb 0.07 in1.8 mm 0.00 in0.0 mm 0.09 in2.3 mm
05:43 AM 41.8°F5.4°C 39.4°F4.1°C 91% 8.4 mph S13.5 kmh S 12.0 mph19.3 kmh 29.08 in984.8 mb 0.07 in1.8 mm 0.00 in0.0 mm 0.09 in2.3 mm
05:44 AM 41.7°F5.4°C 39.3°F4.1°C 91% 7.4 mph SSW11.9 kmh SSW 12.0 mph19.3 kmh 29.08 in984.8 mb 0.07 in1.8 mm 0.00 in0.0 mm 0.09 in2.3 mm
05:45 AM 41.6°F5.3°C 39.2°F4.0°C 91% 7.9 mph S12.7 kmh S 12.0 mph19.3 kmh 29.08 in984.8 mb 0.08 in2.0 mm 0.60 in15.2 mm 0.09 in2.3 mm
05:46 AM 41.6°F5.3°C 39.2°F4.0°C 91% 7.9 mph S12.7 kmh S 15.0 mph24.1 kmh 29.08 in984.8 mb 0.08 in2.0 mm 0.00 in0.0 mm 0.09 in2.3 mm
05:47 AM 41.6°F5.3°C 39.2°F4.0°C 91% 11.2 mph S18.0 kmh S 15.0 mph24.1 kmh 29.08 in984.8 mb 0.08 in2.0 mm 0.00 in0.0 mm 0.09 in2.3 mm
05:48 AM 41.5°F5.3°C 39.1°F3.9°C 91% 9.2 mph SSW14.8 kmh SSW 15.0 mph24.1 kmh 29.08 in984.8 mb 0.08 in2.0 mm 0.00 in0.0 mm 0.09 in2.3 mm
05:49 AM 41.5°F5.3°C 39.1°F3.9°C 91% 7.1 mph SSW11.4 kmh SSW 13.0 mph20.9 kmh 29.08 in984.8 mb 0.08 in2.0 mm 0.00 in0.0 mm 0.09 in2.3 mm
05:50 AM 41.4°F5.2°C 39.0°F3.9°C 91% 6.1 mph S9.8 kmh S 9.0 mph14.5 kmh 29.08 in984.8 mb 0.09 in2.3 mm 0.60 in15.2 mm 0.10 in2.5 mm
05:51 AM 41.4°F5.2°C 39.0°F3.9°C 91% 7.5 mph S12.1 kmh S 10.0 mph16.1 kmh 29.08 in984.8 mb 0.08 in2.0 mm 0.00 in0.0 mm 0.10 in2.5 mm
05:52 AM 41.4°F5.2°C 39.0°F3.9°C 91% 8.8 mph S14.2 kmh S 13.0 mph20.9 kmh 29.08 in984.8 mb 0.08 in2.0 mm 0.00 in0.0 mm 0.10 in2.5 mm
05:53 AM 41.4°F5.2°C 39.0°F3.9°C 91% 8.8 mph S14.2 kmh S 13.0 mph20.9 kmh 29.08 in984.8 mb 0.08 in2.0 mm 0.00 in0.0 mm 0.10 in2.5 mm
05:54 AM 41.3°F5.2°C 38.9°F3.8°C 91% 7.4 mph S11.9 kmh S 12.0 mph19.3 kmh 29.08 in984.8 mb 0.08 in2.0 mm 0.00 in0.0 mm 0.10 in2.5 mm
05:55 AM 41.2°F5.1°C 38.8°F3.8°C 91% 8.5 mph S13.7 kmh S 11.0 mph17.7 kmh 29.08 in984.8 mb 0.08 in2.0 mm 0.00 in0.0 mm 0.10 in2.5 mm
05:56 AM 41.2°F5.1°C 38.8°F3.8°C 91% 5.8 mph S9.3 kmh S 11.0 mph17.7 kmh 29.08 in984.8 mb 0.09 in2.3 mm 0.60 in15.2 mm 0.11 in2.8 mm
05:57 AM 41.2°F5.1°C 38.8°F3.8°C 91% 5.5 mph S8.9 kmh S 8.0 mph12.9 kmh 29.08 in984.8 mb 0.09 in2.3 mm 0.00 in0.0 mm 0.11 in2.8 mm
05:58 AM 41.1°F5.1°C 38.7°F3.7°C 91% 7.5 mph S12.1 kmh S 11.0 mph17.7 kmh 29.07 in984.4 mb 0.09 in2.3 mm 0.00 in0.0 mm 0.11 in2.8 mm
05:59 AM 41.0°F5.0°C 38.6°F3.7°C 91% 5.9 mph S9.5 kmh S 11.0 mph17.7 kmh 29.07 in984.4 mb 0.09 in2.3 mm 0.00 in0.0 mm 0.11 in2.8 mm
06:00 AM 41.0°F5.0°C 38.6°F3.7°C 91% 5.7 mph S9.2 kmh S 9.0 mph14.5 kmh 29.07 in984.4 mb 0.09 in2.3 mm 0.00 in0.0 mm 0.11 in2.8 mm
06:01 AM 40.9°F4.9°C 38.5°F3.6°C 91% 6.9 mph S11.1 kmh S 9.0 mph14.5 kmh 29.07 in984.4 mb 0.09 in2.3 mm 0.00 in0.0 mm 0.11 in2.8 mm
06:02 AM 40.9°F4.9°C 38.5°F3.6°C 91% 8.3 mph S13.4 kmh S 11.0 mph17.7 kmh 29.07 in984.4 mb 0.09 in2.3 mm 0.00 in0.0 mm 0.11 in2.8 mm
06:03 AM 40.9°F4.9°C 38.5°F3.6°C 91% 5.3 mph S8.5 kmh S 11.0 mph17.7 kmh 29.07 in984.4 mb 0.09 in2.3 mm 0.00 in0.0 mm 0.12 in3.0 mm
06:04 AM 40.8°F4.9°C 38.4°F3.6°C 91% 6.1 mph SSE9.8 kmh SSE 9.0 mph14.5 kmh 29.07 in984.4 mb 0.09 in2.3 mm 0.00 in0.0 mm 0.12 in3.0 mm
06:05 AM 40.8°F4.9°C 38.4°F3.6°C 91% 6.4 mph SSE10.3 kmh SSE 10.0 mph16.1 kmh 29.07 in984.4 mb 0.09 in2.3 mm 0.00 in0.0 mm 0.12 in3.0 mm
06:06 AM 40.8°F4.9°C 38.4°F3.6°C 91% 5.5 mph SSE8.9 kmh SSE 10.0 mph16.1 kmh 29.07 in984.4 mb 0.09 in2.3 mm 0.00 in0.0 mm 0.12 in3.0 mm
06:07 AM 40.7°F4.8°C 38.3°F3.5°C 91% 6.3 mph SSE10.1 kmh SSE 10.0 mph16.1 kmh 29.07 in984.4 mb 0.09 in2.3 mm 0.00 in0.0 mm 0.12 in3.0 mm
06:08 AM 40.7°F4.8°C 38.3°F3.5°C 91% 5.8 mph SSE9.3 kmh SSE 8.0 mph12.9 kmh 29.07 in984.4 mb 0.09 in2.3 mm 0.00 in0.0 mm 0.12 in3.0 mm
06:09 AM 40.6°F4.8°C 38.2°F3.4°C 91% 4.9 mph SSE7.9 kmh SSE 8.0 mph12.9 kmh 29.07 in984.4 mb 0.09 in2.3 mm 0.00 in0.0 mm 0.12 in3.0 mm
06:10 AM 40.6°F4.8°C 38.2°F3.4°C 91% 4.5 mph SSE7.2 kmh SSE 7.0 mph11.3 kmh 29.07 in984.4 mb 0.09 in2.3 mm 0.00 in0.0 mm 0.12 in3.0 mm
06:11 AM 40.5°F4.7°C 38.1°F3.4°C 91% 5.7 mph S9.2 kmh S 8.0 mph12.9 kmh 29.07 in984.4 mb 0.09 in2.3 mm 0.00 in0.0 mm 0.12 in3.0 mm
06:12 AM 40.5°F4.7°C 38.1°F3.4°C 91% 6.3 mph S10.1 kmh S 9.0 mph14.5 kmh 29.07 in984.4 mb 0.09 in2.3 mm 0.00 in0.0 mm 0.12 in3.0 mm
06:13 AM 40.4°F4.7°C 38.0°F3.3°C 91% 6.5 mph S10.5 kmh S 9.0 mph14.5 kmh 29.07 in984.4 mb 0.08 in2.0 mm 0.00 in0.0 mm 0.12 in3.0 mm
06:14 AM 40.4°F4.7°C 38.0°F3.3°C 91% 5.8 mph S9.3 kmh S 9.0 mph14.5 kmh 29.07 in984.4 mb 0.08 in2.0 mm 0.00 in0.0 mm 0.12 in3.0 mm
06:15 AM 40.4°F4.7°C 38.0°F3.3°C 91% 4.7 mph S7.6 kmh S 8.0 mph12.9 kmh 29.07 in984.4 mb 0.08 in2.0 mm 0.00 in0.0 mm 0.12 in3.0 mm
06:16 AM 40.4°F4.7°C 38.0°F3.3°C 91% 6.8 mph S10.9 kmh S 9.0 mph14.5 kmh 29.07 in984.4 mb 0.08 in2.0 mm 0.00 in0.0 mm 0.12 in3.0 mm
06:17 AM 40.3°F4.6°C 37.9°F3.3°C 91% 5.5 mph S8.9 kmh S 9.0 mph14.5 kmh 29.07 in984.4 mb 0.08 in2.0 mm 0.00 in0.0 mm 0.12 in3.0 mm
06:18 AM 40.3°F4.6°C 37.9°F3.3°C 91% 6.3 mph S10.1 kmh S 10.0 mph16.1 kmh 29.07 in984.4 mb 0.08 in2.0 mm 0.00 in0.0 mm 0.12 in3.0 mm
06:19 AM 40.3°F4.6°C 37.9°F3.3°C 91% 5.8 mph S9.3 kmh S 10.0 mph16.1 kmh 29.07 in984.4 mb 0.08 in2.0 mm 0.00 in0.0 mm 0.13 in3.3 mm
06:20 AM 40.2°F4.6°C 37.8°F3.2°C 91% 6.7 mph S10.8 kmh S 10.0 mph16.1 kmh 29.07 in984.4 mb 0.08 in2.0 mm 0.00 in0.0 mm 0.13 in3.3 mm
06:21 AM 40.2°F4.6°C 37.8°F3.2°C 91% 5.9 mph S9.5 kmh S 11.0 mph17.7 kmh 29.07 in984.4 mb 0.08 in2.0 mm 0.00 in0.0 mm 0.13 in3.3 mm
06:22 AM 40.2°F4.6°C 37.8°F3.2°C 91% 4.3 mph S6.9 kmh S 11.0 mph17.7 kmh 29.07 in984.4 mb 0.08 in2.0 mm 0.00 in0.0 mm 0.13 in3.3 mm
06:23 AM 40.2°F4.6°C 37.8°F3.2°C 91% 3.5 mph S5.6 kmh S 7.0 mph11.3 kmh 29.07 in984.4 mb 0.08 in2.0 mm 0.00 in0.0 mm 0.13 in3.3 mm
06:24 AM 40.2°F4.6°C 37.8°F3.2°C 91% 3.7 mph SSE6.0 kmh SSE 7.0 mph11.3 kmh 29.07 in984.4 mb 0.07 in1.8 mm 0.00 in0.0 mm 0.13 in3.3 mm
06:25 AM 40.1°F4.5°C 38.0°F3.3°C 92% 3.6 mph S5.8 kmh S 7.0 mph11.3 kmh 29.07 in984.4 mb 0.07 in1.8 mm 0.00 in0.0 mm 0.13 in3.3 mm
06:26 AM 40.2°F4.6°C 38.1°F3.4°C 92% 4.3 mph SSE6.9 kmh SSE 8.0 mph12.9 kmh 29.07 in984.4 mb 0.07 in1.8 mm 0.00 in0.0 mm 0.13 in3.3 mm
06:27 AM 40.1°F4.5°C 38.0°F3.3°C 92% 4.5 mph S7.2 kmh S 8.0 mph12.9 kmh 29.07 in984.4 mb 0.07 in1.8 mm 0.00 in0.0 mm 0.13 in3.3 mm
06:28 AM 40.1°F4.5°C 38.0°F3.3°C 92% 4.8 mph SSE7.7 kmh SSE 6.0 mph9.7 kmh 29.07 in984.4 mb 0.07 in1.8 mm 0.00 in0.0 mm 0.13 in3.3 mm
06:29 AM 40.1°F4.5°C 38.0°F3.3°C 92% 4.3 mph SSE6.9 kmh SSE 7.0 mph11.3 kmh 29.07 in984.4 mb 0.06 in1.5 mm 0.00 in0.0 mm 0.13 in3.3 mm
06:30 AM 40.1°F4.5°C 38.0°F3.3°C 92% 4.9 mph S7.9 kmh S 8.0 mph12.9 kmh 29.07 in984.4 mb 0.06 in1.5 mm 0.00 in0.0 mm 0.13 in3.3 mm
06:31 AM 40.0°F4.4°C 37.9°F3.3°C 92% 5.1 mph SSE8.2 kmh SSE 9.0 mph14.5 kmh 29.07 in984.4 mb 0.06 in1.5 mm 0.00 in0.0 mm 0.13 in3.3 mm
06:32 AM 40.0°F4.4°C 37.9°F3.3°C 92% 5.2 mph SSE8.4 kmh SSE 9.0 mph14.5 kmh 29.07 in984.4 mb 0.06 in1.5 mm 0.00 in0.0 mm 0.13 in3.3 mm
06:33 AM 40.0°F4.4°C 37.9°F3.3°C 92% 4.8 mph SSE7.7 kmh SSE 8.0 mph12.9 kmh 29.07 in984.4 mb 0.06 in1.5 mm 0.00 in0.0 mm 0.13 in3.3 mm
06:34 AM 40.0°F4.4°C 37.9°F3.3°C 92% 5.9 mph SSE9.5 kmh SSE 8.0 mph12.9 kmh 29.07 in984.4 mb 0.06 in1.5 mm 0.00 in0.0 mm 0.13 in3.3 mm
06:35 AM 40.0°F4.4°C 37.9°F3.3°C 92% 6.5 mph SSE10.5 kmh SSE 8.0 mph12.9 kmh 29.07 in984.4 mb 0.06 in1.5 mm 0.00 in0.0 mm 0.13 in3.3 mm
06:36 AM 39.9°F4.4°C 37.8°F3.2°C 92% 7.0 mph SSE11.3 kmh SSE 10.0 mph16.1 kmh 29.07 in984.4 mb 0.06 in1.5 mm 0.00 in0.0 mm 0.13 in3.3 mm
06:37 AM 39.9°F4.4°C 37.8°F3.2°C 92% 6.9 mph SSE11.1 kmh SSE 10.0 mph16.1 kmh 29.07 in984.4 mb 0.05 in1.3 mm 0.00 in0.0 mm 0.13 in3.3 mm
06:38 AM 39.9°F4.4°C 37.8°F3.2°C 92% 4.7 mph SE7.6 kmh SE 10.0 mph16.1 kmh 29.07 in984.4 mb 0.05 in1.3 mm 0.00 in0.0 mm 0.13 in3.3 mm
06:39 AM 39.9°F4.4°C 37.8°F3.2°C 92% 6.0 mph SSE9.7 kmh SSE 8.0 mph12.9 kmh 29.07 in984.4 mb 0.05 in1.3 mm 0.00 in0.0 mm 0.13 in3.3 mm
06:40 AM 39.8°F4.3°C 37.7°F3.2°C 92% 5.2 mph SSE8.4 kmh SSE 7.0 mph11.3 kmh 29.07 in984.4 mb 0.05 in1.3 mm 0.00 in0.0 mm 0.13 in3.3 mm
06:41 AM 39.8°F4.3°C 37.7°F3.2°C 92% 6.7 mph SE10.8 kmh SE 9.0 mph14.5 kmh 29.07 in984.4 mb 0.04 in1.0 mm 0.00 in0.0 mm 0.13 in3.3 mm
06:42 AM 39.8°F4.3°C 37.7°F3.2°C 92% 7.5 mph SE12.1 kmh SE 9.0 mph14.5 kmh 29.07 in984.4 mb 0.04 in1.0 mm 0.00 in0.0 mm 0.13 in3.3 mm
06:43 AM 39.8°F4.3°C 37.7°F3.2°C 92% 5.9 mph SSE9.5 kmh SSE 9.0 mph14.5 kmh 29.07 in984.4 mb 0.04 in1.0 mm 0.00 in0.0 mm 0.13 in3.3 mm
06:44 AM 39.8°F4.3°C 37.7°F3.2°C 92% 6.5 mph SSE10.5 kmh SSE 9.0 mph14.5 kmh 29.07 in984.4 mb 0.04 in1.0 mm 0.00 in0.0 mm 0.13 in3.3 mm
06:45 AM 39.8°F4.3°C 37.7°F3.2°C 92% 6.4 mph SSE10.3 kmh SSE 9.0 mph14.5 kmh 29.07 in984.4 mb 0.03 in0.8 mm 0.00 in0.0 mm 0.13 in3.3 mm
06:46 AM 39.7°F4.3°C 37.6°F3.1°C 92% 5.6 mph SE9.0 kmh SE 8.0 mph12.9 kmh 29.06 in984.1 mb 0.03 in0.8 mm 0.00 in0.0 mm 0.13 in3.3 mm
06:47 AM 39.7°F4.3°C 37.6°F3.1°C 92% 5.6 mph SSE9.0 kmh SSE 8.0 mph12.9 kmh 29.07 in984.4 mb 0.03 in0.8 mm 0.00 in0.0 mm 0.13 in3.3 mm
06:48 AM 39.7°F4.3°C 37.6°F3.1°C 92% 6.1 mph SE9.8 kmh SE 8.0 mph12.9 kmh 29.06 in984.1 mb 0.03 in0.8 mm 0.00 in0.0 mm 0.13 in3.3 mm
06:49 AM 39.7°F4.3°C 37.6°F3.1°C 92% 6.2 mph SE10.0 kmh SE 9.0 mph14.5 kmh 29.06 in984.1 mb 0.03 in0.8 mm 0.00 in0.0 mm 0.13 in3.3 mm
06:50 AM 39.7°F4.3°C 37.6°F3.1°C 92% 6.6 mph SSE10.6 kmh SSE 9.0 mph14.5 kmh 29.06 in984.1 mb 0.02 in0.5 mm 0.00 in0.0 mm 0.13 in3.3 mm
06:51 AM 39.6°F4.2°C 37.5°F3.1°C 92% 6.2 mph SSE10.0 kmh SSE 9.0 mph14.5 kmh 29.06 in984.1 mb 0.02 in0.5 mm 0.00 in0.0 mm 0.13 in3.3 mm
06:52 AM 39.6°F4.2°C 37.5°F3.1°C 92% 7.2 mph SSE11.6 kmh SSE 10.0 mph16.1 kmh 29.06 in984.1 mb 0.03 in0.8 mm 0.60 in15.2 mm 0.13 in3.3 mm
06:53 AM 39.6°F4.2°C 37.5°F3.1°C 92% 6.8 mph SSE10.9 kmh SSE 10.0 mph16.1 kmh 29.06 in984.1 mb 0.03 in0.8 mm 0.00 in0.0 mm 0.13 in3.3 mm
06:54 AM 39.5°F4.2°C 37.4°F3.0°C 92% 7.3 mph SSE11.7 kmh SSE 10.0 mph16.1 kmh 29.06 in984.1 mb 0.03 in0.8 mm 0.00 in0.0 mm 0.13 in3.3 mm
06:55 AM 39.6°F4.2°C 37.5°F3.1°C 92% 6.7 mph SE10.8 kmh SE 10.0 mph16.1 kmh 29.06 in984.1 mb 0.03 in0.8 mm 0.00 in0.0 mm 0.13 in3.3 mm
06:56 AM 39.5°F4.2°C 37.4°F3.0°C 92% 8.4 mph SE13.5 kmh SE 10.0 mph16.1 kmh 29.06 in984.1 mb 0.02 in0.5 mm 0.00 in0.0 mm 0.13 in3.3 mm
06:57 AM 39.5°F4.2°C 37.4°F3.0°C 92% 7.2 mph SE11.6 kmh SE 10.0 mph16.1 kmh 29.06 in984.1 mb 0.02 in0.5 mm 0.00 in0.0 mm 0.13 in3.3 mm
06:58 AM 39.5°F4.2°C 37.4°F3.0°C 92% 6.6 mph SE10.6 kmh SE 10.0 mph16.1 kmh 29.06 in984.1 mb 0.02 in0.5 mm 0.00 in0.0 mm 0.13 in3.3 mm
06:59 AM 39.5°F4.2°C 37.4°F3.0°C 92% 7.0 mph SE11.3 kmh SE 10.0 mph16.1 kmh 29.06 in984.1 mb 0.02 in0.5 mm 0.00 in0.0 mm 0.13 in3.3 mm
07:00 AM 39.4°F4.1°C 37.3°F2.9°C 92% 7.0 mph SSE11.3 kmh SSE 11.0 mph17.7 kmh 29.06 in984.1 mb 0.02 in0.5 mm 0.00 in0.0 mm 0.13 in3.3 mm
07:01 AM 39.5°F4.2°C 37.4°F3.0°C 92% 6.6 mph SSE10.6 kmh SSE 11.0 mph17.7 kmh 29.06 in984.1 mb 0.02 in0.5 mm 0.00 in0.0 mm 0.13 in3.3 mm
07:02 AM 39.4°F4.1°C 37.3°F2.9°C 92% 6.0 mph SE9.7 kmh SE 9.0 mph14.5 kmh 29.06 in984.1 mb 0.02 in0.5 mm 0.00 in0.0 mm 0.13 in3.3 mm
07:03 AM 39.5°F4.2°C 37.4°F3.0°C 92% 7.6 mph SE12.2 kmh SE 10.0 mph16.1 kmh 29.06 in984.1 mb 0.02 in0.5 mm 0.00 in0.0 mm 0.13 in3.3 mm
07:04 AM 39.5°F4.2°C 37.4°F3.0°C 92% 6.3 mph SE10.1 kmh SE 10.0 mph16.1 kmh 29.06 in984.1 mb 0.02 in0.5 mm 0.00 in0.0 mm 0.13 in3.3 mm
07:05 AM 39.4°F4.1°C 37.3°F2.9°C 92% 8.5 mph SE13.7 kmh SE 11.0 mph17.7 kmh 29.06 in984.1 mb 0.02 in0.5 mm 0.00 in0.0 mm 0.13 in3.3 mm
07:06 AM 39.4°F4.1°C 37.3°F2.9°C 92% 8.1 mph SE13.0 kmh SE 11.0 mph17.7 kmh 29.06 in984.1 mb 0.02 in0.5 mm 0.00 in0.0 mm 0.14 in3.6 mm
07:07 AM 39.4°F4.1°C 37.3°F2.9°C 92% 7.0 mph SE11.3 kmh SE 11.0 mph17.7 kmh 29.06 in984.1 mb 0.02 in0.5 mm 0.00 in0.0 mm 0.14 in3.6 mm
07:08 AM 39.4°F4.1°C 37.3°F2.9°C 92% 7.3 mph SE11.7 kmh SE 10.0 mph16.1 kmh 29.06 in984.1 mb 0.02 in0.5 mm 0.00 in0.0 mm 0.14 in3.6 mm
07:09 AM 39.4°F4.1°C 37.3°F2.9°C 92% 8.3 mph SE13.4 kmh SE 12.0 mph19.3 kmh 29.06 in984.1 mb 0.02 in0.5 mm 0.00 in0.0 mm 0.14 in3.6 mm
07:10 AM 39.4°F4.1°C 37.3°F2.9°C 92% 8.4 mph SSE13.5 kmh SSE 12.0 mph19.3 kmh 29.06 in984.1 mb 0.02 in0.5 mm 0.00 in0.0 mm 0.14 in3.6 mm
07:11 AM 39.4°F4.1°C 37.3°F2.9°C 92% 5.7 mph SSE9.2 kmh SSE 10.0 mph16.1 kmh 29.06 in984.1 mb 0.03 in0.8 mm 0.60 in15.2 mm 0.15 in3.8 mm
07:12 AM 39.4°F4.1°C 37.3°F2.9°C 92% 4.7 mph SSE7.6 kmh SSE 8.0 mph12.9 kmh 29.06 in984.1 mb 0.03 in0.8 mm 0.00 in0.0 mm 0.15 in3.8 mm
07:13 AM 39.4°F4.1°C 37.3°F2.9°C 92% 6.6 mph SSE10.6 kmh SSE 8.0 mph12.9 kmh 29.06 in984.1 mb 0.03 in0.8 mm 0.00 in0.0 mm 0.15 in3.8 mm
07:14 AM 39.5°F4.2°C 37.4°F3.0°C 92% 6.1 mph SSE9.8 kmh SSE 11.0 mph17.7 kmh 29.06 in984.1 mb 0.03 in0.8 mm 0.00 in0.0 mm 0.15 in3.8 mm
07:15 AM 39.5°F4.2°C 37.4°F3.0°C 92% 6.6 mph S10.6 kmh S 11.0 mph17.7 kmh 29.06 in984.1 mb 0.03 in0.8 mm 0.00 in0.0 mm 0.15 in3.8 mm
07:16 AM 39.5°F4.2°C 37.4°F3.0°C 92% 5.1 mph SSE8.2 kmh SSE 10.0 mph16.1 kmh 29.06 in984.1 mb 0.03 in0.8 mm 0.00 in0.0 mm 0.15 in3.8 mm
07:17 AM 39.5°F4.2°C 37.4°F3.0°C 92% 3.8 mph SSE6.1 kmh SSE 8.0 mph12.9 kmh 29.06 in984.1 mb 0.03 in0.8 mm 0.00 in0.0 mm 0.15 in3.8 mm
07:18 AM 39.6°F4.2°C 37.5°F3.1°C 92% 6.9 mph SSE11.1 kmh SSE 9.0 mph14.5 kmh 29.06 in984.1 mb 0.03 in0.8 mm 0.00 in0.0 mm 0.15 in3.8 mm
07:19 AM 39.6°F4.2°C 37.7°F3.2°C 93% 6.0 mph SSE9.7 kmh SSE 9.0 mph14.5 kmh 29.06 in984.1 mb 0.02 in0.5 mm 0.00 in0.0 mm 0.15 in3.8 mm
07:20 AM 39.6°F4.2°C 37.5°F3.1°C 92% 6.0 mph SSE9.7 kmh SSE 9.0 mph14.5 kmh 29.06 in984.1 mb 0.02 in0.5 mm 0.00 in0.0 mm 0.15 in3.8 mm
07:21 AM 39.6°F4.2°C 37.5°F3.1°C 92% 5.8 mph SSE9.3 kmh SSE 9.0 mph14.5 kmh 29.06 in984.1 mb 0.02 in0.5 mm 0.00 in0.0 mm 0.15 in3.8 mm
07:22 AM 39.6°F4.2°C 37.5°F3.1°C 92% 5.9 mph SSE9.5 kmh SSE 8.0 mph12.9 kmh 29.06 in984.1 mb 0.02 in0.5 mm 0.00 in0.0 mm 0.15 in3.8 mm
07:23 AM 39.6°F4.2°C 37.5°F3.1°C 92% 4.8 mph SSE7.7 kmh SSE 8.0 mph12.9 kmh 29.06 in984.1 mb 0.02 in0.5 mm 0.00 in0.0 mm 0.15 in3.8 mm
07:24 AM 39.6°F4.2°C 37.5°F3.1°C 92% 4.8 mph SSE7.7 kmh SSE 7.0 mph11.3 kmh 29.06 in984.1 mb 0.02 in0.5 mm 0.00 in0.0 mm 0.15 in3.8 mm
07:25 AM 39.6°F4.2°C 37.5°F3.1°C 92% 4.0 mph SE6.4 kmh SE 7.0 mph11.3 kmh 29.06 in984.1 mb 0.02 in0.5 mm 0.00 in0.0 mm 0.15 in3.8 mm
07:26 AM 39.6°F4.2°C 37.5°F3.1°C 92% 5.6 mph SSE9.0 kmh SSE 9.0 mph14.5 kmh 29.06 in984.1 mb 0.02 in0.5 mm 0.00 in0.0 mm 0.15 in3.8 mm
07:27 AM 39.7°F4.3°C 37.6°F3.1°C 92% 4.7 mph SSE7.6 kmh SSE 9.0 mph14.5 kmh 29.06 in984.1 mb 0.02 in0.5 mm 0.00 in0.0 mm 0.15 in3.8 mm
07:28 AM 39.6°F4.2°C 37.5°F3.1°C 92% 4.3 mph SSE6.9 kmh SSE 7.0 mph11.3 kmh 29.06 in984.1 mb 0.02 in0.5 mm 0.00 in0.0 mm 0.15 in3.8 mm
07:29 AM 39.7°F4.3°C 37.6°F3.1°C 92% 6.4 mph SSE10.3 kmh SSE 8.0 mph12.9 kmh 29.06 in984.1 mb 0.02 in0.5 mm 0.00 in0.0 mm 0.15 in3.8 mm
07:30 AM 39.6°F4.2°C 37.5°F3.1°C 92% 5.0 mph SSE8.0 kmh SSE 8.0 mph12.9 kmh 29.06 in984.1 mb 0.02 in0.5 mm 0.00 in0.0 mm 0.15 in3.8 mm
07:31 AM 39.7°F4.3°C 37.8°F3.2°C 93% 5.1 mph SSE8.2 kmh SSE 8.0 mph12.9 kmh 29.06 in984.1 mb 0.02 in0.5 mm 0.00 in0.0 mm 0.15 in3.8 mm
07:32 AM 39.6°F4.2°C 37.7°F3.2°C 93% 5.0 mph SSE8.0 kmh SSE 7.0 mph11.3 kmh 29.06 in984.1 mb 0.02 in0.5 mm 0.00 in0.0 mm 0.15 in3.8 mm
07:33 AM 39.6°F4.2°C 37.5°F3.1°C 92% 4.7 mph SSE7.6 kmh SSE 7.0 mph11.3 kmh 29.06 in984.1 mb 0.02 in0.5 mm 0.00 in0.0 mm 0.15 in3.8 mm
07:34 AM 39.6°F4.2°C 37.7°F3.2°C 93% 5.5 mph SSE8.9 kmh SSE 7.0 mph11.3 kmh 29.06 in984.1 mb 0.02 in0.5 mm 0.00 in0.0 mm 0.15 in3.8 mm
07:35 AM 39.7°F4.3°C 37.8°F3.2°C 93% 4.7 mph SSE7.6 kmh SSE 9.0 mph14.5 kmh 29.06 in984.1 mb 0.02 in0.5 mm 0.00 in0.0 mm 0.15 in3.8 mm
07:36 AM 39.6°F4.2°C 37.7°F3.2°C 93% 4.9 mph SSE7.9 kmh SSE 9.0 mph14.5 kmh 29.06 in984.1 mb 0.02 in0.5 mm 0.00 in0.0 mm 0.15 in3.8 mm
07:37 AM 39.7°F4.3°C 37.8°F3.2°C 93% 4.9 mph SSE7.9 kmh SSE 7.0 mph11.3 kmh 29.06 in984.1 mb 0.02 in0.5 mm 0.00 in0.0 mm 0.15 in3.8 mm
07:38 AM 39.7°F4.3°C 37.8°F3.2°C 93% 5.0 mph SSE8.0 kmh SSE 7.0 mph11.3 kmh 29.06 in984.1 mb 0.02 in0.5 mm 0.00 in0.0 mm 0.15 in3.8 mm
07:39 AM 39.7°F4.3°C 37.8°F3.2°C 93% 4.5 mph S7.2 kmh S 7.0 mph11.3 kmh 29.06 in984.1 mb 0.02 in0.5 mm 0.00 in0.0 mm 0.15 in3.8 mm
07:40 AM 39.7°F4.3°C 37.8°F3.2°C 93% 3.7 mph SSE6.0 kmh SSE 7.0 mph11.3 kmh 29.06 in984.1 mb 0.02 in0.5 mm 0.00 in0.0 mm 0.15 in3.8 mm
07:41 AM 39.6°F4.2°C 37.7°F3.2°C 93% 2.5 mph SSE4.0 kmh SSE 6.0 mph9.7 kmh 29.06 in984.1 mb 0.02 in0.5 mm 0.00 in0.0 mm 0.15 in3.8 mm
07:42 AM 39.7°F4.3°C 37.8°F3.2°C 93% 2.0 mph SSE3.2 kmh SSE 4.0 mph6.4 kmh 29.06 in984.1 mb 0.02 in0.5 mm 0.00 in0.0 mm 0.15 in3.8 mm
07:43 AM 39.7°F4.3°C 37.8°F3.2°C 93% 3.7 mph S6.0 kmh S 6.0 mph9.7 kmh 29.06 in984.1 mb 0.02 in0.5 mm 0.00 in0.0 mm 0.15 in3.8 mm
07:44 AM 39.7°F4.3°C 37.8°F3.2°C 93% 2.5 mph S4.0 kmh S 6.0 mph9.7 kmh 29.06 in984.1 mb 0.02 in0.5 mm 0.00 in0.0 mm 0.15 in3.8 mm
07:45 AM 39.7°F4.3°C 37.8°F3.2°C 93% 2.9 mph S4.7 kmh S 5.0 mph8.0 kmh 29.06 in984.1 mb 0.02 in0.5 mm 0.00 in0.0 mm 0.15 in3.8 mm
07:46 AM 39.7°F4.3°C 37.8°F3.2°C 93% 3.5 mph S5.6 kmh S 5.0 mph8.0 kmh 29.06 in984.1 mb 0.02 in0.5 mm 0.00 in0.0 mm 0.15 in3.8 mm
07:47 AM 39.8°F4.3°C 37.9°F3.3°C 93% 3.0 mph S4.8 kmh S 5.0 mph8.0 kmh 29.06 in984.1 mb 0.03 in0.8 mm 0.60 in15.2 mm 0.16 in4.1 mm
07:48 AM 39.7°F4.3°C 37.8°F3.2°C 93% 3.4 mph S5.5 kmh S 5.0 mph8.0 kmh 29.06 in984.1 mb 0.03 in0.8 mm 0.00 in0.0 mm 0.16 in4.1 mm
07:49 AM 39.8°F4.3°C 37.9°F3.3°C 93% 2.5 mph SSW4.0 kmh SSW 5.0 mph8.0 kmh 29.06 in984.1 mb 0.03 in0.8 mm 0.00 in0.0 mm 0.16 in4.1 mm
07:50 AM 39.8°F4.3°C 37.9°F3.3°C 93% 2.0 mph SSW3.2 kmh SSW 4.0 mph6.4 kmh 29.06 in984.1 mb 0.03 in0.8 mm 0.00 in0.0 mm 0.16 in4.1 mm
07:51 AM 39.8°F4.3°C 37.9°F3.3°C 93% 2.6 mph S4.2 kmh S 4.0 mph6.4 kmh 29.06 in984.1 mb 0.03 in0.8 mm 0.00 in0.0 mm 0.16 in4.1 mm
07:52 AM 39.8°F4.3°C 37.9°F3.3°C 93% 4.1 mph S6.6 kmh S 6.0 mph9.7 kmh 29.06 in984.1 mb 0.02 in0.5 mm 0.00 in0.0 mm 0.16 in4.1 mm
07:53 AM 39.9°F4.4°C 38.0°F3.3°C 93% 3.0 mph S4.8 kmh S 6.0 mph9.7 kmh 29.06 in984.1 mb 0.03 in0.8 mm 0.60 in15.2 mm 0.17 in4.3 mm
07:54 AM 39.9°F4.4°C 38.0°F3.3°C 93% 2.8 mph S4.5 kmh S 4.0 mph6.4 kmh 29.06 in984.1 mb 0.03 in0.8 mm 0.00 in0.0 mm 0.17 in4.3 mm
07:55 AM 39.9°F4.4°C 38.0°F3.3°C 93% 4.1 mph S6.6 kmh S 6.0 mph9.7 kmh 29.06 in984.1 mb 0.03 in0.8 mm 0.00 in0.0 mm 0.17 in4.3 mm
07:56 AM 40.0°F4.4°C 38.1°F3.4°C 93% 2.4 mph S3.9 kmh S 6.0 mph9.7 kmh 29.06 in984.1 mb 0.03 in0.8 mm 0.00 in0.0 mm 0.17 in4.3 mm
07:57 AM 40.0°F4.4°C 38.1°F3.4°C 93% 4.2 mph SSW6.8 kmh SSW 6.0 mph9.7 kmh 29.06 in984.1 mb 0.04 in1.0 mm 0.60 in15.2 mm 0.17 in4.3 mm
07:58 AM 40.1°F4.5°C 38.2°F3.4°C 93% 3.9 mph SSW6.3 kmh SSW 6.0 mph9.7 kmh 29.06 in984.1 mb 0.04 in1.0 mm 0.00 in0.0 mm 0.17 in4.3 mm
07:59 AM 40.0°F4.4°C 38.1°F3.4°C 93% 4.0 mph S6.4 kmh S 6.0 mph9.7 kmh 29.06 in984.1 mb 0.04 in1.0 mm 0.00 in0.0 mm 0.17 in4.3 mm
08:00 AM 40.1°F4.5°C 38.2°F3.4°C 93% 2.9 mph SSW4.7 kmh SSW 6.0 mph9.7 kmh 29.06 in984.1 mb 0.04 in1.0 mm 0.00 in0.0 mm 0.17 in4.3 mm
08:01 AM 40.2°F4.6°C 38.3°F3.5°C 93% 3.7 mph S6.0 kmh S 6.0 mph9.7 kmh 29.06 in984.1 mb 0.04 in1.0 mm 0.00 in0.0 mm 0.17 in4.3 mm
08:02 AM 40.2°F4.6°C 38.3°F3.5°C 93% 4.1 mph S6.6 kmh S 6.0 mph9.7 kmh 29.06 in984.1 mb 0.05 in1.3 mm 0.60 in15.2 mm 0.18 in4.6 mm
08:03 AM 40.3°F4.6°C 38.4°F3.6°C 93% 4.2 mph S6.8 kmh S 5.0 mph8.0 kmh 29.06 in984.1 mb 0.05 in1.3 mm 0.00 in0.0 mm 0.18 in4.6 mm
08:04 AM 40.4°F4.7°C 38.5°F3.6°C 93% 6.2 mph S10.0 kmh S 10.0 mph16.1 kmh 29.06 in984.1 mb 0.05 in1.3 mm 0.00 in0.0 mm 0.18 in4.6 mm
08:05 AM 40.4°F4.7°C 38.5°F3.6°C 93% 5.8 mph S9.3 kmh S 10.0 mph16.1 kmh 29.06 in984.1 mb 0.05 in1.3 mm 0.00 in0.0 mm 0.18 in4.6 mm
08:06 AM 40.4°F4.7°C 38.5°F3.6°C 93% 7.0 mph S11.3 kmh S 11.0 mph17.7 kmh 29.06 in984.1 mb 0.04 in1.0 mm 0.00 in0.0 mm 0.18 in4.6 mm
08:07 AM 40.5°F4.7°C 38.6°F3.7°C 93% 6.3 mph S10.1 kmh S 11.0 mph17.7 kmh 29.06 in984.1 mb 0.04 in1.0 mm 0.00 in0.0 mm 0.18 in4.6 mm
08:08 AM 40.6°F4.8°C 38.7°F3.7°C 93% 7.5 mph S12.1 kmh S 10.0 mph16.1 kmh 29.06 in984.1 mb 0.04 in1.0 mm 0.00 in0.0 mm 0.18 in4.6 mm
08:09 AM 40.6°F4.8°C 38.7°F3.7°C 93% 6.8 mph S10.9 kmh S 10.0 mph16.1 kmh 29.06 in984.1 mb 0.04 in1.0 mm 0.00 in0.0 mm 0.18 in4.6 mm
08:10 AM 40.7°F4.8°C 38.8°F3.8°C 93% 6.3 mph S10.1 kmh S 9.0 mph14.5 kmh 29.06 in984.1 mb 0.04 in1.0 mm 0.00 in0.0 mm 0.18 in4.6 mm
08:11 AM 40.7°F4.8°C 38.8°F3.8°C 93% 6.4 mph S10.3 kmh S 10.0 mph16.1 kmh 29.06 in984.1 mb 0.03 in0.8 mm 0.00 in0.0 mm 0.18 in4.6 mm
08:12 AM 40.8°F4.9°C 38.9°F3.8°C 93% 6.4 mph S10.3 kmh S 10.0 mph16.1 kmh 29.06 in984.1 mb 0.03 in0.8 mm 0.00 in0.0 mm 0.18 in4.6 mm
08:13 AM 40.9°F4.9°C 39.0°F3.9°C 93% 7.2 mph SSW11.6 kmh SSW 9.0 mph14.5 kmh 29.06 in984.1 mb 0.03 in0.8 mm 0.00 in0.0 mm 0.18 in4.6 mm
08:14 AM 40.9°F4.9°C 39.0°F3.9°C 93% 7.3 mph S11.7 kmh S 9.0 mph14.5 kmh 29.06 in984.1 mb 0.03 in0.8 mm 0.00 in0.0 mm 0.18 in4.6 mm
08:15 AM 41.0°F5.0°C 39.1°F3.9°C 93% 5.8 mph SSW9.3 kmh SSW 9.0 mph14.5 kmh 29.06 in984.1 mb 0.03 in0.8 mm 0.00 in0.0 mm 0.18 in4.6 mm
08:16 AM 41.0°F5.0°C 39.1°F3.9°C 93% 4.0 mph SW6.4 kmh SW 9.0 mph14.5 kmh 29.06 in984.1 mb 0.03 in0.8 mm 0.00 in0.0 mm 0.18 in4.6 mm
08:17 AM 41.1°F5.1°C 39.2°F4.0°C 93% 6.6 mph SW10.6 kmh SW 8.0 mph12.9 kmh 29.06 in984.1 mb 0.03 in0.8 mm 0.00 in0.0 mm 0.18 in4.6 mm
08:18 AM 41.2°F5.1°C 39.3°F4.1°C 93% 5.0 mph SW8.0 kmh SW 8.0 mph12.9 kmh 29.06 in984.1 mb 0.03 in0.8 mm 0.00 in0.0 mm 0.18 in4.6 mm
08:19 AM 41.2°F5.1°C 39.3°F4.1°C 93% 5.4 mph SW8.7 kmh SW 7.0 mph11.3 kmh 29.06 in984.1 mb 0.03 in0.8 mm 0.00 in0.0 mm 0.18 in4.6 mm
08:20 AM 41.3°F5.2°C 39.4°F4.1°C 93% 6.3 mph SW10.1 kmh SW 8.0 mph12.9 kmh 29.06 in984.1 mb 0.03 in0.8 mm 0.00 in0.0 mm 0.18 in4.6 mm
08:21 AM 41.3°F5.2°C 39.4°F4.1°C 93% 5.5 mph SW8.9 kmh SW 8.0 mph12.9 kmh 29.06 in984.1 mb 0.03 in0.8 mm 0.00 in0.0 mm 0.18 in4.6 mm
08:22 AM 41.4°F5.2°C 39.5°F4.2°C 93% 4.4 mph S7.1 kmh S 7.0 mph11.3 kmh 29.06 in984.1 mb 0.03 in0.8 mm 0.00 in0.0 mm 0.18 in4.6 mm
08:23 AM 41.5°F5.3°C 39.6°F4.2°C 93% 3.5 mph SSW5.6 kmh SSW 5.0 mph8.0 kmh 29.06 in984.1 mb 0.03 in0.8 mm 0.00 in0.0 mm 0.18 in4.6 mm
08:24 AM 41.5°F5.3°C 39.6°F4.2°C 93% 4.7 mph S7.6 kmh S 6.0 mph9.7 kmh 29.06 in984.1 mb 0.03 in0.8 mm 0.00 in0.0 mm 0.18 in4.6 mm
08:25 AM 41.4°F5.2°C 39.5°F4.2°C 93% 4.8 mph SSW7.7 kmh SSW 7.0 mph11.3 kmh 29.06 in984.1 mb 0.03 in0.8 mm 0.00 in0.0 mm 0.18 in4.6 mm
08:26 AM 41.5°F5.3°C 39.6°F4.2°C 93% 7.7 mph SSW12.4 kmh SSW 9.0 mph14.5 kmh 29.06 in984.1 mb 0.03 in0.8 mm 0.00 in0.0 mm 0.18 in4.6 mm
08:27 AM 41.5°F5.3°C 39.6°F4.2°C 93% 6.4 mph SSW10.3 kmh SSW 9.0 mph14.5 kmh 29.06 in984.1 mb 0.03 in0.8 mm 0.00 in0.0 mm 0.18 in4.6 mm
08:28 AM 41.5°F5.3°C 39.6°F4.2°C 93% 6.1 mph SSW9.8 kmh SSW 8.0 mph12.9 kmh 29.07 in984.4 mb 0.03 in0.8 mm 0.00 in0.0 mm 0.18 in4.6 mm
08:29 AM 41.5°F5.3°C 39.6°F4.2°C 93% 6.0 mph SW9.7 kmh SW 8.0 mph12.9 kmh 29.07 in984.4 mb 0.04 in1.0 mm 0.60 in15.2 mm 0.19 in4.8 mm
08:30 AM 41.5°F5.3°C 39.6°F4.2°C 93% 5.4 mph SSW8.7 kmh SSW 8.0 mph12.9 kmh 29.07 in984.4 mb 0.04 in1.0 mm 0.00 in0.0 mm 0.19 in4.8 mm
08:31 AM 41.5°F5.3°C 39.6°F4.2°C 93% 4.5 mph SW7.2 kmh SW 8.0 mph12.9 kmh 29.07 in984.4 mb 0.04 in1.0 mm 0.00 in0.0 mm 0.19 in4.8 mm
08:32 AM 41.6°F5.3°C 39.5°F4.2°C 92% 5.2 mph SW8.4 kmh SW 8.0 mph12.9 kmh 29.07 in984.4 mb 0.04 in1.0 mm 0.00 in0.0 mm 0.19 in4.8 mm
08:33 AM 41.5°F5.3°C 39.4°F4.1°C 92% 7.2 mph WSW11.6 kmh WSW 8.0 mph12.9 kmh 29.07 in984.4 mb 0.05 in1.3 mm 0.60 in15.2 mm 0.20 in5.1 mm
08:34 AM 41.5°F5.3°C 39.4°F4.1°C 92% 6.8 mph SW10.9 kmh SW 9.0 mph14.5 kmh 29.07 in984.4 mb 0.05 in1.3 mm 0.00 in0.0 mm 0.20 in5.1 mm
08:35 AM 41.4°F5.2°C 39.3°F4.1°C 92% 4.7 mph SW7.6 kmh SW 9.0 mph14.5 kmh 29.07 in984.4 mb 0.05 in1.3 mm 0.00 in0.0 mm 0.20 in5.1 mm
08:36 AM 41.5°F5.3°C 39.4°F4.1°C 92% 6.3 mph SW10.1 kmh SW 8.0 mph12.9 kmh 29.07 in984.4 mb 0.06 in1.5 mm 0.60 in15.2 mm 0.20 in5.1 mm
08:37 AM 41.5°F5.3°C 39.4°F4.1°C 92% 6.7 mph S10.8 kmh S 8.0 mph12.9 kmh 29.07 in984.4 mb 0.06 in1.5 mm 0.00 in0.0 mm 0.20 in5.1 mm
08:38 AM 41.5°F5.3°C 39.4°F4.1°C 92% 6.5 mph SSW10.5 kmh SSW 8.0 mph12.9 kmh 29.07 in984.4 mb 0.06 in1.5 mm 0.00 in0.0 mm 0.20 in5.1 mm
08:39 AM 41.5°F5.3°C 39.4°F4.1°C 92% 5.1 mph S8.2 kmh S 9.0 mph14.5 kmh 29.07 in984.4 mb 0.06 in1.5 mm 0.00 in0.0 mm 0.20 in5.1 mm
08:40 AM 41.5°F5.3°C 39.4°F4.1°C 92% 5.7 mph S9.2 kmh S 9.0 mph14.5 kmh 29.07 in984.4 mb 0.06 in1.5 mm 0.00 in0.0 mm 0.21 in5.3 mm
08:41 AM 41.5°F5.3°C 39.4°F4.1°C 92% 6.8 mph S10.9 kmh S 10.0 mph16.1 kmh 29.07 in984.4 mb 0.06 in1.5 mm 0.00 in0.0 mm 0.21 in5.3 mm
08:42 AM 41.5°F5.3°C 39.4°F4.1°C 92% 5.6 mph SSW9.0 kmh SSW 10.0 mph16.1 kmh 29.07 in984.4 mb 0.06 in1.5 mm 0.00 in0.0 mm 0.21 in5.3 mm
08:43 AM 41.5°F5.3°C 39.4°F4.1°C 92% 4.7 mph SSW7.6 kmh SSW 8.0 mph12.9 kmh 29.07 in984.4 mb 0.06 in1.5 mm 0.00 in0.0 mm 0.21 in5.3 mm
08:44 AM 41.5°F5.3°C 39.4°F4.1°C 92% 3.2 mph SSW5.1 kmh SSW 7.0 mph11.3 kmh 29.07 in984.4 mb 0.07 in1.8 mm 0.60 in15.2 mm 0.22 in5.6 mm
08:45 AM 41.5°F5.3°C 39.4°F4.1°C 92% 3.1 mph SSW5.0 kmh SSW 5.0 mph8.0 kmh 29.07 in984.4 mb 0.07 in1.8 mm 0.00 in0.0 mm 0.22 in5.6 mm
08:46 AM 41.5°F5.3°C 39.4°F4.1°C 92% 3.2 mph S5.1 kmh S 4.0 mph6.4 kmh 29.07 in984.4 mb 0.07 in1.8 mm 0.00 in0.0 mm 0.22 in5.6 mm
08:47 AM 41.5°F5.3°C 39.4°F4.1°C 92% 4.9 mph SSW7.9 kmh SSW 6.0 mph9.7 kmh 29.07 in984.4 mb 0.06 in1.5 mm 0.00 in0.0 mm 0.22 in5.6 mm
08:48 AM 41.5°F5.3°C 39.4°F4.1°C 92% 5.5 mph SSW8.9 kmh SSW 7.0 mph11.3 kmh 29.07 in984.4 mb 0.06 in1.5 mm 0.00 in0.0 mm 0.22 in5.6 mm
08:49 AM 41.5°F5.3°C 39.4°F4.1°C 92% 4.7 mph SSW7.6 kmh SSW 7.0 mph11.3 kmh 29.07 in984.4 mb 0.06 in1.5 mm 0.00 in0.0 mm 0.22 in5.6 mm
08:50 AM 41.5°F5.3°C 39.4°F4.1°C 92% 3.6 mph SSW5.8 kmh SSW 6.0 mph9.7 kmh 29.07 in984.4 mb 0.06 in1.5 mm 0.00 in0.0 mm 0.22 in5.6 mm
08:51 AM 41.5°F5.3°C 39.4°F4.1°C 92% 2.5 mph S4.0 kmh S 5.0 mph8.0 kmh 29.07 in984.4 mb 0.06 in1.5 mm 0.00 in0.0 mm 0.22 in5.6 mm
08:52 AM 41.5°F5.3°C 39.4°F4.1°C 92% 3.1 mph S5.0 kmh S 4.0 mph6.4 kmh 29.07 in984.4 mb 0.06 in1.5 mm 0.00 in0.0 mm 0.22 in5.6 mm
08:53 AM 41.5°F5.3°C 39.4°F4.1°C 92% 3.3 mph S5.3 kmh S 4.0 mph6.4 kmh 29.07 in984.4 mb 0.06 in1.5 mm 0.00 in0.0 mm 0.22 in5.6 mm
08:54 AM 41.5°F5.3°C 39.4°F4.1°C 92% 4.0 mph SSW6.4 kmh SSW 6.0 mph9.7 kmh 29.07 in984.4 mb 0.06 in1.5 mm 0.00 in0.0 mm 0.22 in5.6 mm
08:55 AM 41.5°F5.3°C 39.4°F4.1°C 92% 4.2 mph SSW6.8 kmh SSW 7.0 mph11.3 kmh 29.07 in984.4 mb 0.06 in1.5 mm 0.00 in0.0 mm 0.22 in5.6 mm
08:56 AM 41.4°F5.2°C 39.3°F4.1°C 92% 2.6 mph S4.2 kmh S 7.0 mph11.3 kmh 29.07 in984.4 mb 0.06 in1.5 mm 0.00 in0.0 mm 0.22 in5.6 mm
08:57 AM 41.4°F5.2°C 39.3°F4.1°C 92% 3.4 mph S5.5 kmh S 5.0 mph8.0 kmh 29.07 in984.4 mb 0.05 in1.3 mm 0.00 in0.0 mm 0.22 in5.6 mm
08:58 AM 41.4°F5.2°C 39.3°F4.1°C 92% 3.5 mph S5.6 kmh S 5.0 mph8.0 kmh 29.07 in984.4 mb 0.05 in1.3 mm 0.00 in0.0 mm 0.22 in5.6 mm
08:59 AM 41.4°F5.2°C 39.3°F4.1°C 92% 3.0 mph S4.8 kmh S 5.0 mph8.0 kmh 29.07 in984.4 mb 0.05 in1.3 mm 0.00 in0.0 mm 0.22 in5.6 mm
09:00 AM 41.4°F5.2°C 39.3°F4.1°C 92% 4.1 mph S6.6 kmh S 5.0 mph8.0 kmh 29.07 in984.4 mb 0.05 in1.3 mm 0.00 in0.0 mm 0.22 in5.6 mm
09:01 AM 41.3°F5.2°C 39.2°F4.0°C 92% 3.6 mph SSE5.8 kmh SSE 5.0 mph8.0 kmh 29.07 in984.4 mb 0.05 in1.3 mm 0.00 in0.0 mm 0.22 in5.6 mm
09:02 AM 41.3°F5.2°C 39.2°F4.0°C 92% 4.2 mph S6.8 kmh S 5.0 mph8.0 kmh 29.07 in984.4 mb 0.04 in1.0 mm 0.00 in0.0 mm 0.22 in5.6 mm
09:03 AM 41.3°F5.2°C 39.2°F4.0°C 92% 4.5 mph S7.2 kmh S 5.0 mph8.0 kmh 29.07 in984.4 mb 0.04 in1.0 mm 0.00 in0.0 mm 0.22 in5.6 mm
09:04 AM 41.3°F5.2°C 39.2°F4.0°C 92% 4.3 mph S6.9 kmh S 6.0 mph9.7 kmh 29.07 in984.4 mb 0.04 in1.0 mm 0.00 in0.0 mm 0.22 in5.6 mm
09:05 AM 41.3°F5.2°C 39.2°F4.0°C 92% 3.9 mph S6.3 kmh S 6.0 mph9.7 kmh 29.07 in984.4 mb 0.04 in1.0 mm 0.00 in0.0 mm 0.22 in5.6 mm
09:06 AM 41.3°F5.2°C 39.2°F4.0°C 92% 3.9 mph S6.3 kmh S 6.0 mph9.7 kmh 29.07 in984.4 mb 0.04 in1.0 mm 0.00 in0.0 mm 0.22 in5.6 mm
09:07 AM 41.3°F5.2°C 39.2°F4.0°C 92% 4.2 mph S6.8 kmh S 6.0 mph9.7 kmh 29.07 in984.4 mb 0.04 in1.0 mm 0.00 in0.0 mm 0.22 in5.6 mm
09:08 AM 41.3°F5.2°C 39.2°F4.0°C 92% 5.0 mph S8.0 kmh S 7.0 mph11.3 kmh 29.07 in984.4 mb 0.04 in1.0 mm 0.00 in0.0 mm 0.22 in5.6 mm
09:09 AM 41.3°F5.2°C 39.2°F4.0°C 92% 4.9 mph S7.9 kmh S 7.0 mph11.3 kmh 29.07 in984.4 mb 0.04 in1.0 mm 0.00 in0.0 mm 0.22 in5.6 mm
09:10 AM 41.3°F5.2°C 39.2°F4.0°C 92% 4.4 mph S7.1 kmh S 6.0 mph9.7 kmh 29.07 in984.4 mb 0.04 in1.0 mm 0.00 in0.0 mm 0.22 in5.6 mm
09:11 AM 41.3°F5.2°C 39.4°F4.1°C 93% 4.6 mph S7.4 kmh S 6.0 mph9.7 kmh 29.07 in984.4 mb 0.04 in1.0 mm 0.00 in0.0 mm 0.22 in5.6 mm
09:12 AM 41.3°F5.2°C 39.2°F4.0°C 92% 4.5 mph S7.2 kmh S 6.0 mph9.7 kmh 29.07 in984.4 mb 0.04 in1.0 mm 0.00 in0.0 mm 0.22 in5.6 mm
09:13 AM 41.3°F5.2°C 39.4°F4.1°C 93% 6.3 mph S10.1 kmh S 9.0 mph14.5 kmh 29.07 in984.4 mb 0.04 in1.0 mm 0.00 in0.0 mm 0.22 in5.6 mm
09:14 AM 41.3°F5.2°C 39.4°F4.1°C 93% 4.9 mph S7.9 kmh S 9.0 mph14.5 kmh 29.07 in984.4 mb 0.04 in1.0 mm 0.00 in0.0 mm 0.22 in5.6 mm
09:15 AM 41.3°F5.2°C 39.4°F4.1°C 93% 4.3 mph S6.9 kmh S 7.0 mph11.3 kmh 29.07 in984.4 mb 0.04 in1.0 mm 0.00 in0.0 mm 0.22 in5.6 mm
09:16 AM 41.3°F5.2°C 39.4°F4.1°C 93% 4.5 mph SSW7.2 kmh SSW 7.0 mph11.3 kmh 29.07 in984.4 mb 0.04 in1.0 mm 0.00 in0.0 mm 0.22 in5.6 mm
09:17 AM 41.3°F5.2°C 39.4°F4.1°C 93% 5.4 mph S8.7 kmh S 7.0 mph11.3 kmh 29.07 in984.4 mb 0.04 in1.0 mm 0.00 in0.0 mm 0.22 in5.6 mm
09:18 AM 41.4°F5.2°C 39.5°F4.2°C 93% 6.3 mph S10.1 kmh S 10.0 mph16.1 kmh 29.07 in984.4 mb 0.04 in1.0 mm 0.00 in0.0 mm 0.22 in5.6 mm
09:19 AM 41.4°F5.2°C 39.5°F4.2°C 93% 7.5 mph SSW12.1 kmh SSW 10.0 mph16.1 kmh 29.07 in984.4 mb 0.04 in1.0 mm 0.00 in0.0 mm 0.22 in5.6 mm
09:20 AM 41.5°F5.3°C 39.6°F4.2°C 93% 5.7 mph SSW9.2 kmh SSW 9.0 mph14.5 kmh 29.07 in984.4 mb 0.04 in1.0 mm 0.00 in0.0 mm 0.22 in5.6 mm
09:21 AM 41.5°F5.3°C 39.6°F4.2°C 93% 6.3 mph SSW10.1 kmh SSW 8.0 mph12.9 kmh 29.07 in984.4 mb 0.04 in1.0 mm 0.00 in0.0 mm 0.22 in5.6 mm
09:22 AM 41.6°F5.3°C 39.7°F4.3°C 93% 7.3 mph SSW11.7 kmh SSW 9.0 mph14.5 kmh 29.07 in984.4 mb 0.04 in1.0 mm 0.00 in0.0 mm 0.22 in5.6 mm
09:23 AM 41.7°F5.4°C 39.8°F4.3°C 93% 7.4 mph SSW11.9 kmh SSW 9.0 mph14.5 kmh 29.07 in984.4 mb 0.04 in1.0 mm 0.00 in0.0 mm 0.22 in5.6 mm
09:24 AM 41.7°F5.4°C 39.8°F4.3°C 93% 7.6 mph SW12.2 kmh SW 9.0 mph14.5 kmh 29.07 in984.4 mb 0.04 in1.0 mm 0.00 in0.0 mm 0.22 in5.6 mm
09:25 AM 41.8°F5.4°C 39.9°F4.4°C 93% 6.8 mph SW10.9 kmh SW 9.0 mph14.5 kmh 29.07 in984.4 mb 0.04 in1.0 mm 0.00 in0.0 mm 0.22 in5.6 mm
09:26 AM 41.8°F5.4°C 39.9°F4.4°C 93% 8.1 mph SW13.0 kmh SW 11.0 mph17.7 kmh 29.07 in984.4 mb 0.05 in1.3 mm 0.60 in15.2 mm 0.23 in5.8 mm
09:27 AM 41.8°F5.4°C 39.9°F4.4°C 93% 8.0 mph SSW12.9 kmh SSW 11.0 mph17.7 kmh 29.08 in984.8 mb 0.05 in1.3 mm 0.00 in0.0 mm 0.23 in5.8 mm
09:28 AM 41.8°F5.4°C 39.9°F4.4°C 93% 7.2 mph SSW11.6 kmh SSW 10.0 mph16.1 kmh 29.07 in984.4 mb 0.06 in1.5 mm 0.60 in15.2 mm 0.24 in6.1 mm
09:29 AM 41.8°F5.4°C 39.9°F4.4°C 93% 9.7 mph SSW15.6 kmh SSW 13.0 mph20.9 kmh 29.07 in984.4 mb 0.05 in1.3 mm 0.00 in0.0 mm 0.24 in6.1 mm
09:30 AM 41.8°F5.4°C 39.9°F4.4°C 93% 8.7 mph SSW14.0 kmh SSW 13.0 mph20.9 kmh 29.07 in984.4 mb 0.06 in1.5 mm 0.60 in15.2 mm 0.24 in6.1 mm
09:31 AM 41.9°F5.5°C 40.0°F4.4°C 93% 9.1 mph SSW14.6 kmh SSW 12.0 mph19.3 kmh 29.07 in984.4 mb 0.06 in1.5 mm 0.00 in0.0 mm 0.24 in6.1 mm
09:32 AM 41.9°F5.5°C 40.0°F4.4°C 93% 8.7 mph SSW14.0 kmh SSW 12.0 mph19.3 kmh 29.07 in984.4 mb 0.06 in1.5 mm 0.00 in0.0 mm 0.24 in6.1 mm
09:33 AM 42.0°F5.6°C 40.1°F4.5°C 93% 9.0 mph SSW14.5 kmh SSW 12.0 mph19.3 kmh 29.07 in984.4 mb 0.05 in1.3 mm 0.00 in0.0 mm 0.24 in6.1 mm
09:34 AM 41.9°F5.5°C 40.0°F4.4°C 93% 7.5 mph SSW12.1 kmh SSW 12.0 mph19.3 kmh 29.07 in984.4 mb 0.05 in1.3 mm 0.00 in0.0 mm 0.24 in6.1 mm
09:35 AM 41.9°F5.5°C 39.7°F4.3°C 92% 7.6 mph SSW12.2 kmh SSW 11.0 mph17.7 kmh 29.07 in984.4 mb 0.05 in1.3 mm 0.00 in0.0 mm 0.24 in6.1 mm
09:36 AM 42.0°F5.6°C 39.8°F4.3°C 92% 8.1 mph SSW13.0 kmh SSW 11.0 mph17.7 kmh 29.07 in984.4 mb 0.04 in1.0 mm 0.00 in0.0 mm 0.24 in6.1 mm
09:37 AM 41.9°F5.5°C 39.7°F4.3°C 92% 7.1 mph SSW11.4 kmh SSW 11.0 mph17.7 kmh 29.07 in984.4 mb 0.04 in1.0 mm 0.00 in0.0 mm 0.24 in6.1 mm
09:38 AM 41.9°F5.5°C 39.7°F4.3°C 92% 6.8 mph SSW10.9 kmh SSW 11.0 mph17.7 kmh 29.08 in984.8 mb 0.04 in1.0 mm 0.00 in0.0 mm 0.24 in6.1 mm
09:39 AM 41.9°F5.5°C 39.7°F4.3°C 92% 8.2 mph SSW13.2 kmh SSW 12.0 mph19.3 kmh 29.07 in984.4 mb 0.04 in1.0 mm 0.00 in0.0 mm 0.24 in6.1 mm
09:40 AM 41.9°F5.5°C 39.7°F4.3°C 92% 7.0 mph SSW11.3 kmh SSW 11.0 mph17.7 kmh 29.07 in984.4 mb 0.03 in0.8 mm 0.00 in0.0 mm 0.24 in6.1 mm
09:41 AM 41.9°F5.5°C 39.7°F4.3°C 92% 7.9 mph SSW12.7 kmh SSW 10.0 mph16.1 kmh 29.07 in984.4 mb 0.03 in0.8 mm 0.00 in0.0 mm 0.24 in6.1 mm
09:42 AM 42.0°F5.6°C 39.8°F4.3°C 92% 6.2 mph SSW10.0 kmh SSW 10.0 mph16.1 kmh 29.07 in984.4 mb 0.03 in0.8 mm 0.00 in0.0 mm 0.24 in6.1 mm
09:43 AM 41.9°F5.5°C 39.7°F4.3°C 92% 6.6 mph S10.6 kmh S 10.0 mph16.1 kmh 29.07 in984.4 mb 0.03 in0.8 mm 0.00 in0.0 mm 0.24 in6.1 mm
09:44 AM 41.9°F5.5°C 39.7°F4.3°C 92% 7.4 mph SSW11.9 kmh SSW 10.0 mph16.1 kmh 29.07 in984.4 mb 0.02 in0.5 mm 0.00 in0.0 mm 0.24 in6.1 mm
09:45 AM 42.0°F5.6°C 39.8°F4.3°C 92% 7.3 mph SSW11.7 kmh SSW 9.0 mph14.5 kmh 29.07 in984.4 mb 0.02 in0.5 mm 0.00 in0.0 mm 0.24 in6.1 mm
09:46 AM 42.0°F5.6°C 39.8°F4.3°C 92% 7.9 mph SSW12.7 kmh SSW 11.0 mph17.7 kmh 29.07 in984.4 mb 0.02 in0.5 mm 0.00 in0.0 mm 0.24 in6.1 mm
09:47 AM 42.0°F5.6°C 39.8°F4.3°C 92% 9.8 mph SSW15.8 kmh SSW 14.0 mph22.5 kmh 29.07 in984.4 mb 0.02 in0.5 mm 0.00 in0.0 mm 0.24 in6.1 mm
09:48 AM 42.0°F5.6°C 39.8°F4.3°C 92% 7.1 mph SSW11.4 kmh SSW 14.0 mph22.5 kmh 29.08 in984.8 mb 0.02 in0.5 mm 0.00 in0.0 mm 0.24 in6.1 mm
09:49 AM 42.1°F5.6°C 39.9°F4.4°C 92% 7.2 mph SSW11.6 kmh SSW 10.0 mph16.1 kmh 29.07 in984.4 mb 0.02 in0.5 mm 0.00 in0.0 mm 0.24 in6.1 mm
09:50 AM 42.1°F5.6°C 39.9°F4.4°C 92% 8.9 mph SSW14.3 kmh SSW 13.0 mph20.9 kmh 29.08 in984.8 mb 0.02 in0.5 mm 0.00 in0.0 mm 0.24 in6.1 mm
09:51 AM 42.1°F5.6°C 39.9°F4.4°C 92% 6.9 mph SSW11.1 kmh SSW 13.0 mph20.9 kmh 29.08 in984.8 mb 0.02 in0.5 mm 0.00 in0.0 mm 0.24 in6.1 mm
09:52 AM 42.2°F5.7°C 40.0°F4.4°C 92% 8.8 mph SSW14.2 kmh SSW 12.0 mph19.3 kmh 29.08 in984.8 mb 0.02 in0.5 mm 0.00 in0.0 mm 0.24 in6.1 mm
09:53 AM 42.2°F5.7°C 40.0°F4.4°C 92% 7.5 mph SSW12.1 kmh SSW 12.0 mph19.3 kmh 29.07 in984.4 mb 0.02 in0.5 mm 0.00 in0.0 mm 0.24 in6.1 mm
09:54 AM 42.2°F5.7°C 40.0°F4.4°C 92% 7.6 mph S12.2 kmh S 11.0 mph17.7 kmh 29.07 in984.4 mb 0.02 in0.5 mm 0.00 in0.0 mm 0.24 in6.1 mm
09:55 AM 42.2°F5.7°C 40.3°F4.6°C 93% 9.0 mph SSW14.5 kmh SSW 13.0 mph20.9 kmh 29.07 in984.4 mb 0.02 in0.5 mm 0.00 in0.0 mm 0.24 in6.1 mm
09:56 AM 42.2°F5.7°C 40.3°F4.6°C 93% 8.8 mph S14.2 kmh S 13.0 mph20.9 kmh 29.08 in984.8 mb 0.02 in0.5 mm 0.00 in0.0 mm 0.24 in6.1 mm
09:57 AM 42.2°F5.7°C 40.3°F4.6°C 93% 7.5 mph S12.1 kmh S 11.0 mph17.7 kmh 29.08 in984.8 mb 0.02 in0.5 mm 0.00 in0.0 mm 0.24 in6.1 mm
09:58 AM 42.3°F5.7°C 40.4°F4.7°C 93% 7.2 mph SSW11.6 kmh SSW 11.0 mph17.7 kmh 29.08 in984.8 mb 0.02 in0.5 mm 0.00 in0.0 mm 0.24 in6.1 mm
09:59 AM 42.3°F5.7°C 40.4°F4.7°C 93% 7.3 mph SSW11.7 kmh SSW 11.0 mph17.7 kmh 29.08 in984.8 mb 0.02 in0.5 mm 0.00 in0.0 mm 0.24 in6.1 mm
10:00 AM 42.2°F5.7°C 40.3°F4.6°C 93% 8.0 mph SSW12.9 kmh SSW 11.0 mph17.7 kmh 29.08 in984.8 mb 0.02 in0.5 mm 0.00 in0.0 mm 0.24 in6.1 mm
10:01 AM 42.3°F5.7°C 40.4°F4.7°C 93% 6.3 mph SSW10.1 kmh SSW 11.0 mph17.7 kmh 29.08 in984.8 mb 0.02 in0.5 mm 0.00 in0.0 mm 0.24 in6.1 mm
10:02 AM 42.3°F5.7°C 40.4°F4.7°C 93% 8.3 mph SSW13.4 kmh SSW 11.0 mph17.7 kmh 29.08 in984.8 mb 0.02 in0.5 mm 0.00 in0.0 mm 0.24 in6.1 mm
10:03 AM 42.3°F5.7°C 40.4°F4.7°C 93% 7.3 mph SSW11.7 kmh SSW 11.0 mph17.7 kmh 29.08 in984.8 mb 0.02 in0.5 mm 0.00 in0.0 mm 0.24 in6.1 mm
10:04 AM 42.3°F5.7°C 40.4°F4.7°C 93% 6.6 mph SSW10.6 kmh SSW 10.0 mph16.1 kmh 29.08 in984.8 mb 0.02 in0.5 mm 0.00 in0.0 mm 0.24 in6.1 mm
10:05 AM 42.3°F5.7°C 40.4°F4.7°C 93% 7.8 mph SSW12.6 kmh SSW 10.0 mph16.1 kmh 29.08 in984.8 mb 0.02 in0.5 mm 0.00 in0.0 mm 0.24 in6.1 mm
10:06 AM 42.3°F5.7°C 40.4°F4.7°C 93% 10.0 mph SSW16.1 kmh SSW 13.0 mph20.9 kmh 29.08 in984.8 mb 0.02 in0.5 mm 0.00 in0.0 mm 0.24 in6.1 mm
10:07 AM 42.4°F5.8°C 40.5°F4.7°C 93% 8.4 mph SSW13.5 kmh SSW 13.0 mph20.9 kmh 29.08 in984.8 mb 0.02 in0.5 mm 0.00 in0.0 mm 0.24 in6.1 mm
10:08 AM 42.4°F5.8°C 40.5°F4.7°C 93% 7.9 mph SW12.7 kmh SW 12.0 mph19.3 kmh 29.08 in984.8 mb 0.02 in0.5 mm 0.00 in0.0 mm 0.24 in6.1 mm
10:09 AM 42.4°F5.8°C 40.5°F4.7°C 93% 8.2 mph SW13.2 kmh SW 12.0 mph19.3 kmh 29.08 in984.8 mb 0.02 in0.5 mm 0.00 in0.0 mm 0.24 in6.1 mm
10:10 AM 42.4°F5.8°C 40.5°F4.7°C 93% 8.0 mph SSW12.9 kmh SSW 12.0 mph19.3 kmh 29.08 in984.8 mb 0.02 in0.5 mm 0.00 in0.0 mm 0.24 in6.1 mm
10:11 AM 42.5°F5.8°C 40.6°F4.8°C 93% 9.9 mph SW15.9 kmh SW 14.0 mph22.5 kmh 29.08 in984.8 mb 0.02 in0.5 mm 0.00 in0.0 mm 0.24 in6.1 mm
10:12 AM 42.5°F5.8°C 40.6°F4.8°C 93% 7.3 mph SSW11.7 kmh SSW 14.0 mph22.5 kmh 29.08 in984.8 mb 0.02 in0.5 mm 0.00 in0.0 mm 0.24 in6.1 mm
10:13 AM 42.5°F5.8°C 40.3°F4.6°C 92% 6.8 mph SW10.9 kmh SW 9.0 mph14.5 kmh 29.08 in984.8 mb 0.02 in0.5 mm 0.00 in0.0 mm 0.24 in6.1 mm
10:14 AM 42.5°F5.8°C 40.3°F4.6°C 92% 6.8 mph SW10.9 kmh SW 11.0 mph17.7 kmh 29.08 in984.8 mb 0.02 in0.5 mm 0.00 in0.0 mm 0.24 in6.1 mm
10:15 AM 42.5°F5.8°C 40.3°F4.6°C 92% 9.1 mph SW14.6 kmh SW 11.0 mph17.7 kmh 29.08 in984.8 mb 0.02 in0.5 mm 0.00 in0.0 mm 0.24 in6.1 mm
10:16 AM 42.6°F5.9°C 40.4°F4.7°C 92% 6.8 mph SSW10.9 kmh SSW 11.0 mph17.7 kmh 29.08 in984.8 mb 0.02 in0.5 mm 0.00 in0.0 mm 0.24 in6.1 mm
10:17 AM 42.6°F5.9°C 40.4°F4.7°C 92% 7.2 mph SW11.6 kmh SW 10.0 mph16.1 kmh 29.08 in984.8 mb 0.02 in0.5 mm 0.00 in0.0 mm 0.24 in6.1 mm
10:18 AM 42.6°F5.9°C 40.4°F4.7°C 92% 7.6 mph SW12.2 kmh SW 10.0 mph16.1 kmh 29.08 in984.8 mb 0.02 in0.5 mm 0.00 in0.0 mm 0.24 in6.1 mm
10:19 AM 42.7°F5.9°C 40.5°F4.7°C 92% 7.1 mph SW11.4 kmh SW 10.0 mph16.1 kmh 29.08 in984.8 mb 0.02 in0.5 mm 0.00 in0.0 mm 0.24 in6.1 mm
10:20 AM 42.6°F5.9°C 40.4°F4.7°C 92% 9.7 mph SW15.6 kmh SW 13.0 mph20.9 kmh 29.08 in984.8 mb 0.02 in0.5 mm 0.00 in0.0 mm 0.24 in6.1 mm
10:21 AM 42.6°F5.9°C 40.4°F4.7°C 92% 10.5 mph SW16.9 kmh SW 14.0 mph22.5 kmh 29.08 in984.8 mb 0.02 in0.5 mm 0.00 in0.0 mm 0.24 in6.1 mm
10:22 AM 42.6°F5.9°C 40.4°F4.7°C 92% 8.9 mph SW14.3 kmh SW 14.0 mph22.5 kmh 29.08 in984.8 mb 0.02 in0.5 mm 0.00 in0.0 mm 0.24 in6.1 mm
10:23 AM 42.7°F5.9°C 40.5°F4.7°C 92% 8.3 mph SW13.4 kmh SW 13.0 mph20.9 kmh 29.08 in984.8 mb 0.02 in0.5 mm 0.00 in0.0 mm 0.24 in6.1 mm
10:24 AM 42.6°F5.9°C 40.4°F4.7°C 92% 9.3 mph SW15.0 kmh SW 12.0 mph19.3 kmh 29.08 in984.8 mb 0.02 in0.5 mm 0.00 in0.0 mm 0.24 in6.1 mm
10:25 AM 42.7°F5.9°C 40.5°F4.7°C 92% 10.3 mph SW16.6 kmh SW 14.0 mph22.5 kmh 29.08 in984.8 mb 0.02 in0.5 mm 0.00 in0.0 mm 0.24 in6.1 mm
10:26 AM 42.7°F5.9°C 40.5°F4.7°C 92% 9.2 mph SW14.8 kmh SW 14.0 mph22.5 kmh 29.08 in984.8 mb 0.02 in0.5 mm 0.00 in0.0 mm 0.24 in6.1 mm
10:27 AM 42.7°F5.9°C 40.5°F4.7°C 92% 9.0 mph SW14.5 kmh SW 12.0 mph19.3 kmh 29.09 in985.1 mb 0.02 in0.5 mm 0.00 in0.0 mm 0.24 in6.1 mm
10:28 AM 42.7°F5.9°C 40.5°F4.7°C 92% 9.1 mph SW14.6 kmh SW 12.0 mph19.3 kmh 29.08 in984.8 mb 0.01 in0.3 mm 0.00 in0.0 mm 0.24 in6.1 mm
10:29 AM 42.7°F5.9°C 40.5°F4.7°C 92% 9.7 mph SW15.6 kmh SW 12.0 mph19.3 kmh 29.09 in985.1 mb 0.01 in0.3 mm 0.00 in0.0 mm 0.24 in6.1 mm
10:30 AM 42.7°F5.9°C 40.5°F4.7°C 92% 9.3 mph SW15.0 kmh SW 14.0 mph22.5 kmh 29.09 in985.1 mb 0.00 in0.0 mm 0.00 in0.0 mm 0.24 in6.1 mm
10:31 AM 42.7°F5.9°C 40.5°F4.7°C 92% 8.4 mph SW13.5 kmh SW 14.0 mph22.5 kmh 29.09 in985.1 mb 0.01 in0.3 mm 0.60 in15.2 mm 0.25 in6.4 mm
10:32 AM 42.7°F5.9°C 40.5°F4.7°C 92% 8.4 mph SW13.5 kmh SW 11.0 mph17.7 kmh 29.09 in985.1 mb 0.01 in0.3 mm 0.00 in0.0 mm 0.25 in6.4 mm
10:33 AM 42.7°F5.9°C 40.5°F4.7°C 92% 7.3 mph SW11.7 kmh SW 10.0 mph16.1 kmh 29.09 in985.1 mb 0.01 in0.3 mm 0.00 in0.0 mm 0.25 in6.4 mm
10:34 AM 42.6°F5.9°C 40.4°F4.7°C 92% 8.1 mph SW13.0 kmh SW 11.0 mph17.7 kmh 29.09 in985.1 mb 0.01 in0.3 mm 0.00 in0.0 mm 0.25 in6.4 mm
10:35 AM 42.6°F5.9°C 40.4°F4.7°C 92% 8.9 mph SW14.3 kmh SW 13.0 mph20.9 kmh 29.09 in985.1 mb 0.01 in0.3 mm 0.00 in0.0 mm 0.25 in6.4 mm
10:36 AM 42.7°F5.9°C 40.5°F4.7°C 92% 8.2 mph SW13.2 kmh SW 13.0 mph20.9 kmh 29.09 in985.1 mb 0.01 in0.3 mm 0.00 in0.0 mm 0.25 in6.4 mm
10:37 AM 42.6°F5.9°C 40.4°F4.7°C 92% 9.4 mph SW15.1 kmh SW 13.0 mph20.9 kmh 29.09 in985.1 mb 0.01 in0.3 mm 0.00 in0.0 mm 0.25 in6.4 mm
10:38 AM 42.5°F5.8°C 40.3°F4.6°C 92% 10.5 mph WSW16.9 kmh WSW 13.0 mph20.9 kmh 29.09 in985.1 mb 0.01 in0.3 mm 0.00 in0.0 mm 0.25 in6.4 mm
10:39 AM 42.4°F5.8°C 40.2°F4.6°C 92% 10.9 mph WSW17.5 kmh WSW 13.0 mph20.9 kmh 29.09 in985.1 mb 0.01 in0.3 mm 0.00 in0.0 mm 0.25 in6.4 mm
10:40 AM 42.3°F5.7°C 40.1°F4.5°C 92% 10.5 mph WSW16.9 kmh WSW 12.0 mph19.3 kmh 29.09 in985.1 mb 0.01 in0.3 mm 0.00 in0.0 mm 0.25 in6.4 mm
10:41 AM 42.2°F5.7°C 39.8°F4.3°C 91% 10.2 mph WSW16.4 kmh WSW 12.0 mph19.3 kmh 29.09 in985.1 mb 0.01 in0.3 mm 0.00 in0.0 mm 0.25 in6.4 mm
10:42 AM 42.0°F5.6°C 39.6°F4.2°C 91% 11.0 mph SW17.7 kmh SW 12.0 mph19.3 kmh 29.09 in985.1 mb 0.01 in0.3 mm 0.00 in0.0 mm 0.25 in6.4 mm
10:43 AM 41.8°F5.4°C 39.4°F4.1°C 91% 11.2 mph SW18.0 kmh SW 13.0 mph20.9 kmh 29.09 in985.1 mb 0.02 in0.5 mm 0.60 in15.2 mm 0.26 in6.6 mm
10:44 AM 41.8°F5.4°C 39.6°F4.2°C 92% 10.2 mph SW16.4 kmh SW 13.0 mph20.9 kmh 29.10 in985.4 mb 0.02 in0.5 mm 0.00 in0.0 mm 0.26 in6.6 mm
10:45 AM 41.7°F5.4°C 39.6°F4.2°C 92% 11.4 mph WSW18.3 kmh WSW 14.0 mph22.5 kmh 29.10 in985.4 mb 0.02 in0.5 mm 0.00 in0.0 mm 0.26 in6.6 mm
10:46 AM 41.6°F5.3°C 39.5°F4.2°C 92% 10.2 mph SW16.4 kmh SW 14.0 mph22.5 kmh 29.09 in985.1 mb 0.02 in0.5 mm 0.00 in0.0 mm 0.27 in6.9 mm
10:47 AM 41.6°F5.3°C 39.5°F4.2°C 92% 12.7 mph WSW20.4 kmh WSW 16.0 mph25.7 kmh 29.09 in985.1 mb 0.02 in0.5 mm 0.00 in0.0 mm 0.27 in6.9 mm
10:48 AM 41.6°F5.3°C 39.5°F4.2°C 92% 12.9 mph WSW20.8 kmh WSW 16.0 mph25.7 kmh 29.09 in985.1 mb 0.02 in0.5 mm 0.00 in0.0 mm 0.27 in6.9 mm
10:49 AM 41.5°F5.3°C 39.4°F4.1°C 92% 12.2 mph WSW19.6 kmh WSW 14.0 mph22.5 kmh 29.09 in985.1 mb 0.02 in0.5 mm 0.00 in0.0 mm 0.27 in6.9 mm
10:50 AM 41.5°F5.3°C 39.4°F4.1°C 92% 11.1 mph WSW17.9 kmh WSW 13.0 mph20.9 kmh 29.09 in985.1 mb 0.03 in0.8 mm 0.60 in15.2 mm 0.28 in7.1 mm
10:51 AM 41.3°F5.2°C 39.2°F4.0°C 92% 12.7 mph WSW20.4 kmh WSW 14.0 mph22.5 kmh 29.09 in985.1 mb 0.03 in0.8 mm 0.00 in0.0 mm 0.28 in7.1 mm
10:52 AM 41.3°F5.2°C 39.2°F4.0°C 92% 12.2 mph WSW19.6 kmh WSW 14.0 mph22.5 kmh 29.09 in985.1 mb 0.04 in1.0 mm 0.60 in15.2 mm 0.28 in7.1 mm
10:53 AM 41.3°F5.2°C 39.2°F4.0°C 92% 11.7 mph SW18.8 kmh SW 13.0 mph20.9 kmh 29.09 in985.1 mb 0.04 in1.0 mm 0.00 in0.0 mm 0.28 in7.1 mm
10:54 AM 41.2°F5.1°C 39.1°F3.9°C 92% 10.8 mph SW17.4 kmh SW 13.0 mph20.9 kmh 29.09 in985.1 mb 0.04 in1.0 mm 0.00 in0.0 mm 0.28 in7.1 mm
10:55 AM 41.2°F5.1°C 39.1°F3.9°C 92% 11.4 mph SW18.3 kmh SW 13.0 mph20.9 kmh 29.09 in985.1 mb 0.04 in1.0 mm 0.00 in0.0 mm 0.28 in7.1 mm
10:56 AM 41.2°F5.1°C 39.1°F3.9°C 92% 9.1 mph SW14.6 kmh SW 13.0 mph20.9 kmh 29.09 in985.1 mb 0.04 in1.0 mm 0.00 in0.0 mm 0.28 in7.1 mm
10:57 AM 41.3°F5.2°C 39.2°F4.0°C 92% 10.3 mph SW16.6 kmh SW 12.0 mph19.3 kmh 29.09 in985.1 mb 0.04 in1.0 mm 0.00 in0.0 mm 0.28 in7.1 mm
10:58 AM 41.3°F5.2°C 39.2°F4.0°C 92% 10.2 mph SW16.4 kmh SW 13.0 mph20.9 kmh 29.09 in985.1 mb 0.04 in1.0 mm 0.00 in0.0 mm 0.28 in7.1 mm
10:59 AM 41.3°F5.2°C 39.2°F4.0°C 92% 7.5 mph SW12.1 kmh SW 13.0 mph20.9 kmh 29.09 in985.1 mb 0.04 in1.0 mm 0.00 in0.0 mm 0.28 in7.1 mm
11:00 AM 41.4°F5.2°C 39.3°F4.1°C 92% 9.5 mph SW15.3 kmh SW 11.0 mph17.7 kmh 29.09 in985.1 mb 0.04 in1.0 mm 0.00 in0.0 mm 0.28 in7.1 mm
11:01 AM 41.4°F5.2°C 39.3°F4.1°C 92% 9.6 mph SW15.4 kmh SW 11.0 mph17.7 kmh 29.10 in985.4 mb 0.04 in1.0 mm 0.00 in0.0 mm 0.28 in7.1 mm
11:02 AM 41.4°F5.2°C 39.3°F4.1°C 92% 8.7 mph WSW14.0 kmh WSW 11.0 mph17.7 kmh 29.09 in985.1 mb 0.04 in1.0 mm 0.00 in0.0 mm 0.28 in7.1 mm
11:03 AM 41.4°F5.2°C 39.3°F4.1°C 92% 10.2 mph WSW16.4 kmh WSW 12.0 mph19.3 kmh 29.09 in985.1 mb 0.04 in1.0 mm 0.00 in0.0 mm 0.28 in7.1 mm
11:04 AM 41.4°F5.2°C 39.3°F4.1°C 92% 10.2 mph WSW16.4 kmh WSW 12.0 mph19.3 kmh 29.09 in985.1 mb 0.04 in1.0 mm 0.00 in0.0 mm 0.28 in7.1 mm
11:05 AM 41.3°F5.2°C 39.2°F4.0°C 92% 8.8 mph WSW14.2 kmh WSW 11.0 mph17.7 kmh 29.09 in985.1 mb 0.04 in1.0 mm 0.00 in0.0 mm 0.28 in7.1 mm
11:06 AM 41.4°F5.2°C 39.3°F4.1°C 92% 8.7 mph WSW14.0 kmh WSW 10.0 mph16.1 kmh 29.09 in985.1 mb 0.04 in1.0 mm 0.00 in0.0 mm 0.28 in7.1 mm
11:07 AM 41.4°F5.2°C 39.0°F3.9°C 91% 8.0 mph WSW12.9 kmh WSW 10.0 mph16.1 kmh 29.09 in985.1 mb 0.04 in1.0 mm 0.00 in0.0 mm 0.28 in7.1 mm
11:08 AM 41.3°F5.2°C 38.9°F3.8°C 91% 8.1 mph WSW13.0 kmh WSW 9.0 mph14.5 kmh 29.09 in985.1 mb 0.04 in1.0 mm 0.00 in0.0 mm 0.28 in7.1 mm
11:09 AM 41.2°F5.1°C 38.8°F3.8°C 91% 8.9 mph WSW14.3 kmh WSW 10.0 mph16.1 kmh 29.10 in985.4 mb 0.04 in1.0 mm 0.00 in0.0 mm 0.28 in7.1 mm
11:10 AM 41.2°F5.1°C 38.8°F3.8°C 91% 8.8 mph WSW14.2 kmh WSW 10.0 mph16.1 kmh 29.10 in985.4 mb 0.04 in1.0 mm 0.00 in0.0 mm 0.28 in7.1 mm
11:11 AM 41.1°F5.1°C 38.7°F3.7°C 91% 5.4 mph SW8.7 kmh SW 10.0 mph16.1 kmh 29.09 in985.1 mb 0.04 in1.0 mm 0.00 in0.0 mm 0.28 in7.1 mm
11:12 AM 41.1°F5.1°C 38.7°F3.7°C 91% 4.3 mph SW6.9 kmh SW 7.0 mph11.3 kmh 29.09 in985.1 mb 0.04 in1.0 mm 0.00 in0.0 mm 0.28 in7.1 mm
11:13 AM 41.1°F5.1°C 38.7°F3.7°C 91% 3.5 mph SW5.6 kmh SW 6.0 mph9.7 kmh 29.09 in985.1 mb 0.04 in1.0 mm 0.00 in0.0 mm 0.28 in7.1 mm
11:14 AM 41.2°F5.1°C 39.1°F3.9°C 92% 4.6 mph SW7.4 kmh SW 6.0 mph9.7 kmh 29.09 in985.1 mb 0.04 in1.0 mm 0.00 in0.0 mm 0.28 in7.1 mm
11:15 AM 41.3°F5.2°C 39.2°F4.0°C 92% 3.7 mph SW6.0 kmh SW 6.0 mph9.7 kmh 29.09 in985.1 mb 0.04 in1.0 mm 0.00 in0.0 mm 0.28 in7.1 mm
11:16 AM 41.4°F5.2°C 39.3°F4.1°C 92% 6.2 mph SW10.0 kmh SW 8.0 mph12.9 kmh 29.10 in985.4 mb 0.04 in1.0 mm 0.00 in0.0 mm 0.28 in7.1 mm
11:17 AM 41.6°F5.3°C 39.5°F4.2°C 92% 3.5 mph SW5.6 kmh SW 8.0 mph12.9 kmh 29.10 in985.4 mb 0.04 in1.0 mm 0.00 in0.0 mm 0.28 in7.1 mm
11:18 AM 41.8°F5.4°C 39.6°F4.2°C 92% 5.8 mph SW9.3 kmh SW 10.0 mph16.1 kmh 29.10 in985.4 mb 0.04 in1.0 mm 0.00 in0.0 mm 0.28 in7.1 mm
11:19 AM 41.9°F5.5°C 39.7°F4.3°C 92% 5.5 mph SW8.9 kmh SW 10.0 mph16.1 kmh 29.10 in985.4 mb 0.04 in1.0 mm 0.00 in0.0 mm 0.28 in7.1 mm
11:20 AM 42.0°F5.6°C 39.8°F4.3°C 92% 6.0 mph SW9.7 kmh SW 8.0 mph12.9 kmh 29.10 in985.4 mb 0.04 in1.0 mm 0.00 in0.0 mm 0.28 in7.1 mm
11:21 AM 42.0°F5.6°C 39.8°F4.3°C 92% 5.2 mph WSW8.4 kmh WSW 8.0 mph12.9 kmh 29.10 in985.4 mb 0.04 in1.0 mm 0.00 in0.0 mm 0.28 in7.1 mm
11:22 AM 42.0°F5.6°C 39.8°F4.3°C 92% 8.7 mph SW14.0 kmh SW 13.0 mph20.9 kmh 29.10 in985.4 mb 0.04 in1.0 mm 0.00 in0.0 mm 0.28 in7.1 mm
11:23 AM 42.2°F5.7°C 40.0°F4.4°C 92% 7.6 mph SW12.2 kmh SW 13.0 mph20.9 kmh 29.10 in985.4 mb 0.04 in1.0 mm 0.00 in0.0 mm 0.28 in7.1 mm
11:24 AM 42.2°F5.7°C 40.0°F4.4°C 92% 8.5 mph SW13.7 kmh SW 14.0 mph22.5 kmh 29.10 in985.4 mb 0.04 in1.0 mm 0.00 in0.0 mm 0.28 in7.1 mm
11:25 AM 42.4°F5.8°C 40.2°F4.6°C 92% 10.9 mph SW17.5 kmh SW 14.0 mph22.5 kmh 29.10 in985.4 mb 0.04 in1.0 mm 0.00 in0.0 mm 0.28 in7.1 mm
11:26 AM 42.5°F5.8°C 40.3°F4.6°C 92% 11.7 mph SW18.8 kmh SW 16.0 mph25.7 kmh 29.10 in985.4 mb 0.04 in1.0 mm 0.00 in0.0 mm 0.28 in7.1 mm
11:27 AM 42.5°F5.8°C 40.3°F4.6°C 92% 12.6 mph SW20.3 kmh SW 17.0 mph27.4 kmh 29.10 in985.4 mb 0.04 in1.0 mm 0.00 in0.0 mm 0.28 in7.1 mm
11:28 AM 42.6°F5.9°C 40.4°F4.7°C 92% 12.0 mph SW19.3 kmh SW 17.0 mph27.4 kmh 29.10 in985.4 mb 0.05 in1.3 mm 0.60 in15.2 mm 0.29 in7.4 mm
11:29 AM 42.6°F5.9°C 40.4°F4.7°C 92% 12.5 mph SW20.1 kmh SW 16.0 mph25.7 kmh 29.10 in985.4 mb 0.05 in1.3 mm 0.00 in0.0 mm 0.29 in7.4 mm
11:30 AM 42.7°F5.9°C 40.5°F4.7°C 92% 11.9 mph SW19.2 kmh SW 16.0 mph25.7 kmh 29.10 in985.4 mb 0.05 in1.3 mm 0.00 in0.0 mm 0.29 in7.4 mm
11:31 AM 42.7°F5.9°C 40.3°F4.6°C 91% 12.0 mph SW19.3 kmh SW 16.0 mph25.7 kmh 29.10 in985.4 mb 0.04 in1.0 mm 0.00 in0.0 mm 0.29 in7.4 mm
11:32 AM 42.8°F6.0°C 40.4°F4.7°C 91% 12.4 mph SW20.0 kmh SW 16.0 mph25.7 kmh 29.10 in985.4 mb 0.04 in1.0 mm 0.00 in0.0 mm 0.29 in7.4 mm
11:33 AM 42.8°F6.0°C 40.4°F4.7°C 91% 14.6 mph SW23.5 kmh SW 18.0 mph29.0 kmh 29.10 in985.4 mb 0.04 in1.0 mm 0.00 in0.0 mm 0.29 in7.4 mm
11:34 AM 42.8°F6.0°C 40.4°F4.7°C 91% 13.5 mph SW21.7 kmh SW 18.0 mph29.0 kmh 29.10 in985.4 mb 0.04 in1.0 mm 0.00 in0.0 mm 0.29 in7.4 mm
11:35 AM 42.8°F6.0°C 40.4°F4.7°C 91% 12.0 mph SW19.3 kmh SW 15.0 mph24.1 kmh 29.10 in985.4 mb 0.04 in1.0 mm 0.00 in0.0 mm 0.29 in7.4 mm
11:36 AM 42.9°F6.1°C 40.5°F4.7°C 91% 12.5 mph SW20.1 kmh SW 15.0 mph24.1 kmh 29.10 in985.4 mb 0.04 in1.0 mm 0.00 in0.0 mm 0.29 in7.4 mm
11:37 AM 42.9°F6.1°C 40.5°F4.7°C 91% 12.4 mph SW20.0 kmh SW 15.0 mph24.1 kmh 29.10 in985.4 mb 0.04 in1.0 mm 0.00 in0.0 mm 0.29 in7.4 mm
11:38 AM 42.8°F6.0°C 40.4°F4.7°C 91% 12.5 mph SW20.1 kmh SW 16.0 mph25.7 kmh 29.10 in985.4 mb 0.04 in1.0 mm 0.00 in0.0 mm 0.29 in7.4 mm
11:39 AM 42.8°F6.0°C 40.1°F4.5°C 90% 12.9 mph SW20.8 kmh SW 16.0 mph25.7 kmh 29.10 in985.4 mb 0.04 in1.0 mm 0.00 in0.0 mm 0.29 in7.4 mm
11:40 AM 42.7°F5.9°C 40.0°F4.4°C 90% 13.8 mph SW22.2 kmh SW 17.0 mph27.4 kmh 29.10 in985.4 mb 0.04 in1.0 mm 0.00 in0.0 mm 0.29 in7.4 mm
11:41 AM 42.7°F5.9°C 40.0°F4.4°C 90% 14.1 mph SW22.7 kmh SW 17.0 mph27.4 kmh 29.10 in985.4 mb 0.04 in1.0 mm 0.00 in0.0 mm 0.29 in7.4 mm
11:42 AM 42.7°F5.9°C 40.0°F4.4°C 90% 13.7 mph SW22.0 kmh SW 16.0 mph25.7 kmh 29.10 in985.4 mb 0.04 in1.0 mm 0.00 in0.0 mm 0.29 in7.4 mm
11:43 AM 42.6°F5.9°C 39.9°F4.4°C 90% 12.4 mph SW20.0 kmh SW 16.0 mph25.7 kmh 29.10 in985.4 mb 0.03 in0.8 mm 0.00 in0.0 mm 0.29 in7.4 mm
11:44 AM 42.6°F5.9°C 39.9°F4.4°C 90% 13.9 mph SW22.4 kmh SW 16.0 mph25.7 kmh 29.10 in985.4 mb 0.03 in0.8 mm 0.00 in0.0 mm 0.29 in7.4 mm
11:45 AM 42.5°F5.8°C 39.8°F4.3°C 90% 13.7 mph SW22.0 kmh SW 17.0 mph27.4 kmh 29.10 in985.4 mb 0.03 in0.8 mm 0.00 in0.0 mm 0.29 in7.4 mm
11:46 AM 42.5°F5.8°C 39.8°F4.3°C 90% 14.3 mph SW23.0 kmh SW 18.0 mph29.0 kmh 29.10 in985.4 mb 0.02 in0.5 mm 0.00 in0.0 mm 0.29 in7.4 mm
11:47 AM 42.5°F5.8°C 39.8°F4.3°C 90% 16.0 mph SW25.7 kmh SW 20.0 mph32.2 kmh 29.10 in985.4 mb 0.02 in0.5 mm 0.00 in0.0 mm 0.29 in7.4 mm
11:48 AM 42.5°F5.8°C 39.8°F4.3°C 90% 16.0 mph SW25.7 kmh SW 20.0 mph32.2 kmh 29.10 in985.4 mb 0.02 in0.5 mm 0.00 in0.0 mm 0.29 in7.4 mm
11:49 AM 42.5°F5.8°C 39.8°F4.3°C 90% 14.6 mph SW23.5 kmh SW 19.0 mph30.6 kmh 29.10 in985.4 mb 0.02 in0.5 mm 0.00 in0.0 mm 0.29 in7.4 mm
11:50 AM 42.5°F5.8°C 39.8°F4.3°C 90% 16.0 mph WSW25.7 kmh WSW 19.0 mph30.6 kmh 29.10 in985.4 mb 0.02 in0.5 mm 0.00 in0.0 mm 0.29 in7.4 mm
11:51 AM 42.4°F5.8°C 39.7°F4.3°C 90% 14.4 mph WSW23.2 kmh WSW 19.0 mph30.6 kmh 29.10 in985.4 mb 0.02 in0.5 mm 0.00 in0.0 mm 0.29 in7.4 mm
11:52 AM 42.4°F5.8°C 39.7°F4.3°C 90% 13.8 mph WSW22.2 kmh WSW 17.0 mph27.4 kmh 29.10 in985.4 mb 0.01 in0.3 mm 0.00 in0.0 mm 0.29 in7.4 mm
11:53 AM 42.3°F5.7°C 39.6°F4.2°C 90% 14.7 mph WSW23.7 kmh WSW 17.0 mph27.4 kmh 29.10 in985.4 mb 0.01 in0.3 mm 0.00 in0.0 mm 0.29 in7.4 mm
11:54 AM 42.3°F5.7°C 39.6°F4.2°C 90% 15.1 mph WSW24.3 kmh WSW 16.0 mph25.7 kmh 29.10 in985.4 mb 0.01 in0.3 mm 0.00 in0.0 mm 0.29 in7.4 mm
11:55 AM 42.2°F5.7°C 39.5°F4.2°C 90% 15.8 mph WSW25.4 kmh WSW 18.0 mph29.0 kmh 29.10 in985.4 mb 0.01 in0.3 mm 0.00 in0.0 mm 0.29 in7.4 mm
11:56 AM 42.2°F5.7°C 39.5°F4.2°C 90% 18.0 mph WSW29.0 kmh WSW 21.0 mph33.8 kmh 29.11 in985.8 mb 0.01 in0.3 mm 0.00 in0.0 mm 0.29 in7.4 mm
11:57 AM 42.2°F5.7°C 39.5°F4.2°C 90% 18.3 mph WSW29.5 kmh WSW 21.0 mph33.8 kmh 29.11 in985.8 mb 0.01 in0.3 mm 0.00 in0.0 mm 0.29 in7.4 mm
11:58 AM 42.2°F5.7°C 39.5°F4.2°C 90% 18.6 mph WSW29.9 kmh WSW 21.0 mph33.8 kmh 29.10 in985.4 mb 0.01 in0.3 mm 0.00 in0.0 mm 0.29 in7.4 mm
11:59 AM 42.2°F5.7°C 39.5°F4.2°C 90% 17.1 mph WSW27.5 kmh WSW 21.0 mph33.8 kmh 29.11 in985.8 mb 0.01 in0.3 mm 0.00 in0.0 mm 0.29 in7.4 mm
12:00 PM 42.3°F5.7°C 39.6°F4.2°C 90% 17.5 mph WSW28.2 kmh WSW 20.0 mph32.2 kmh 29.11 in985.8 mb 0.01 in0.3 mm 0.00 in0.0 mm 0.29 in7.4 mm
12:01 PM 42.3°F5.7°C 39.6°F4.2°C 90% 14.4 mph WSW23.2 kmh WSW 20.0 mph32.2 kmh 29.11 in985.8 mb 0.01 in0.3 mm 0.00 in0.0 mm 0.29 in7.4 mm
12:02 PM 42.3°F5.7°C 39.6°F4.2°C 90% 16.7 mph WSW26.9 kmh WSW 19.0 mph30.6 kmh 29.11 in985.8 mb 0.01 in0.3 mm 0.00 in0.0 mm 0.29 in7.4 mm
12:03 PM 42.3°F5.7°C 39.6°F4.2°C 90% 15.9 mph WSW25.6 kmh WSW 19.0 mph30.6 kmh 29.11 in985.8 mb 0.01 in0.3 mm 0.00 in0.0 mm 0.29 in7.4 mm
12:04 PM 42.2°F5.7°C 39.2°F4.0°C 89% 14.0 mph WSW22.5 kmh WSW 19.0 mph30.6 kmh 29.11 in985.8 mb 0.01 in0.3 mm 0.00 in0.0 mm 0.29 in7.4 mm
12:05 PM 42.2°F5.7°C 39.2°F4.0°C 89% 16.2 mph WSW26.1 kmh WSW 18.0 mph29.0 kmh 29.11 in985.8 mb 0.01 in0.3 mm 0.00 in0.0 mm 0.29 in7.4 mm
12:06 PM 42.2°F5.7°C 39.2°F4.0°C 89% 15.4 mph WSW24.8 kmh WSW 18.0 mph29.0 kmh 29.11 in985.8 mb 0.01 in0.3 mm 0.00 in0.0 mm 0.29 in7.4 mm
12:07 PM 42.2°F5.7°C 39.2°F4.0°C 89% 15.7 mph WSW25.3 kmh WSW 18.0 mph29.0 kmh 29.11 in985.8 mb 0.01 in0.3 mm 0.00 in0.0 mm 0.29 in7.4 mm
12:08 PM 42.2°F5.7°C 39.2°F4.0°C 89% 17.4 mph WSW28.0 kmh WSW 19.0 mph30.6 kmh 29.11 in985.8 mb 0.01 in0.3 mm 0.00 in0.0 mm 0.29 in7.4 mm
12:09 PM 42.2°F5.7°C 38.9°F3.8°C 88% 17.9 mph WSW28.8 kmh WSW 19.0 mph30.6 kmh 29.11 in985.8 mb 0.01 in0.3 mm 0.00 in0.0 mm 0.29 in7.4 mm
12:10 PM 42.1°F5.6°C 38.8°F3.8°C 88% 16.3 mph WSW26.2 kmh WSW 19.0 mph30.6 kmh 29.11 in985.8 mb 0.01 in0.3 mm 0.00 in0.0 mm 0.29 in7.4 mm
12:11 PM 42.1°F5.6°C 39.1°F3.9°C 89% 15.7 mph WSW25.3 kmh WSW 18.0 mph29.0 kmh 29.11 in985.8 mb 0.01 in0.3 mm 0.00 in0.0 mm 0.29 in7.4 mm
12:12 PM 42.1°F5.6°C 39.1°F3.9°C 89% 13.4 mph WSW21.6 kmh WSW 17.0 mph27.4 kmh 29.11 in985.8 mb 0.01 in0.3 mm 0.00 in0.0 mm 0.29 in7.4 mm
12:13 PM 42.0°F5.6°C 39.0°F3.9°C 89% 12.9 mph WSW20.8 kmh WSW 16.0 mph25.7 kmh 29.11 in985.8 mb 0.01 in0.3 mm 0.00 in0.0 mm 0.29 in7.4 mm
12:14 PM 41.9°F5.5°C 38.9°F3.8°C 89% 14.5 mph WSW23.3 kmh WSW 17.0 mph27.4 kmh 29.11 in985.8 mb 0.01 in0.3 mm 0.00 in0.0 mm 0.29 in7.4 mm
12:15 PM 41.9°F5.5°C 38.9°F3.8°C 89% 12.5 mph WSW20.1 kmh WSW 17.0 mph27.4 kmh 29.11 in985.8 mb 0.01 in0.3 mm 0.00 in0.0 mm 0.29 in7.4 mm
12:16 PM 41.9°F5.5°C 38.9°F3.8°C 89% 12.6 mph WSW20.3 kmh WSW 15.0 mph24.1 kmh 29.11 in985.8 mb 0.01 in0.3 mm 0.00 in0.0 mm 0.29 in7.4 mm
12:17 PM 41.8°F5.4°C 38.8°F3.8°C 89% 13.1 mph WSW21.1 kmh WSW 15.0 mph24.1 kmh 29.11 in985.8 mb 0.01 in0.3 mm 0.00 in0.0 mm 0.29 in7.4 mm
12:18 PM 41.8°F5.4°C 38.8°F3.8°C 89% 13.7 mph WSW22.0 kmh WSW 15.0 mph24.1 kmh 29.11 in985.8 mb 0.01 in0.3 mm 0.00 in0.0 mm 0.29 in7.4 mm
12:19 PM 41.8°F5.4°C 38.8°F3.8°C 89% 12.5 mph WSW20.1 kmh WSW 15.0 mph24.1 kmh 29.11 in985.8 mb 0.01 in0.3 mm 0.00 in0.0 mm 0.29 in7.4 mm
12:20 PM 41.7°F5.4°C 38.7°F3.7°C 89% 13.0 mph WSW20.9 kmh WSW 15.0 mph24.1 kmh 29.11 in985.8 mb 0.01 in0.3 mm 0.00 in0.0 mm 0.29 in7.4 mm
12:21 PM 41.8°F5.4°C 39.1°F3.9°C 90% 13.8 mph WSW22.2 kmh WSW 16.0 mph25.7 kmh 29.11 in985.8 mb 0.01 in0.3 mm 0.00 in0.0 mm 0.29 in7.4 mm
12:22 PM 41.8°F5.4°C 39.1°F3.9°C 90% 14.0 mph WSW22.5 kmh WSW 16.0 mph25.7 kmh 29.11 in985.8 mb 0.01 in0.3 mm 0.00 in0.0 mm 0.29 in7.4 mm
12:23 PM 41.8°F5.4°C 39.1°F3.9°C 90% 13.0 mph WSW20.9 kmh WSW 16.0 mph25.7 kmh 29.11 in985.8 mb 0.01 in0.3 mm 0.00 in0.0 mm 0.29 in7.4 mm
12:24 PM 41.8°F5.4°C 39.1°F3.9°C 90% 12.6 mph WSW20.3 kmh WSW 15.0 mph24.1 kmh 29.11 in985.8 mb 0.01 in0.3 mm 0.00 in0.0 mm 0.29 in7.4 mm
12:25 PM 41.8°F5.4°C 39.1°F3.9°C 90% 11.5 mph WSW18.5 kmh WSW 15.0 mph24.1 kmh 29.11 in985.8 mb 0.01 in0.3 mm 0.00 in0.0 mm 0.29 in7.4 mm
12:26 PM 41.8°F5.4°C 39.1°F3.9°C 90% 10.8 mph WSW17.4 kmh WSW 12.0 mph19.3 kmh 29.11 in985.8 mb 0.01 in0.3 mm 0.00 in0.0 mm 0.29 in7.4 mm
12:27 PM 41.8°F5.4°C 39.1°F3.9°C 90% 11.7 mph WSW18.8 kmh WSW 14.0 mph22.5 kmh 29.11 in985.8 mb 0.01 in0.3 mm 0.00 in0.0 mm 0.29 in7.4 mm
12:28 PM 41.7°F5.4°C 39.0°F3.9°C 90% 12.4 mph WSW20.0 kmh WSW 16.0 mph25.7 kmh 29.11 in985.8 mb 0.00 in0.0 mm 0.00 in0.0 mm 0.29 in7.4 mm
12:29 PM 41.7°F5.4°C 39.0°F3.9°C 90% 14.1 mph WSW22.7 kmh WSW 16.0 mph25.7 kmh 29.11 in985.8 mb 0.00 in0.0 mm 0.00 in0.0 mm 0.29 in7.4 mm
12:30 PM 41.8°F5.4°C 39.4°F4.1°C 91% 12.5 mph WSW20.1 kmh WSW 15.0 mph24.1 kmh 29.12 in986.1 mb 0.00 in0.0 mm 0.00 in0.0 mm 0.29 in7.4 mm
12:31 PM 41.6°F5.3°C 39.2°F4.0°C 91% 11.8 mph WSW19.0 kmh WSW 14.0 mph22.5 kmh 29.12 in986.1 mb 0.00 in0.0 mm 0.00 in0.0 mm 0.29 in7.4 mm
12:32 PM 41.6°F5.3°C 39.2°F4.0°C 91% 13.5 mph WSW21.7 kmh WSW 16.0 mph25.7 kmh 29.12 in986.1 mb 0.00 in0.0 mm 0.00 in0.0 mm 0.29 in7.4 mm
12:33 PM 41.6°F5.3°C 39.2°F4.0°C 91% 15.2 mph WSW24.5 kmh WSW 18.0 mph29.0 kmh 29.12 in986.1 mb 0.00 in0.0 mm 0.00 in0.0 mm 0.29 in7.4 mm
12:34 PM 41.6°F5.3°C 39.2°F4.0°C 91% 14.6 mph WSW23.5 kmh WSW 18.0 mph29.0 kmh 29.12 in986.1 mb 0.00 in0.0 mm 0.00 in0.0 mm 0.29 in7.4 mm
12:35 PM 41.5°F5.3°C 39.1°F3.9°C 91% 15.2 mph WSW24.5 kmh WSW 19.0 mph30.6 kmh 29.12 in986.1 mb 0.00 in0.0 mm 0.00 in0.0 mm 0.29 in7.4 mm
12:36 PM 41.6°F5.3°C 39.2°F4.0°C 91% 18.5 mph WSW29.8 kmh WSW 21.0 mph33.8 kmh 29.12 in986.1 mb 0.00 in0.0 mm 0.00 in0.0 mm 0.29 in7.4 mm
12:37 PM 41.5°F5.3°C 39.1°F3.9°C 91% 22.9 mph WSW36.9 kmh WSW 26.0 mph41.8 kmh 29.12 in986.1 mb 0.00 in0.0 mm 0.00 in0.0 mm 0.29 in7.4 mm
12:38 PM 41.5°F5.3°C 39.1°F3.9°C 91% 18.5 mph WSW29.8 kmh WSW 26.0 mph41.8 kmh 29.12 in986.1 mb 0.00 in0.0 mm 0.00 in0.0 mm 0.29 in7.4 mm
12:39 PM 41.5°F5.3°C 39.1°F3.9°C 91% 19.8 mph WSW31.9 kmh WSW 22.0 mph35.4 kmh 29.12 in986.1 mb 0.00 in0.0 mm 0.00 in0.0 mm 0.29 in7.4 mm
12:40 PM 41.5°F5.3°C 39.1°F3.9°C 91% 18.7 mph WSW30.1 kmh WSW 22.0 mph35.4 kmh 29.12 in986.1 mb 0.00 in0.0 mm 0.00 in0.0 mm 0.29 in7.4 mm
12:41 PM 41.5°F5.3°C 39.1°F3.9°C 91% 19.0 mph W30.6 kmh W 22.0 mph35.4 kmh 29.12 in986.1 mb 0.00 in0.0 mm 0.00 in0.0 mm 0.29 in7.4 mm
12:42 PM 41.5°F5.3°C 39.1°F3.9°C 91% 16.2 mph WSW26.1 kmh WSW 21.0 mph33.8 kmh 29.12 in986.1 mb 0.00 in0.0 mm 0.00 in0.0 mm 0.29 in7.4 mm
12:43 PM 41.5°F5.3°C 39.1°F3.9°C 91% 16.0 mph WSW25.7 kmh WSW 18.0 mph29.0 kmh 29.12 in986.1 mb 0.00 in0.0 mm 0.00 in0.0 mm 0.29 in7.4 mm
12:44 PM 41.4°F5.2°C 39.0°F3.9°C 91% 17.1 mph WSW27.5 kmh WSW 20.0 mph32.2 kmh 29.13 in986.5 mb 0.01 in0.3 mm 0.60 in15.2 mm 0.30 in7.6 mm
12:45 PM 41.5°F5.3°C 39.1°F3.9°C 91% 16.1 mph WSW25.9 kmh WSW 20.0 mph32.2 kmh 29.12 in986.1 mb 0.01 in0.3 mm 0.00 in0.0 mm 0.30 in7.6 mm
12:46 PM 41.4°F5.2°C 39.0°F3.9°C 91% 17.3 mph WSW27.8 kmh WSW 19.0 mph30.6 kmh 29.13 in986.5 mb 0.01 in0.3 mm 0.00 in0.0 mm 0.30 in7.6 mm
12:47 PM 41.4°F5.2°C 39.0°F3.9°C 91% 18.5 mph WSW29.8 kmh WSW 21.0 mph33.8 kmh 29.13 in986.5 mb 0.01 in0.3 mm 0.00 in0.0 mm 0.30 in7.6 mm
12:48 PM 41.4°F5.2°C 39.0°F3.9°C 91% 18.6 mph WSW29.9 kmh WSW 22.0 mph35.4 kmh 29.13 in986.5 mb 0.01 in0.3 mm 0.00 in0.0 mm 0.30 in7.6 mm
12:49 PM 41.3°F5.2°C 38.6°F3.7°C 90% 17.7 mph WSW28.5 kmh WSW 22.0 mph35.4 kmh 29.13 in986.5 mb 0.01 in0.3 mm 0.00 in0.0 mm 0.30 in7.6 mm
12:50 PM 41.4°F5.2°C 38.7°F3.7°C 90% 17.0 mph WSW27.4 kmh WSW 20.0 mph32.2 kmh 29.13 in986.5 mb 0.01 in0.3 mm 0.00 in0.0 mm 0.30 in7.6 mm
12:51 PM 41.3°F5.2°C 38.6°F3.7°C 90% 15.8 mph WSW25.4 kmh WSW 18.0 mph29.0 kmh 29.13 in986.5 mb 0.01 in0.3 mm 0.00 in0.0 mm 0.30 in7.6 mm
12:52 PM 41.3°F5.2°C 38.6°F3.7°C 90% 15.8 mph WSW25.4 kmh WSW 18.0 mph29.0 kmh 29.13 in986.5 mb 0.01 in0.3 mm 0.00 in0.0 mm 0.30 in7.6 mm
12:53 PM 41.2°F5.1°C 38.5°F3.6°C 90% 17.2 mph WSW27.7 kmh WSW 19.0 mph30.6 kmh 29.13 in986.5 mb 0.01 in0.3 mm 0.00 in0.0 mm 0.30 in7.6 mm
12:54 PM 41.2°F5.1°C 38.5°F3.6°C 90% 14.5 mph WSW23.3 kmh WSW 19.0 mph30.6 kmh 29.13 in986.5 mb 0.01 in0.3 mm 0.00 in0.0 mm 0.30 in7.6 mm
12:55 PM 41.2°F5.1°C 38.5°F3.6°C 90% 16.0 mph WSW25.7 kmh WSW 19.0 mph30.6 kmh 29.13 in986.5 mb 0.01 in0.3 mm 0.00 in0.0 mm 0.30 in7.6 mm
12:56 PM 41.3°F5.2°C 38.6°F3.7°C 90% 16.3 mph WSW26.2 kmh WSW 19.0 mph30.6 kmh 29.13 in986.5 mb 0.01 in0.3 mm 0.00 in0.0 mm 0.30 in7.6 mm
12:57 PM 41.3°F5.2°C 38.6°F3.7°C 90% 16.5 mph WSW26.6 kmh WSW 19.0 mph30.6 kmh 29.13 in986.5 mb 0.01 in0.3 mm 0.00 in0.0 mm 0.30 in7.6 mm
12:58 PM 41.3°F5.2°C 38.6°F3.7°C 90% 20.1 mph WSW32.3 kmh WSW 23.0 mph37.0 kmh 29.13 in986.5 mb 0.01 in0.3 mm 0.00 in0.0 mm 0.30 in7.6 mm
12:59 PM 41.3°F5.2°C 38.6°F3.7°C 90% 16.5 mph WSW26.6 kmh WSW 23.0 mph37.0 kmh 29.13 in986.5 mb 0.01 in0.3 mm 0.00 in0.0 mm 0.30 in7.6 mm
01:00 PM 41.3°F5.2°C 38.6°F3.7°C 90% 15.4 mph WSW24.8 kmh WSW 20.0 mph32.2 kmh 29.13 in986.5 mb 0.01 in0.3 mm 0.00 in0.0 mm 0.30 in7.6 mm
01:01 PM 41.3°F5.2°C 38.6°F3.7°C 90% 15.9 mph WSW25.6 kmh WSW 18.0 mph29.0 kmh 29.13 in986.5 mb 0.01 in0.3 mm 0.00 in0.0 mm 0.30 in7.6 mm
01:02 PM 41.2°F5.1°C 38.5°F3.6°C 90% 15.2 mph WSW24.5 kmh WSW 18.0 mph29.0 kmh 29.13 in986.5 mb 0.01 in0.3 mm 0.00 in0.0 mm 0.30 in7.6 mm
01:03 PM 41.2°F5.1°C 38.5°F3.6°C 90% 15.1 mph WSW24.3 kmh WSW 18.0 mph29.0 kmh 29.13 in986.5 mb 0.01 in0.3 mm 0.00 in0.0 mm 0.30 in7.6 mm
01:04 PM 41.2°F5.1°C 38.5°F3.6°C 90% 15.1 mph WSW24.3 kmh WSW 18.0 mph29.0 kmh 29.13 in986.5 mb 0.01 in0.3 mm 0.00 in0.0 mm 0.30 in7.6 mm
01:05 PM 41.1°F5.1°C 38.4°F3.6°C 90% 15.7 mph WSW25.3 kmh WSW 19.0 mph30.6 kmh 29.13 in986.5 mb 0.01 in0.3 mm 0.00 in0.0 mm 0.30 in7.6 mm
01:06 PM 41.1°F5.1°C 38.4°F3.6°C 90% 16.3 mph WSW26.2 kmh WSW 19.0 mph30.6 kmh 29.13 in986.5 mb 0.01 in0.3 mm 0.00 in0.0 mm 0.30 in7.6 mm
01:07 PM 41.1°F5.1°C 38.4°F3.6°C 90% 15.3 mph WSW24.6 kmh WSW 19.0 mph30.6 kmh 29.13 in986.5 mb 0.01 in0.3 mm 0.00 in0.0 mm 0.30 in7.6 mm
01:08 PM 41.1°F5.1°C 38.4°F3.6°C 90% 14.1 mph WSW22.7 kmh WSW 17.0 mph27.4 kmh 29.13 in986.5 mb 0.01 in0.3 mm 0.00 in0.0 mm 0.30 in7.6 mm
01:09 PM 41.1°F5.1°C 38.4°F3.6°C 90% 14.4 mph WSW23.2 kmh WSW 16.0 mph25.7 kmh 29.13 in986.5 mb 0.01 in0.3 mm 0.00 in0.0 mm 0.30 in7.6 mm
01:10 PM 41.1°F5.1°C 38.4°F3.6°C 90% 13.4 mph WSW21.6 kmh WSW 17.0 mph27.4 kmh 29.13 in986.5 mb 0.01 in0.3 mm 0.00 in0.0 mm 0.30 in7.6 mm
01:11 PM 41.1°F5.1°C 38.4°F3.6°C 90% 15.4 mph WSW24.8 kmh WSW 17.0 mph27.4 kmh 29.13 in986.5 mb 0.01 in0.3 mm 0.00 in0.0 mm 0.30 in7.6 mm
01:12 PM 41.0°F5.0°C 38.3°F3.5°C 90% 16.0 mph SW25.7 kmh SW 20.0 mph32.2 kmh 29.13 in986.5 mb 0.01 in0.3 mm 0.00 in0.0 mm 0.30 in7.6 mm
01:13 PM 41.0°F5.0°C 38.3°F3.5°C 90% 16.8 mph WSW27.0 kmh WSW 20.0 mph32.2 kmh 29.13 in986.5 mb 0.01 in0.3 mm 0.00 in0.0 mm 0.30 in7.6 mm
01:14 PM 41.0°F5.0°C 38.3°F3.5°C 90% 16.2 mph WSW26.1 kmh WSW 19.0 mph30.6 kmh 29.13 in986.5 mb 0.01 in0.3 mm 0.00 in0.0 mm 0.30 in7.6 mm
01:15 PM 41.0°F5.0°C 38.3°F3.5°C 90% 15.9 mph WSW25.6 kmh WSW 18.0 mph29.0 kmh 29.14 in986.8 mb 0.01 in0.3 mm 0.00 in0.0 mm 0.30 in7.6 mm
01:16 PM 41.0°F5.0°C 38.3°F3.5°C 90% 16.9 mph WSW27.2 kmh WSW 20.0 mph32.2 kmh 29.14 in986.8 mb 0.01 in0.3 mm 0.00 in0.0 mm 0.30 in7.6 mm
01:17 PM 41.0°F5.0°C 38.3°F3.5°C 90% 15.5 mph SW24.9 kmh SW 20.0 mph32.2 kmh 29.14 in986.8 mb 0.01 in0.3 mm 0.00 in0.0 mm 0.30 in7.6 mm
01:18 PM 40.9°F4.9°C 38.2°F3.4°C 90% 16.9 mph WSW27.2 kmh WSW 19.0 mph30.6 kmh 29.14 in986.8 mb 0.01 in0.3 mm 0.00 in0.0 mm 0.30 in7.6 mm
01:19 PM 40.9°F4.9°C 38.2°F3.4°C 90% 16.0 mph WSW25.7 kmh WSW 19.0 mph30.6 kmh 29.14 in986.8 mb 0.01 in0.3 mm 0.00 in0.0 mm 0.30 in7.6 mm
01:20 PM 40.9°F4.9°C 38.2°F3.4°C 90% 17.5 mph WSW28.2 kmh WSW 20.0 mph32.2 kmh 29.14 in986.8 mb 0.01 in0.3 mm 0.00 in0.0 mm 0.30 in7.6 mm
01:21 PM 40.9°F4.9°C 38.2°F3.4°C 90% 15.3 mph WSW24.6 kmh WSW 20.0 mph32.2 kmh 29.14 in986.8 mb 0.01 in0.3 mm 0.00 in0.0 mm 0.30 in7.6 mm
01:22 PM 40.8°F4.9°C 38.1°F3.4°C 90% 16.2 mph WSW26.1 kmh WSW 20.0 mph32.2 kmh 29.14 in986.8 mb 0.02 in0.5 mm 0.60 in15.2 mm 0.31 in7.9 mm
01:23 PM 40.8°F4.9°C 38.1°F3.4°C 90% 16.2 mph WSW26.1 kmh WSW 18.0 mph29.0 kmh 29.14 in986.8 mb 0.02 in0.5 mm 0.00 in0.0 mm 0.31 in7.9 mm
01:24 PM 40.8°F4.9°C 38.1°F3.4°C 90% 18.1 mph WSW29.1 kmh WSW 20.0 mph32.2 kmh 29.14 in986.8 mb 0.02 in0.5 mm 0.00 in0.0 mm 0.31 in7.9 mm
01:25 PM 40.8°F4.9°C 38.1°F3.4°C 90% 16.7 mph WSW26.9 kmh WSW 20.0 mph32.2 kmh 29.14 in986.8 mb 0.02 in0.5 mm 0.00 in0.0 mm 0.31 in7.9 mm
01:26 PM 40.8°F4.9°C 38.1°F3.4°C 90% 17.0 mph WSW27.4 kmh WSW 19.0 mph30.6 kmh 29.14 in986.8 mb 0.02 in0.5 mm 0.00 in0.0 mm 0.31 in7.9 mm
01:27 PM 40.8°F4.9°C 38.1°F3.4°C 90% 14.9 mph WSW24.0 kmh WSW 19.0 mph30.6 kmh 29.14 in986.8 mb 0.02 in0.5 mm 0.00 in0.0 mm 0.31 in7.9 mm
01:28 PM 40.8°F4.9°C 38.1°F3.4°C 90% 16.3 mph SW26.2 kmh SW 18.0 mph29.0 kmh 29.14 in986.8 mb 0.02 in0.5 mm 0.00 in0.0 mm 0.31 in7.9 mm
01:29 PM 40.8°F4.9°C 38.1°F3.4°C 90% 16.4 mph SW26.4 kmh SW 18.0 mph29.0 kmh 29.14 in986.8 mb 0.02 in0.5 mm 0.00 in0.0 mm 0.31 in7.9 mm
01:30 PM 40.8°F4.9°C 38.1°F3.4°C 90% 17.2 mph SW27.7 kmh SW 21.0 mph33.8 kmh 29.14 in986.8 mb 0.02 in0.5 mm 0.00 in0.0 mm 0.31 in7.9 mm
01:31 PM 40.8°F4.9°C 38.4°F3.6°C 91% 15.5 mph SW24.9 kmh SW 21.0 mph33.8 kmh 29.14 in986.8 mb 0.02 in0.5 mm 0.00 in0.0 mm 0.31 in7.9 mm
01:32 PM 40.8°F4.9°C 38.4°F3.6°C 91% 16.8 mph SW27.0 kmh SW 21.0 mph33.8 kmh 29.14 in986.8 mb 0.02 in0.5 mm 0.00 in0.0 mm 0.31 in7.9 mm
01:33 PM 40.8°F4.9°C 38.4°F3.6°C 91% 16.4 mph SW26.4 kmh SW 21.0 mph33.8 kmh 29.14 in986.8 mb 0.02 in0.5 mm 0.00 in0.0 mm 0.31 in7.9 mm
01:34 PM 40.8°F4.9°C 38.1°F3.4°C 90% 14.2 mph SW22.9 kmh SW 20.0 mph32.2 kmh 29.14 in986.8 mb 0.02 in0.5 mm 0.00 in0.0 mm 0.31 in7.9 mm
01:35 PM 40.8°F4.9°C 38.4°F3.6°C 91% 16.5 mph SW26.6 kmh SW 18.0 mph29.0 kmh 29.14 in986.8 mb 0.02 in0.5 mm 0.00 in0.0 mm 0.31 in7.9 mm
01:36 PM 40.7°F4.8°C 38.0°F3.3°C 90% 15.6 mph SW25.1 kmh SW 18.0 mph29.0 kmh 29.14 in986.8 mb 0.02 in0.5 mm 0.00 in0.0 mm 0.31 in7.9 mm
01:37 PM 40.8°F4.9°C 38.1°F3.4°C 90% 14.1 mph SW22.7 kmh SW 18.0 mph29.0 kmh 29.14 in986.8 mb 0.02 in0.5 mm 0.00 in0.0 mm 0.31 in7.9 mm
01:38 PM 40.8°F4.9°C 38.1°F3.4°C 90% 13.9 mph SW22.4 kmh SW 16.0 mph25.7 kmh 29.14 in986.8 mb 0.02 in0.5 mm 0.00 in0.0 mm 0.31 in7.9 mm
01:39 PM 40.7°F4.8°C 38.3°F3.5°C 91% 13.3 mph SW21.4 kmh SW 16.0 mph25.7 kmh 29.14 in986.8 mb 0.02 in0.5 mm 0.00 in0.0 mm 0.31 in7.9 mm
01:40 PM 40.7°F4.8°C 38.3°F3.5°C 91% 14.7 mph SW23.7 kmh SW 16.0 mph25.7 kmh 29.14 in986.8 mb 0.02 in0.5 mm 0.00 in0.0 mm 0.31 in7.9 mm
01:41 PM 40.8°F4.9°C 38.1°F3.4°C 90% 15.0 mph WSW24.1 kmh WSW 18.0 mph29.0 kmh 29.14 in986.8 mb 0.02 in0.5 mm 0.00 in0.0 mm 0.31 in7.9 mm
01:42 PM 40.7°F4.8°C 38.0°F3.3°C 90% 14.1 mph SW22.7 kmh SW 18.0 mph29.0 kmh 29.14 in986.8 mb 0.03 in0.8 mm 0.60 in15.2 mm 0.32 in8.1 mm
01:43 PM 40.7°F4.8°C 38.0°F3.3°C 90% 13.6 mph SW21.9 kmh SW 16.0 mph25.7 kmh 29.14 in986.8 mb 0.03 in0.8 mm 0.00 in0.0 mm 0.32 in8.1 mm
01:44 PM 40.7°F4.8°C 38.0°F3.3°C 90% 13.8 mph SW22.2 kmh SW 15.0 mph24.1 kmh 29.14 in986.8 mb 0.02 in0.5 mm 0.00 in0.0 mm 0.32 in8.1 mm
01:45 PM 40.7°F4.8°C 38.0°F3.3°C 90% 14.1 mph WSW22.7 kmh WSW 17.0 mph27.4 kmh 29.14 in986.8 mb 0.02 in0.5 mm 0.00 in0.0 mm 0.32 in8.1 mm
01:46 PM 40.6°F4.8°C 37.9°F3.3°C 90% 13.8 mph SW22.2 kmh SW 17.0 mph27.4 kmh 29.14 in986.8 mb 0.02 in0.5 mm 0.00 in0.0 mm 0.32 in8.1 mm
01:47 PM 40.6°F4.8°C 37.9°F3.3°C 90% 13.2 mph SW21.2 kmh SW 16.0 mph25.7 kmh 29.14 in986.8 mb 0.02 in0.5 mm 0.00 in0.0 mm 0.32 in8.1 mm
01:48 PM 40.7°F4.8°C 38.0°F3.3°C 90% 12.9 mph SW20.8 kmh SW 16.0 mph25.7 kmh 29.14 in986.8 mb 0.02 in0.5 mm 0.00 in0.0 mm 0.32 in8.1 mm
01:49 PM 40.7°F4.8°C 38.0°F3.3°C 90% 12.5 mph SW20.1 kmh SW 16.0 mph25.7 kmh 29.14 in986.8 mb 0.02 in0.5 mm 0.00 in0.0 mm 0.32 in8.1 mm
01:50 PM 40.7°F4.8°C 38.3°F3.5°C 91% 11.9 mph SW19.2 kmh SW 16.0 mph25.7 kmh 29.14 in986.8 mb 0.02 in0.5 mm 0.00 in0.0 mm 0.32 in8.1 mm
01:51 PM 40.7°F4.8°C 38.3°F3.5°C 91% 12.9 mph SW20.8 kmh SW 15.0 mph24.1 kmh 29.14 in986.8 mb 0.02 in0.5 mm 0.00 in0.0 mm 0.32 in8.1 mm
01:52 PM 40.8°F4.9°C 38.1°F3.4°C 90% 12.2 mph SW19.6 kmh SW 15.0 mph24.1 kmh 29.14 in986.8 mb 0.02 in0.5 mm 0.00 in0.0 mm 0.32 in8.1 mm
01:53 PM 40.8°F4.9°C 38.1°F3.4°C 90% 12.6 mph SW20.3 kmh SW 15.0 mph24.1 kmh 29.14 in986.8 mb 0.02 in0.5 mm 0.00 in0.0 mm 0.32 in8.1 mm
01:54 PM 40.8°F4.9°C 38.1°F3.4°C 90% 12.6 mph SW20.3 kmh SW 15.0 mph24.1 kmh 29.14 in986.8 mb 0.02 in0.5 mm 0.00 in0.0 mm 0.32 in8.1 mm
01:55 PM 40.8°F4.9°C 38.1°F3.4°C 90% 12.3 mph SW19.8 kmh SW 15.0 mph24.1 kmh 29.14 in986.8 mb 0.02 in0.5 mm 0.00 in0.0 mm 0.32 in8.1 mm
01:56 PM 40.8°F4.9°C 38.1°F3.4°C 90% 13.6 mph SW21.9 kmh SW 16.0 mph25.7 kmh 29.14 in986.8 mb 0.02 in0.5 mm 0.00 in0.0 mm 0.32 in8.1 mm
01:57 PM 40.8°F4.9°C 38.1°F3.4°C 90% 15.4 mph SW24.8 kmh SW 19.0 mph30.6 kmh 29.14 in986.8 mb 0.02 in0.5 mm 0.00 in0.0 mm 0.32 in8.1 mm
01:58 PM 40.8°F4.9°C 38.1°F3.4°C 90% 13.4 mph SW21.6 kmh SW 19.0 mph30.6 kmh 29.14 in986.8 mb 0.02 in0.5 mm 0.00 in0.0 mm 0.32 in8.1 mm
01:59 PM 40.9°F4.9°C 38.2°F3.4°C 90% 13.7 mph SW22.0 kmh SW 17.0 mph27.4 kmh 29.14 in986.8 mb 0.02 in0.5 mm 0.00 in0.0 mm 0.32 in8.1 mm
02:00 PM 40.9°F4.9°C 38.2°F3.4°C 90% 13.0 mph SW20.9 kmh SW 17.0 mph27.4 kmh 29.14 in986.8 mb 0.02 in0.5 mm 0.00 in0.0 mm 0.32 in8.1 mm
02:01 PM 40.9°F4.9°C 38.2°F3.4°C 90% 13.1 mph SW21.1 kmh SW 17.0 mph27.4 kmh 29.15 in987.1 mb 0.02 in0.5 mm 0.00 in0.0 mm 0.32 in8.1 mm
02:02 PM 40.9°F4.9°C 38.2°F3.4°C 90% 13.9 mph SW22.4 kmh SW 17.0 mph27.4 kmh 29.14 in986.8 mb 0.02 in0.5 mm 0.00 in0.0 mm 0.32 in8.1 mm
02:03 PM 40.9°F4.9°C 38.2°F3.4°C 90% 12.5 mph SW20.1 kmh SW 16.0 mph25.7 kmh 29.15 in987.1 mb 0.02 in0.5 mm 0.00 in0.0 mm 0.32 in8.1 mm
02:04 PM 40.9°F4.9°C 38.2°F3.4°C 90% 14.5 mph SW23.3 kmh SW 19.0 mph30.6 kmh 29.15 in987.1 mb 0.02 in0.5 mm 0.00 in0.0 mm 0.32 in8.1 mm
02:05 PM 40.9°F4.9°C 38.2°F3.4°C 90% 16.3 mph SW26.2 kmh SW 20.0 mph32.2 kmh 29.15 in987.1 mb 0.02 in0.5 mm 0.00 in0.0 mm 0.32 in8.1 mm
02:06 PM 40.9°F4.9°C 38.2°F3.4°C 90% 14.9 mph SW24.0 kmh SW 20.0 mph32.2 kmh 29.15 in987.1 mb 0.02 in0.5 mm 0.00 in0.0 mm 0.32 in8.1 mm
02:07 PM 40.9°F4.9°C 38.2°F3.4°C 90% 13.4 mph SW21.6 kmh SW 17.0 mph27.4 kmh 29.15 in987.1 mb 0.02 in0.5 mm 0.00 in0.0 mm 0.32 in8.1 mm
02:08 PM 40.9°F4.9°C 38.2°F3.4°C 90% 15.5 mph SW24.9 kmh SW 18.0 mph29.0 kmh 29.15 in987.1 mb 0.02 in0.5 mm 0.00 in0.0 mm 0.32 in8.1 mm
02:09 PM 40.9°F4.9°C 38.2°F3.4°C 90% 13.3 mph SW21.4 kmh SW 18.0 mph29.0 kmh 29.15 in987.1 mb 0.02 in0.5 mm 0.00 in0.0 mm 0.32 in8.1 mm
02:10 PM 40.9°F4.9°C 38.2°F3.4°C 90% 13.6 mph SW21.9 kmh SW 18.0 mph29.0 kmh 29.15 in987.1 mb 0.02 in0.5 mm 0.00 in0.0 mm 0.32 in8.1 mm
02:11 PM 41.0°F5.0°C 38.3°F3.5°C 90% 15.8 mph SW25.4 kmh SW 18.0 mph29.0 kmh 29.15 in987.1 mb 0.02 in0.5 mm 0.00 in0.0 mm 0.32 in8.1 mm
02:12 PM 41.0°F5.0°C 38.6°F3.7°C 91% 15.3 mph SW24.6 kmh SW 18.0 mph29.0 kmh 29.15 in987.1 mb 0.02 in0.5 mm 0.00 in0.0 mm 0.32 in8.1 mm
02:13 PM 41.1°F5.1°C 38.7°F3.7°C 91% 14.6 mph SW23.5 kmh SW 18.0 mph29.0 kmh 29.15 in987.1 mb 0.03 in0.8 mm 0.60 in15.2 mm 0.33 in8.4 mm
02:14 PM 41.1°F5.1°C 38.7°F3.7°C 91% 14.7 mph SW23.7 kmh SW 18.0 mph29.0 kmh 29.15 in987.1 mb 0.03 in0.8 mm 0.00 in0.0 mm 0.33 in8.4 mm
02:15 PM 41.2°F5.1°C 38.8°F3.8°C 91% 16.2 mph SW26.1 kmh SW 20.0 mph32.2 kmh 29.15 in987.1 mb 0.03 in0.8 mm 0.00 in0.0 mm 0.33 in8.4 mm
02:16 PM 41.2°F5.1°C 38.8°F3.8°C 91% 16.1 mph SW25.9 kmh SW 20.0 mph32.2 kmh 29.15 in987.1 mb 0.03 in0.8 mm 0.00 in0.0 mm 0.33 in8.4 mm
02:17 PM 41.2°F5.1°C 38.5°F3.6°C 90% 17.4 mph SW28.0 kmh SW 20.0 mph32.2 kmh 29.15 in987.1 mb 0.03 in0.8 mm 0.00 in0.0 mm 0.33 in8.4 mm
02:18 PM 41.3°F5.2°C 38.9°F3.8°C 91% 17.4 mph SW28.0 kmh SW 21.0 mph33.8 kmh 29.15 in987.1 mb 0.03 in0.8 mm 0.00 in0.0 mm 0.33 in8.4 mm
02:19 PM 41.3°F5.2°C 38.9°F3.8°C 91% 15.4 mph SW24.8 kmh SW 21.0 mph33.8 kmh 29.15 in987.1 mb 0.03 in0.8 mm 0.00 in0.0 mm 0.33 in8.4 mm
02:20 PM 41.3°F5.2°C 38.6°F3.7°C 90% 15.4 mph SW24.8 kmh SW 18.0 mph29.0 kmh 29.15 in987.1 mb 0.03 in0.8 mm 0.00 in0.0 mm 0.33 in8.4 mm
02:21 PM 41.3°F5.2°C 38.9°F3.8°C 91% 14.7 mph SW23.7 kmh SW 18.0 mph29.0 kmh 29.15 in987.1 mb 0.03 in0.8 mm 0.00 in0.0 mm 0.33 in8.4 mm
02:22 PM 41.4°F5.2°C 39.0°F3.9°C 91% 15.1 mph SW24.3 kmh SW 19.0 mph30.6 kmh 29.15 in987.1 mb 0.02 in0.5 mm 0.00 in0.0 mm 0.33 in8.4 mm
02:23 PM 41.4°F5.2°C 39.0°F3.9°C 91% 15.4 mph SW24.8 kmh SW 19.0 mph30.6 kmh 29.15 in987.1 mb 0.02 in0.5 mm 0.00 in0.0 mm 0.33 in8.4 mm
02:24 PM 41.4°F5.2°C 39.0°F3.9°C 91% 14.9 mph SW24.0 kmh SW 18.0 mph29.0 kmh 29.15 in987.1 mb 0.02 in0.5 mm 0.00 in0.0 mm 0.33 in8.4 mm
02:25 PM 41.3°F5.2°C 38.9°F3.8°C 91% 15.5 mph SW24.9 kmh SW 18.0 mph29.0 kmh 29.15 in987.1 mb 0.02 in0.5 mm 0.00 in0.0 mm 0.33 in8.4 mm
02:26 PM 41.3°F5.2°C 38.6°F3.7°C 90% 17.4 mph SW28.0 kmh SW 20.0 mph32.2 kmh 29.15 in987.1 mb 0.02 in0.5 mm 0.00 in0.0 mm 0.33 in8.4 mm
02:27 PM 41.3°F5.2°C 38.9°F3.8°C 91% 17.0 mph WSW27.4 kmh WSW 20.0 mph32.2 kmh 29.15 in987.1 mb 0.02 in0.5 mm 0.00 in0.0 mm 0.33 in8.4 mm
02:28 PM 41.3°F5.2°C 38.6°F3.7°C 90% 17.1 mph WSW27.5 kmh WSW 20.0 mph32.2 kmh 29.15 in987.1 mb 0.02 in0.5 mm 0.00 in0.0 mm 0.33 in8.4 mm
02:29 PM 41.3°F5.2°C 38.6°F3.7°C 90% 16.8 mph WSW27.0 kmh WSW 20.0 mph32.2 kmh 29.15 in987.1 mb 0.02 in0.5 mm 0.00 in0.0 mm 0.33 in8.4 mm
02:30 PM 41.4°F5.2°C 38.7°F3.7°C 90% 17.9 mph WSW28.8 kmh WSW 20.0 mph32.2 kmh 29.15 in987.1 mb 0.02 in0.5 mm 0.00 in0.0 mm 0.33 in8.4 mm
02:31 PM 41.5°F5.3°C 38.8°F3.8°C 90% 16.7 mph WSW26.9 kmh WSW 20.0 mph32.2 kmh 29.15 in987.1 mb 0.02 in0.5 mm 0.00 in0.0 mm 0.33 in8.4 mm
02:32 PM 41.4°F5.2°C 38.7°F3.7°C 90% 19.0 mph WSW30.6 kmh WSW 21.0 mph33.8 kmh 29.16 in987.5 mb 0.02 in0.5 mm 0.00 in0.0 mm 0.33 in8.4 mm
02:33 PM 41.5°F5.3°C 38.8°F3.8°C 90% 17.7 mph WSW28.5 kmh WSW 21.0 mph33.8 kmh 29.16 in987.5 mb 0.02 in0.5 mm 0.00 in0.0 mm 0.33 in8.4 mm
02:34 PM 41.5°F5.3°C 38.8°F3.8°C 90% 17.1 mph WSW27.5 kmh WSW 20.0 mph32.2 kmh 29.15 in987.1 mb 0.02 in0.5 mm 0.00 in0.0 mm 0.33 in8.4 mm
02:35 PM 41.5°F5.3°C 38.5°F3.6°C 89% 20.3 mph WSW32.7 kmh WSW 23.0 mph37.0 kmh 29.15 in987.1 mb 0.02 in0.5 mm 0.00 in0.0 mm 0.33 in8.4 mm
02:36 PM 41.6°F5.3°C 38.6°F3.7°C 89% 17.6 mph WSW28.3 kmh WSW 23.0 mph37.0 kmh 29.16 in987.5 mb 0.02 in0.5 mm 0.00 in0.0 mm 0.33 in8.4 mm
02:37 PM 41.6°F5.3°C 38.6°F3.7°C 89% 17.8 mph WSW28.6 kmh WSW 20.0 mph32.2 kmh 29.16 in987.5 mb 0.02 in0.5 mm 0.00 in0.0 mm 0.33 in8.4 mm
02:38 PM 41.6°F5.3°C 38.6°F3.7°C 89% 16.7 mph WSW26.9 kmh WSW 21.0 mph33.8 kmh 29.16 in987.5 mb 0.02 in0.5 mm 0.00 in0.0 mm 0.33 in8.4 mm
02:39 PM 41.7°F5.4°C 38.7°F3.7°C 89% 18.8 mph WSW30.3 kmh WSW 21.0 mph33.8 kmh 29.16 in987.5 mb 0.02 in0.5 mm 0.00 in0.0 mm 0.33 in8.4 mm
02:40 PM 41.8°F5.4°C 38.5°F3.6°C 88% 17.1 mph WSW27.5 kmh WSW 21.0 mph33.8 kmh 29.16 in987.5 mb 0.02 in0.5 mm 0.00 in0.0 mm 0.33 in8.4 mm
02:41 PM 41.8°F5.4°C 38.5°F3.6°C 88% 16.8 mph WSW27.0 kmh WSW 20.0 mph32.2 kmh 29.16 in987.5 mb 0.02 in0.5 mm 0.00 in0.0 mm 0.33 in8.4 mm
02:42 PM 41.7°F5.4°C 38.4°F3.6°C 88% 17.5 mph WSW28.2 kmh WSW 19.0 mph30.6 kmh 29.16 in987.5 mb 0.01 in0.3 mm 0.00 in0.0 mm 0.33 in8.4 mm
02:43 PM 41.8°F5.4°C 38.5°F3.6°C 88% 17.5 mph WSW28.2 kmh WSW 20.0 mph32.2 kmh 29.16 in987.5 mb 0.01 in0.3 mm 0.00 in0.0 mm 0.33 in8.4 mm
02:44 PM 41.8°F5.4°C 38.5°F3.6°C 88% 16.1 mph WSW25.9 kmh WSW 20.0 mph32.2 kmh 29.16 in987.5 mb 0.01 in0.3 mm 0.00 in0.0 mm 0.33 in8.4 mm
02:45 PM 41.7°F5.4°C 38.4°F3.6°C 88% 17.0 mph WSW27.4 kmh WSW 19.0 mph30.6 kmh 29.16 in987.5 mb 0.01 in0.3 mm 0.00 in0.0 mm 0.33 in8.4 mm
02:46 PM 41.7°F5.4°C 38.4°F3.6°C 88% 16.8 mph WSW27.0 kmh WSW 19.0 mph30.6 kmh 29.16 in987.5 mb 0.01 in0.3 mm 0.00 in0.0 mm 0.33 in8.4 mm
02:47 PM 41.7°F5.4°C 38.4°F3.6°C 88% 18.3 mph WSW29.5 kmh WSW 21.0 mph33.8 kmh 29.16 in987.5 mb 0.01 in0.3 mm 0.00 in0.0 mm 0.33 in8.4 mm
02:48 PM 41.8°F5.4°C 38.5°F3.6°C 88% 17.4 mph WSW28.0 kmh WSW 21.0 mph33.8 kmh 29.16 in987.5 mb 0.01 in0.3 mm 0.00 in0.0 mm 0.33 in8.4 mm
02:49 PM 41.7°F5.4°C 38.4°F3.6°C 88% 16.3 mph WSW26.2 kmh WSW 20.0 mph32.2 kmh 29.16 in987.5 mb 0.01 in0.3 mm 0.00 in0.0 mm 0.33 in8.4 mm
02:50 PM 41.8°F5.4°C 38.5°F3.6°C 88% 16.6 mph WSW26.7 kmh WSW 20.0 mph32.2 kmh 29.16 in987.5 mb 0.01 in0.3 mm 0.00 in0.0 mm 0.33 in8.4 mm
02:51 PM 41.8°F5.4°C 38.5°F3.6°C 88% 16.9 mph WSW27.2 kmh WSW 20.0 mph32.2 kmh 29.16 in987.5 mb 0.01 in0.3 mm 0.00 in0.0 mm 0.33 in8.4 mm
02:52 PM 41.8°F5.4°C 38.5°F3.6°C 88% 15.4 mph WSW24.8 kmh WSW 20.0 mph32.2 kmh 29.16 in987.5 mb 0.01 in0.3 mm 0.00 in0.0 mm 0.33 in8.4 mm
02:53 PM 41.8°F5.4°C 38.5°F3.6°C 88% 15.5 mph WSW24.9 kmh WSW 18.0 mph29.0 kmh 29.16 in987.5 mb 0.01 in0.3 mm 0.00 in0.0 mm 0.33 in8.4 mm
02:54 PM 41.8°F5.4°C 38.5°F3.6°C 88% 15.3 mph WSW24.6 kmh WSW 18.0 mph29.0 kmh 29.16 in987.5 mb 0.01 in0.3 mm 0.00 in0.0 mm 0.33 in8.4 mm
02:55 PM 41.8°F5.4°C 38.5°F3.6°C 88% 14.6 mph WSW23.5 kmh WSW 18.0 mph29.0 kmh 29.16 in987.5 mb 0.01 in0.3 mm 0.00 in0.0 mm 0.33 in8.4 mm
02:56 PM 41.8°F5.4°C 38.5°F3.6°C 88% 16.7 mph WSW26.9 kmh WSW 18.0 mph29.0 kmh 29.16 in987.5 mb 0.01 in0.3 mm 0.00 in0.0 mm 0.33 in8.4 mm
02:57 PM 41.8°F5.4°C 38.8°F3.8°C 89% 17.2 mph SW27.7 kmh SW 21.0 mph33.8 kmh 29.16 in987.5 mb 0.01 in0.3 mm 0.00 in0.0 mm 0.33 in8.4 mm
02:58 PM 41.8°F5.4°C 38.8°F3.8°C 89% 15.3 mph SW24.6 kmh SW 21.0 mph33.8 kmh 29.16 in987.5 mb 0.01 in0.3 mm 0.00 in0.0 mm 0.33 in8.4 mm
02:59 PM 41.8°F5.4°C 38.8°F3.8°C 89% 15.3 mph WSW24.6 kmh WSW 18.0 mph29.0 kmh 29.16 in987.5 mb 0.01 in0.3 mm 0.00 in0.0 mm 0.33 in8.4 mm
03:00 PM 41.8°F5.4°C 38.8°F3.8°C 89% 14.7 mph SW23.7 kmh SW 17.0 mph27.4 kmh 29.16 in987.5 mb 0.01 in0.3 mm 0.00 in0.0 mm 0.33 in8.4 mm
03:01 PM 41.9°F5.5°C 38.9°F3.8°C 89% 13.4 mph SW21.6 kmh SW 17.0 mph27.4 kmh 29.16 in987.5 mb 0.01 in0.3 mm 0.00 in0.0 mm 0.33 in8.4 mm
03:02 PM 41.9°F5.5°C 38.9°F3.8°C 89% 13.1 mph SW21.1 kmh SW 16.0 mph25.7 kmh 29.16 in987.5 mb 0.01 in0.3 mm 0.00 in0.0 mm 0.33 in8.4 mm
03:03 PM 42.0°F5.6°C 39.0°F3.9°C 89% 12.4 mph SW20.0 kmh SW 16.0 mph25.7 kmh 29.16 in987.5 mb 0.01 in0.3 mm 0.00 in0.0 mm 0.33 in8.4 mm
03:04 PM 41.9°F5.5°C 38.9°F3.8°C 89% 12.1 mph SW19.5 kmh SW 16.0 mph25.7 kmh 29.16 in987.5 mb 0.01 in0.3 mm 0.00 in0.0 mm 0.33 in8.4 mm
03:05 PM 42.0°F5.6°C 39.0°F3.9°C 89% 13.8 mph SW22.2 kmh SW 16.0 mph25.7 kmh 29.16 in987.5 mb 0.01 in0.3 mm 0.00 in0.0 mm 0.33 in8.4 mm
03:06 PM 42.0°F5.6°C 39.0°F3.9°C 89% 16.4 mph SW26.4 kmh SW 19.0 mph30.6 kmh 29.16 in987.5 mb 0.01 in0.3 mm 0.00 in0.0 mm 0.33 in8.4 mm
03:07 PM 42.1°F5.6°C 39.1°F3.9°C 89% 14.5 mph SW23.3 kmh SW 19.0 mph30.6 kmh 29.16 in987.5 mb 0.01 in0.3 mm 0.00 in0.0 mm 0.33 in8.4 mm
03:08 PM 42.0°F5.6°C 39.0°F3.9°C 89% 14.6 mph SW23.5 kmh SW 18.0 mph29.0 kmh 29.16 in987.5 mb 0.01 in0.3 mm 0.00 in0.0 mm 0.33 in8.4 mm
03:09 PM 42.0°F5.6°C 39.0°F3.9°C 89% 16.5 mph SW26.6 kmh SW 19.0 mph30.6 kmh 29.16 in987.5 mb 0.01 in0.3 mm 0.00 in0.0 mm 0.33 in8.4 mm
03:10 PM 42.0°F5.6°C 39.0°F3.9°C 89% 14.9 mph SW24.0 kmh SW 19.0 mph30.6 kmh 29.16 in987.5 mb 0.01 in0.3 mm 0.00 in0.0 mm 0.33 in8.4 mm
03:11 PM 42.0°F5.6°C 39.0°F3.9°C 89% 14.6 mph SW23.5 kmh SW 17.0 mph27.4 kmh 29.16 in987.5 mb 0.01 in0.3 mm 0.00 in0.0 mm 0.33 in8.4 mm
03:12 PM 42.1°F5.6°C 39.1°F3.9°C 89% 14.9 mph SW24.0 kmh SW 17.0 mph27.4 kmh 29.16 in987.5 mb 0.01 in0.3 mm 0.00 in0.0 mm 0.33 in8.4 mm
03:13 PM 42.1°F5.6°C 39.1°F3.9°C 89% 15.1 mph SW24.3 kmh SW 18.0 mph29.0 kmh 29.16 in987.5 mb 0.00 in0.0 mm 0.00 in0.0 mm 0.33 in8.4 mm
03:14 PM 42.0°F5.6°C 39.0°F3.9°C 89% 14.6 mph SW23.5 kmh SW 18.0 mph29.0 kmh 29.16 in987.5 mb 0.00 in0.0 mm 0.00 in0.0 mm 0.33 in8.4 mm
03:15 PM 42.0°F5.6°C 38.7°F3.7°C 88% 17.0 mph WSW27.4 kmh WSW 20.0 mph32.2 kmh 29.16 in987.5 mb 0.00 in0.0 mm 0.00 in0.0 mm 0.33 in8.4 mm
03:16 PM 42.0°F5.6°C 38.7°F3.7°C 88% 16.9 mph SW27.2 kmh SW 20.0 mph32.2 kmh 29.16 in987.5 mb 0.00 in0.0 mm 0.00 in0.0 mm 0.33 in8.4 mm
03:17 PM 42.0°F5.6°C 38.7°F3.7°C 88% 16.9 mph SW27.2 kmh SW 21.0 mph33.8 kmh 29.16 in987.5 mb 0.00 in0.0 mm 0.00 in0.0 mm 0.33 in8.4 mm
03:18 PM 42.0°F5.6°C 38.7°F3.7°C 88% 18.8 mph SW30.3 kmh SW 21.0 mph33.8 kmh 29.16 in987.5 mb 0.00 in0.0 mm 0.00 in0.0 mm 0.33 in8.4 mm
03:19 PM 42.0°F5.6°C 38.7°F3.7°C 88% 17.9 mph SW28.8 kmh SW 21.0 mph33.8 kmh 29.16 in987.5 mb 0.00 in0.0 mm 0.00 in0.0 mm 0.33 in8.4 mm
03:20 PM 42.0°F5.6°C 38.7°F3.7°C 88% 16.2 mph SW26.1 kmh SW 20.0 mph32.2 kmh 29.16 in987.5 mb 0.00 in0.0 mm 0.00 in0.0 mm 0.33 in8.4 mm
03:21 PM 41.9°F5.5°C 38.6°F3.7°C 88% 16.9 mph SW27.2 kmh SW 19.0 mph30.6 kmh 29.17 in987.8 mb 0.00 in0.0 mm 0.00 in0.0 mm 0.33 in8.4 mm
03:22 PM 42.0°F5.6°C 38.7°F3.7°C 88% 19.8 mph SW31.9 kmh SW 22.0 mph35.4 kmh 29.17 in987.8 mb 0.00 in0.0 mm 0.00 in0.0 mm 0.33 in8.4 mm
03:23 PM 42.0°F5.6°C 38.7°F3.7°C 88% 19.4 mph SW31.2 kmh SW 23.0 mph37.0 kmh 29.16 in987.5 mb 0.00 in0.0 mm 0.00 in0.0 mm 0.33 in8.4 mm
03:24 PM 42.0°F5.6°C 38.7°F3.7°C 88% 18.3 mph WSW29.5 kmh WSW 24.0 mph38.6 kmh 29.17 in987.8 mb 0.00 in0.0 mm 0.00 in0.0 mm 0.33 in8.4 mm
03:25 PM 42.0°F5.6°C 38.7°F3.7°C 88% 18.6 mph WSW29.9 kmh WSW 24.0 mph38.6 kmh 29.17 in987.8 mb 0.00 in0.0 mm 0.00 in0.0 mm 0.33 in8.4 mm
03:26 PM 42.0°F5.6°C 38.7°F3.7°C 88% 20.2 mph SW32.5 kmh SW 25.0 mph40.2 kmh 29.17 in987.8 mb 0.00 in0.0 mm 0.00 in0.0 mm 0.33 in8.4 mm
03:27 PM 41.9°F5.5°C 38.6°F3.7°C 88% 21.7 mph WSW34.9 kmh WSW 26.0 mph41.8 kmh 29.17 in987.8 mb 0.00 in0.0 mm 0.00 in0.0 mm 0.33 in8.4 mm
03:28 PM 41.9°F5.5°C 38.6°F3.7°C 88% 21.6 mph WSW34.8 kmh WSW 26.0 mph41.8 kmh 29.17 in987.8 mb 0.00 in0.0 mm 0.00 in0.0 mm 0.33 in8.4 mm
03:29 PM 41.9°F5.5°C 38.6°F3.7°C 88% 21.4 mph WSW34.4 kmh WSW 24.0 mph38.6 kmh 29.17 in987.8 mb 0.00 in0.0 mm 0.00 in0.0 mm 0.33 in8.4 mm
03:30 PM 41.8°F5.4°C 38.5°F3.6°C 88% 20.0 mph WSW32.2 kmh WSW 24.0 mph38.6 kmh 29.17 in987.8 mb 0.00 in0.0 mm 0.00 in0.0 mm 0.33 in8.4 mm
03:31 PM 41.8°F5.4°C 38.5°F3.6°C 88% 21.8 mph WSW35.1 kmh WSW 27.0 mph43.5 kmh 29.17 in987.8 mb 0.00 in0.0 mm 0.00 in0.0 mm 0.33 in8.4 mm
03:32 PM 41.8°F5.4°C 38.5°F3.6°C 88% 20.7 mph WSW33.3 kmh WSW 27.0 mph43.5 kmh 29.17 in987.8 mb 0.00 in0.0 mm 0.00 in0.0 mm 0.33 in8.4 mm
03:33 PM 41.8°F5.4°C 38.5°F3.6°C 88% 21.5 mph WSW34.6 kmh WSW 27.0 mph43.5 kmh 29.17 in987.8 mb 0.00 in0.0 mm 0.00 in0.0 mm 0.33 in8.4 mm
03:34 PM 41.8°F5.4°C 38.5°F3.6°C 88% 21.2 mph WSW34.1 kmh WSW 27.0 mph43.5 kmh 29.17 in987.8 mb 0.00 in0.0 mm 0.00 in0.0 mm 0.33 in8.4 mm
03:35 PM 41.8°F5.4°C 38.5°F3.6°C 88% 20.1 mph WSW32.3 kmh WSW 27.0 mph43.5 kmh 29.17 in987.8 mb 0.00 in0.0 mm 0.00 in0.0 mm 0.33 in8.4 mm
03:36 PM 41.8°F5.4°C 38.5°F3.6°C 88% 18.6 mph WSW29.9 kmh WSW 25.0 mph40.2 kmh 29.17 in987.8 mb 0.00 in0.0 mm 0.00 in0.0 mm 0.33 in8.4 mm
03:37 PM 41.7°F5.4°C 38.1°F3.4°C 87% 22.6 mph WSW36.4 kmh WSW 30.0 mph48.3 kmh 29.17 in987.8 mb 0.00 in0.0 mm 0.00 in0.0 mm 0.33 in8.4 mm
03:38 PM 41.6°F5.3°C 38.0°F3.3°C 87% 21.4 mph WSW34.4 kmh WSW 30.0 mph48.3 kmh 29.17 in987.8 mb 0.00 in0.0 mm 0.00 in0.0 mm 0.33 in8.4 mm
03:39 PM 41.5°F5.3°C 37.9°F3.3°C 87% 19.7 mph WSW31.7 kmh WSW 26.0 mph41.8 kmh 29.17 in987.8 mb 0.00 in0.0 mm 0.00 in0.0 mm 0.33 in8.4 mm
03:40 PM 41.5°F5.3°C 37.9°F3.3°C 87% 19.7 mph WSW31.7 kmh WSW 26.0 mph41.8 kmh 29.17 in987.8 mb 0.00 in0.0 mm 0.00 in0.0 mm 0.33 in8.4 mm
03:41 PM 41.5°F5.3°C 37.9°F3.3°C 87% 19.5 mph WSW31.4 kmh WSW 23.0 mph37.0 kmh 29.17 in987.8 mb 0.00 in0.0 mm 0.00 in0.0 mm 0.33 in8.4 mm
03:42 PM 41.5°F5.3°C 37.9°F3.3°C 87% 22.2 mph WSW35.7 kmh WSW 25.0 mph40.2 kmh 29.17 in987.8 mb 0.00 in0.0 mm 0.00 in0.0 mm 0.33 in8.4 mm
03:43 PM 41.5°F5.3°C 37.9°F3.3°C 87% 18.9 mph WSW30.4 kmh WSW 25.0 mph40.2 kmh 29.17 in987.8 mb 0.00 in0.0 mm 0.00 in0.0 mm 0.33 in8.4 mm
03:44 PM 41.5°F5.3°C 37.9°F3.3°C 87% 17.9 mph WSW28.8 kmh WSW 22.0 mph35.4 kmh 29.17 in987.8 mb 0.00 in0.0 mm 0.00 in0.0 mm 0.33 in8.4 mm
03:45 PM 41.5°F5.3°C 37.9°F3.3°C 87% 16.7 mph WSW26.9 kmh WSW 21.0 mph33.8 kmh 29.17 in987.8 mb 0.00 in0.0 mm 0.00 in0.0 mm 0.33 in8.4 mm
03:46 PM 41.5°F5.3°C 37.9°F3.3°C 87% 18.9 mph WSW30.4 kmh WSW 21.0 mph33.8 kmh 29.17 in987.8 mb 0.00 in0.0 mm 0.00 in0.0 mm 0.33 in8.4 mm
03:47 PM 41.5°F5.3°C 37.9°F3.3°C 87% 18.5 mph SW29.8 kmh SW 21.0 mph33.8 kmh 29.18 in988.1 mb 0.00 in0.0 mm 0.00 in0.0 mm 0.33 in8.4 mm
03:48 PM 41.5°F5.3°C 37.9°F3.3°C 87% 17.1 mph SW27.5 kmh SW 21.0 mph33.8 kmh 29.18 in988.1 mb 0.00 in0.0 mm 0.00 in0.0 mm 0.33 in8.4 mm
03:49 PM 41.5°F5.3°C 38.2°F3.4°C 88% 16.5 mph SW26.6 kmh SW 20.0 mph32.2 kmh 29.18 in988.1 mb 0.00 in0.0 mm 0.00 in0.0 mm 0.33 in8.4 mm
03:50 PM 41.4°F5.2°C 38.1°F3.4°C 88% 16.2 mph SW26.1 kmh SW 20.0 mph32.2 kmh 29.18 in988.1 mb 0.00 in0.0 mm 0.00 in0.0 mm 0.33 in8.4 mm
03:51 PM 41.4°F5.2°C 38.1°F3.4°C 88% 15.1 mph SW24.3 kmh SW 20.0 mph32.2 kmh 29.18 in988.1 mb 0.00 in0.0 mm 0.00 in0.0 mm 0.33 in8.4 mm
03:52 PM 41.3°F5.2°C 38.0°F3.3°C 88% 16.2 mph SW26.1 kmh SW 19.0 mph30.6 kmh 29.18 in988.1 mb 0.00 in0.0 mm 0.00 in0.0 mm 0.33 in8.4 mm
03:53 PM 41.3°F5.2°C 38.0°F3.3°C 88% 17.8 mph SW28.6 kmh SW 23.0 mph37.0 kmh 29.18 in988.1 mb 0.00 in0.0 mm 0.00 in0.0 mm 0.33 in8.4 mm
03:54 PM 41.4°F5.2°C 38.1°F3.4°C 88% 20.0 mph WSW32.2 kmh WSW 23.0 mph37.0 kmh 29.18 in988.1 mb 0.00 in0.0 mm 0.00 in0.0 mm 0.33 in8.4 mm
03:55 PM 41.4°F5.2°C 38.1°F3.4°C 88% 18.6 mph SW29.9 kmh SW 22.0 mph35.4 kmh 29.18 in988.1 mb 0.00 in0.0 mm 0.00 in0.0 mm 0.33 in8.4 mm
03:56 PM 41.4°F5.2°C 38.1°F3.4°C 88% 16.1 mph WSW25.9 kmh WSW 22.0 mph35.4 kmh 29.18 in988.1 mb 0.00 in0.0 mm 0.00 in0.0 mm 0.33 in8.4 mm
03:57 PM 41.4°F5.2°C 37.8°F3.2°C 87% 17.1 mph WSW27.5 kmh WSW 20.0 mph32.2 kmh 29.18 in988.1 mb 0.00 in0.0 mm 0.00 in0.0 mm 0.33 in8.4 mm
03:58 PM 41.4°F5.2°C 37.8°F3.2°C 87% 16.1 mph WSW25.9 kmh WSW 20.0 mph32.2 kmh 29.18 in988.1 mb 0.00 in0.0 mm 0.00 in0.0 mm 0.33 in8.4 mm
03:59 PM 41.3°F5.2°C 37.7°F3.2°C 87% 15.9 mph WSW25.6 kmh WSW 18.0 mph29.0 kmh 29.18 in988.1 mb 0.00 in0.0 mm 0.00 in0.0 mm 0.33 in8.4 mm
04:00 PM 41.4°F5.2°C 38.1°F3.4°C 88% 13.2 mph WSW21.2 kmh WSW 18.0 mph29.0 kmh 29.18 in988.1 mb 0.00 in0.0 mm 0.00 in0.0 mm 0.33 in8.4 mm
04:01 PM 41.3°F5.2°C 38.0°F3.3°C 88% 13.3 mph WSW21.4 kmh WSW 16.0 mph25.7 kmh 29.18 in988.1 mb 0.00 in0.0 mm 0.00 in0.0 mm 0.33 in8.4 mm
04:02 PM 41.3°F5.2°C 38.0°F3.3°C 88% 13.3 mph WSW21.4 kmh WSW 16.0 mph25.7 kmh 29.18 in988.1 mb 0.00 in0.0 mm 0.00 in0.0 mm 0.33 in8.4 mm
04:03 PM 41.3°F5.2°C 38.0°F3.3°C 88% 14.2 mph WSW22.9 kmh WSW 16.0 mph25.7 kmh 29.18 in988.1 mb 0.00 in0.0 mm 0.00 in0.0 mm 0.33 in8.4 mm
04:04 PM 41.3°F5.2°C 38.0°F3.3°C 88% 14.0 mph SW22.5 kmh SW 16.0 mph25.7 kmh 29.18 in988.1 mb 0.00 in0.0 mm 0.00 in0.0 mm 0.33 in8.4 mm
04:05 PM 41.3°F5.2°C 38.0°F3.3°C 88% 12.9 mph SW20.8 kmh SW 16.0 mph25.7 kmh 29.18 in988.1 mb 0.00 in0.0 mm 0.00 in0.0 mm 0.33 in8.4 mm
04:06 PM 41.3°F5.2°C 38.0°F3.3°C 88% 13.6 mph SW21.9 kmh SW 16.0 mph25.7 kmh 29.18 in988.1 mb 0.00 in0.0 mm 0.00 in0.0 mm 0.33 in8.4 mm
04:07 PM 41.2°F5.1°C 37.9°F3.3°C 88% 13.8 mph SW22.2 kmh SW 16.0 mph25.7 kmh 29.18 in988.1 mb 0.00 in0.0 mm 0.00 in0.0 mm 0.33 in8.4 mm
04:08 PM 41.2°F5.1°C 37.9°F3.3°C 88% 13.6 mph SW21.9 kmh SW 16.0 mph25.7 kmh 29.18 in988.1 mb 0.00 in0.0 mm 0.00 in0.0 mm 0.33 in8.4 mm
04:09 PM 41.1°F5.1°C 37.8°F3.2°C 88% 13.4 mph SW21.6 kmh SW 16.0 mph25.7 kmh 29.18 in988.1 mb 0.00 in0.0 mm 0.00 in0.0 mm 0.33 in8.4 mm
04:10 PM 41.1°F5.1°C 37.8°F3.2°C 88% 13.0 mph SW20.9 kmh SW 16.0 mph25.7 kmh 29.18 in988.1 mb 0.00 in0.0 mm 0.00 in0.0 mm 0.33 in8.4 mm
04:11 PM 41.1°F5.1°C 37.8°F3.2°C 88% 12.3 mph SW19.8 kmh SW 15.0 mph24.1 kmh 29.18 in988.1 mb 0.00 in0.0 mm 0.00 in0.0 mm 0.33 in8.4 mm
04:12 PM 41.1°F5.1°C 37.8°F3.2°C 88% 12.9 mph SW20.8 kmh SW 17.0 mph27.4 kmh 29.18 in988.1 mb 0.00 in0.0 mm 0.00 in0.0 mm 0.33 in8.4 mm
04:13 PM 41.2°F5.1°C 37.9°F3.3°C 88% 12.6 mph SW20.3 kmh SW 17.0 mph27.4 kmh 29.18 in988.1 mb 0.00 in0.0 mm 0.00 in0.0 mm 0.33 in8.4 mm
04:14 PM 41.2°F5.1°C 37.9°F3.3°C 88% 11.8 mph SW19.0 kmh SW 17.0 mph27.4 kmh 29.18 in988.1 mb 0.00 in0.0 mm 0.00 in0.0 mm 0.33 in8.4 mm
04:15 PM 41.2°F5.1°C 37.9°F3.3°C 88% 13.7 mph SW22.0 kmh SW 17.0 mph27.4 kmh 29.18 in988.1 mb 0.00 in0.0 mm 0.00 in0.0 mm 0.33 in8.4 mm
04:16 PM 41.3°F5.2°C 38.0°F3.3°C 88% 11.4 mph SW18.3 kmh SW 15.0 mph24.1 kmh 29.18 in988.1 mb 0.00 in0.0 mm 0.00 in0.0 mm 0.33 in8.4 mm
04:17 PM 41.3°F5.2°C 38.0°F3.3°C 88% 11.9 mph SW19.2 kmh SW 16.0 mph25.7 kmh 29.18 in988.1 mb 0.00 in0.0 mm 0.00 in0.0 mm 0.33 in8.4 mm
04:18 PM 41.3°F5.2°C 38.0°F3.3°C 88% 13.7 mph SW22.0 kmh SW 17.0 mph27.4 kmh 29.18 in988.1 mb 0.00 in0.0 mm 0.00 in0.0 mm 0.33 in8.4 mm
04:19 PM 41.3°F5.2°C 38.0°F3.3°C 88% 12.1 mph SW19.5 kmh SW 17.0 mph27.4 kmh 29.18 in988.1 mb 0.00 in0.0 mm 0.00 in0.0 mm 0.33 in8.4 mm
04:20 PM 41.3°F5.2°C 38.0°F3.3°C 88% 12.3 mph SW19.8 kmh SW 16.0 mph25.7 kmh 29.18 in988.1 mb 0.00 in0.0 mm 0.00 in0.0 mm 0.33 in8.4 mm
04:21 PM 41.4°F5.2°C 38.1°F3.4°C 88% 11.8 mph SW19.0 kmh SW 16.0 mph25.7 kmh 29.18 in988.1 mb 0.00 in0.0 mm 0.00 in0.0 mm 0.33 in8.4 mm
04:22 PM 41.3°F5.2°C 38.0°F3.3°C 88% 12.6 mph SW20.3 kmh SW 16.0 mph25.7 kmh 29.18 in988.1 mb 0.00 in0.0 mm 0.00 in0.0 mm 0.33 in8.4 mm
04:23 PM 41.4°F5.2°C 38.1°F3.4°C 88% 13.9 mph SW22.4 kmh SW 18.0 mph29.0 kmh 29.18 in988.1 mb 0.00 in0.0 mm 0.00 in0.0 mm 0.33 in8.4 mm
04:24 PM 41.5°F5.3°C 38.5°F3.6°C 89% 12.6 mph SW20.3 kmh SW 18.0 mph29.0 kmh 29.18 in988.1 mb 0.00 in0.0 mm 0.00 in0.0 mm 0.33 in8.4 mm
04:25 PM 41.5°F5.3°C 38.5°F3.6°C 89% 12.3 mph SW19.8 kmh SW 15.0 mph24.1 kmh 29.18 in988.1 mb 0.00 in0.0 mm 0.00 in0.0 mm 0.33 in8.4 mm
04:26 PM 41.4°F5.2°C 38.4°F3.6°C 89% 12.0 mph SW19.3 kmh SW 15.0 mph24.1 kmh 29.18 in988.1 mb 0.00 in0.0 mm 0.00 in0.0 mm 0.33 in8.4 mm
04:27 PM 41.5°F5.3°C 38.5°F3.6°C 89% 12.2 mph SW19.6 kmh SW 15.0 mph24.1 kmh 29.18 in988.1 mb 0.00 in0.0 mm 0.00 in0.0 mm 0.33 in8.4 mm
04:28 PM 41.5°F5.3°C 38.5°F3.6°C 89% 13.3 mph SW21.4 kmh SW 17.0 mph27.4 kmh 29.18 in988.1 mb 0.00 in0.0 mm 0.00 in0.0 mm 0.33 in8.4 mm
04:29 PM 41.5°F5.3°C 38.5°F3.6°C 89% 10.8 mph SW17.4 kmh SW 17.0 mph27.4 kmh 29.18 in988.1 mb 0.00 in0.0 mm 0.00 in0.0 mm 0.33 in8.4 mm
04:30 PM 41.4°F5.2°C 38.4°F3.6°C 89% 13.2 mph SW21.2 kmh SW 16.0 mph25.7 kmh 29.18 in988.1 mb 0.00 in0.0 mm 0.00 in0.0 mm 0.33 in8.4 mm
04:31 PM 41.5°F5.3°C 38.5°F3.6°C 89% 13.0 mph SW20.9 kmh SW 17.0 mph27.4 kmh 29.18 in988.1 mb 0.00 in0.0 mm 0.00 in0.0 mm 0.33 in8.4 mm
04:32 PM 41.6°F5.3°C 38.6°F3.7°C 89% 11.5 mph SW18.5 kmh SW 17.0 mph27.4 kmh 29.19 in988.5 mb 0.00 in0.0 mm 0.00 in0.0 mm 0.33 in8.4 mm
04:33 PM 41.5°F5.3°C 38.5°F3.6°C 89% 12.3 mph SW19.8 kmh SW 15.0 mph24.1 kmh 29.18 in988.1 mb 0.00 in0.0 mm 0.00 in0.0 mm 0.33 in8.4 mm
04:34 PM 41.6°F5.3°C 38.6°F3.7°C 89% 9.8 mph SW15.8 kmh SW 15.0 mph24.1 kmh 29.18 in988.1 mb 0.00 in0.0 mm 0.00 in0.0 mm 0.33 in8.4 mm
04:35 PM 41.6°F5.3°C 38.6°F3.7°C 89% 9.8 mph SW15.8 kmh SW 12.0 mph19.3 kmh 29.19 in988.5 mb 0.00 in0.0 mm 0.00 in0.0 mm 0.33 in8.4 mm
04:36 PM 41.6°F5.3°C 38.6°F3.7°C 89% 10.8 mph SW17.4 kmh SW 13.0 mph20.9 kmh 29.19 in988.5 mb 0.00 in0.0 mm 0.00 in0.0 mm 0.33 in8.4 mm
04:37 PM 41.7°F5.4°C 38.7°F3.7°C 89% 9.4 mph SW15.1 kmh SW 13.0 mph20.9 kmh 29.19 in988.5 mb 0.00 in0.0 mm 0.00 in0.0 mm 0.33 in8.4 mm
04:38 PM 41.6°F5.3°C 38.6°F3.7°C 89% 8.0 mph SW12.9 kmh SW 12.0 mph19.3 kmh 29.19 in988.5 mb 0.00 in0.0 mm 0.00 in0.0 mm 0.33 in8.4 mm
04:39 PM 41.6°F5.3°C 38.6°F3.7°C 89% 9.1 mph SW14.6 kmh SW 13.0 mph20.9 kmh 29.19 in988.5 mb 0.00 in0.0 mm 0.00 in0.0 mm 0.33 in8.4 mm
04:40 PM 41.6°F5.3°C 38.6°F3.7°C 89% 10.2 mph SW16.4 kmh SW 13.0 mph20.9 kmh 29.19 in988.5 mb 0.00 in0.0 mm 0.00 in0.0 mm 0.33 in8.4 mm
04:41 PM 41.6°F5.3°C 38.6°F3.7°C 89% 8.3 mph SW13.4 kmh SW 13.0 mph20.9 kmh 29.19 in988.5 mb 0.00 in0.0 mm 0.00 in0.0 mm 0.33 in8.4 mm
04:42 PM 41.5°F5.3°C 38.5°F3.6°C 89% 10.5 mph SW16.9 kmh SW 12.0 mph19.3 kmh 29.19 in988.5 mb 0.00 in0.0 mm 0.00 in0.0 mm 0.33 in8.4 mm
04:43 PM 41.6°F5.3°C 38.6°F3.7°C 89% 10.8 mph SW17.4 kmh SW 13.0 mph20.9 kmh 29.19 in988.5 mb 0.00 in0.0 mm 0.00 in0.0 mm 0.33 in8.4 mm
04:44 PM 41.6°F5.3°C 38.6°F3.7°C 89% 9.5 mph SW15.3 kmh SW 13.0 mph20.9 kmh 29.19 in988.5 mb 0.00 in0.0 mm 0.00 in0.0 mm 0.33 in8.4 mm
04:45 PM 41.5°F5.3°C 38.5°F3.6°C 89% 9.2 mph SW14.8 kmh SW 12.0 mph19.3 kmh 29.19 in988.5 mb 0.00 in0.0 mm 0.00 in0.0 mm 0.33 in8.4 mm
04:46 PM 41.5°F5.3°C 38.5°F3.6°C 89% 10.0 mph SW16.1 kmh SW 13.0 mph20.9 kmh 29.19 in988.5 mb 0.00 in0.0 mm 0.00 in0.0 mm 0.33 in8.4 mm
04:47 PM 41.5°F5.3°C 38.5°F3.6°C 89% 9.4 mph SW15.1 kmh SW 13.0 mph20.9 kmh 29.19 in988.5 mb 0.00 in0.0 mm 0.00 in0.0 mm 0.33 in8.4 mm
04:48 PM 41.5°F5.3°C 38.5°F3.6°C 89% 9.1 mph SW14.6 kmh SW 12.0 mph19.3 kmh 29.19 in988.5 mb 0.00 in0.0 mm 0.00 in0.0 mm 0.33 in8.4 mm
04:49 PM 41.4°F5.2°C 38.4°F3.6°C 89% 8.5 mph SW13.7 kmh SW 12.0 mph19.3 kmh 29.19 in988.5 mb 0.00 in0.0 mm 0.00 in0.0 mm 0.33 in8.4 mm
04:50 PM 41.4°F5.2°C 38.4°F3.6°C 89% 10.3 mph SW16.6 kmh SW 14.0 mph22.5 kmh 29.19 in988.5 mb 0.00 in0.0 mm 0.00 in0.0 mm 0.33 in8.4 mm
04:51 PM 41.4°F5.2°C 38.4°F3.6°C 89% 12.3 mph SW19.8 kmh SW 16.0 mph25.7 kmh 29.19 in988.5 mb 0.00 in0.0 mm 0.00 in0.0 mm 0.33 in8.4 mm
04:52 PM 41.4°F5.2°C 38.4°F3.6°C 89% 12.5 mph SW20.1 kmh SW 17.0 mph27.4 kmh 29.19 in988.5 mb 0.00 in0.0 mm 0.00 in0.0 mm 0.33 in8.4 mm
04:53 PM 41.4°F5.2°C 38.4°F3.6°C 89% 10.5 mph SW16.9 kmh SW 17.0 mph27.4 kmh 29.19 in988.5 mb 0.00 in0.0 mm 0.00 in0.0 mm 0.33 in8.4 mm
04:54 PM 41.3°F5.2°C 38.3°F3.5°C 89% 12.0 mph SW19.3 kmh SW 15.0 mph24.1 kmh 29.19 in988.5 mb 0.00 in0.0 mm 0.00 in0.0 mm 0.33 in8.4 mm
04:55 PM 41.3°F5.2°C 38.3°F3.5°C 89% 11.5 mph SW18.5 kmh SW 15.0 mph24.1 kmh 29.19 in988.5 mb 0.00 in0.0 mm 0.00 in0.0 mm 0.33 in8.4 mm
04:56 PM 41.4°F5.2°C 38.4°F3.6°C 89% 12.0 mph SW19.3 kmh SW 16.0 mph25.7 kmh 29.19 in988.5 mb 0.00 in0.0 mm 0.00 in0.0 mm 0.33 in8.4 mm
04:57 PM 41.3°F5.2°C 38.3°F3.5°C 89% 10.2 mph SW16.4 kmh SW 16.0 mph25.7 kmh 29.19 in988.5 mb 0.00 in0.0 mm 0.00 in0.0 mm 0.33 in8.4 mm
04:58 PM 41.3°F5.2°C 38.3°F3.5°C 89% 9.8 mph SW15.8 kmh SW 13.0 mph20.9 kmh 29.19 in988.5 mb 0.00 in0.0 mm 0.00 in0.0 mm 0.33 in8.4 mm
04:59 PM 41.2°F5.1°C 38.2°F3.4°C 89% 11.4 mph SW18.3 kmh SW 15.0 mph24.1 kmh 29.19 in988.5 mb 0.00 in0.0 mm 0.00 in0.0 mm 0.33 in8.4 mm
05:00 PM 41.2°F5.1°C 38.2°F3.4°C 89% 9.5 mph SW15.3 kmh SW 15.0 mph24.1 kmh 29.19 in988.5 mb 0.00 in0.0 mm 0.00 in0.0 mm 0.33 in8.4 mm
05:01 PM 41.2°F5.1°C 38.2°F3.4°C 89% 9.3 mph SW15.0 kmh SW 13.0 mph20.9 kmh 29.19 in988.5 mb 0.00 in0.0 mm 0.00 in0.0 mm 0.33 in8.4 mm
05:02 PM 41.2°F5.1°C 38.2°F3.4°C 89% 9.8 mph SW15.8 kmh SW 12.0 mph19.3 kmh 29.19 in988.5 mb 0.00 in0.0 mm 0.00 in0.0 mm 0.33 in8.4 mm
05:03 PM 41.1°F5.1°C 38.1°F3.4°C 89% 7.8 mph SW12.6 kmh SW 12.0 mph19.3 kmh 29.19 in988.5 mb 0.00 in0.0 mm 0.00 in0.0 mm 0.33 in8.4 mm
05:04 PM 41.1°F5.1°C 38.1°F3.4°C 89% 9.3 mph SW15.0 kmh SW 12.0 mph19.3 kmh 29.19 in988.5 mb 0.00 in0.0 mm 0.00 in0.0 mm 0.33 in8.4 mm
05:05 PM 41.1°F5.1°C 38.1°F3.4°C 89% 8.5 mph SW13.7 kmh SW 12.0 mph19.3 kmh 29.19 in988.5 mb 0.00 in0.0 mm 0.00 in0.0 mm 0.33 in8.4 mm
05:06 PM 41.1°F5.1°C 38.1°F3.4°C 89% 8.1 mph SW13.0 kmh SW 11.0 mph17.7 kmh 29.19 in988.5 mb 0.00 in0.0 mm 0.00 in0.0 mm 0.33 in8.4 mm
05:07 PM 41.0°F5.0°C 38.0°F3.3°C 89% 9.5 mph SW15.3 kmh SW 13.0 mph20.9 kmh 29.19 in988.5 mb 0.00 in0.0 mm 0.00 in0.0 mm 0.33 in8.4 mm
05:08 PM 41.0°F5.0°C 38.0°F3.3°C 89% 11.2 mph SW18.0 kmh SW 14.0 mph22.5 kmh 29.19 in988.5 mb 0.00 in0.0 mm 0.00 in0.0 mm 0.33 in8.4 mm
05:09 PM 41.0°F5.0°C 38.0°F3.3°C 89% 10.2 mph SW16.4 kmh SW 14.0 mph22.5 kmh 29.19 in988.5 mb 0.00 in0.0 mm 0.00 in0.0 mm 0.33 in8.4 mm
05:10 PM 41.0°F5.0°C 38.0°F3.3°C 89% 9.4 mph SW15.1 kmh SW 13.0 mph20.9 kmh 29.19 in988.5 mb 0.00 in0.0 mm 0.00 in0.0 mm 0.33 in8.4 mm
05:11 PM 40.9°F4.9°C 37.9°F3.3°C 89% 11.0 mph SW17.7 kmh SW 14.0 mph22.5 kmh 29.19 in988.5 mb 0.00 in0.0 mm 0.00 in0.0 mm 0.33 in8.4 mm
05:12 PM 40.9°F4.9°C 37.9°F3.3°C 89% 9.3 mph SW15.0 kmh SW 14.0 mph22.5 kmh 29.19 in988.5 mb 0.00 in0.0 mm 0.00 in0.0 mm 0.33 in8.4 mm
05:13 PM 40.9°F4.9°C 37.9°F3.3°C 89% 10.6 mph SW17.1 kmh SW 14.0 mph22.5 kmh 29.19 in988.5 mb 0.00 in0.0 mm 0.00 in0.0 mm 0.33 in8.4 mm
05:14 PM 40.9°F4.9°C 37.9°F3.3°C 89% 10.2 mph SW16.4 kmh SW 14.0 mph22.5 kmh 29.19 in988.5 mb 0.00 in0.0 mm 0.00 in0.0 mm 0.33 in8.4 mm
05:15 PM 40.8°F4.9°C 37.8°F3.2°C 89% 9.2 mph SW14.8 kmh SW 13.0 mph20.9 kmh 29.19 in988.5 mb 0.00 in0.0 mm 0.00 in0.0 mm 0.33 in8.4 mm
05:16 PM 40.7°F4.8°C 37.7°F3.2°C 89% 11.0 mph SW17.7 kmh SW 15.0 mph24.1 kmh 29.19 in988.5 mb 0.00 in0.0 mm 0.00 in0.0 mm 0.33 in8.4 mm
05:17 PM 40.8°F4.9°C 37.8°F3.2°C 89% 9.6 mph SW15.4 kmh SW 15.0 mph24.1 kmh 29.19 in988.5 mb 0.00 in0.0 mm 0.00 in0.0 mm 0.33 in8.4 mm
05:18 PM 40.7°F4.8°C 37.7°F3.2°C 89% 10.0 mph SW16.1 kmh SW 13.0 mph20.9 kmh 29.19 in988.5 mb 0.00 in0.0 mm 0.00 in0.0 mm 0.33 in8.4 mm
05:19 PM 40.7°F4.8°C 37.7°F3.2°C 89% 8.9 mph SW14.3 kmh SW 13.0 mph20.9 kmh 29.19 in988.5 mb 0.00 in0.0 mm 0.00 in0.0 mm 0.33 in8.4 mm
05:20 PM 40.7°F4.8°C 37.7°F3.2°C 89% 10.0 mph SW16.1 kmh SW 13.0 mph20.9 kmh 29.20 in988.8 mb 0.00 in0.0 mm 0.00 in0.0 mm 0.33 in8.4 mm
05:21 PM 40.7°F4.8°C 37.7°F3.2°C 89% 10.8 mph SW17.4 kmh SW 14.0 mph22.5 kmh 29.19 in988.5 mb 0.00 in0.0 mm 0.00 in0.0 mm 0.33 in8.4 mm
05:22 PM 40.7°F4.8°C 38.0°F3.3°C 90% 9.9 mph SW15.9 kmh SW 14.0 mph22.5 kmh 29.19 in988.5 mb 0.00 in0.0 mm 0.00 in0.0 mm 0.33 in8.4 mm
05:23 PM 40.7°F4.8°C 38.0°F3.3°C 90% 12.8 mph SW20.6 kmh SW 15.0 mph24.1 kmh 29.19 in988.5 mb 0.00 in0.0 mm 0.00 in0.0 mm 0.33 in8.4 mm
05:24 PM 40.7°F4.8°C 38.0°F3.3°C 90% 10.3 mph SW16.6 kmh SW 15.0 mph24.1 kmh 29.20 in988.8 mb 0.00 in0.0 mm 0.00 in0.0 mm 0.33 in8.4 mm
05:25 PM 40.7°F4.8°C 38.0°F3.3°C 90% 11.9 mph SW19.2 kmh SW 15.0 mph24.1 kmh 29.20 in988.8 mb 0.00 in0.0 mm 0.00 in0.0 mm 0.33 in8.4 mm
05:26 PM 40.7°F4.8°C 38.0°F3.3°C 90% 11.0 mph SW17.7 kmh SW 15.0 mph24.1 kmh 29.20 in988.8 mb 0.00 in0.0 mm 0.00 in0.0 mm 0.33 in8.4 mm
05:27 PM 40.7°F4.8°C 38.0°F3.3°C 90% 11.4 mph SW18.3 kmh SW 15.0 mph24.1 kmh 29.20 in988.8 mb 0.00 in0.0 mm 0.00 in0.0 mm 0.33 in8.4 mm
05:28 PM 40.7°F4.8°C 38.0°F3.3°C 90% 11.6 mph SW18.7 kmh SW 15.0 mph24.1 kmh 29.20 in988.8 mb 0.00 in0.0 mm 0.00 in0.0 mm 0.33 in8.4 mm
05:29 PM 40.7°F4.8°C 38.0°F3.3°C 90% 13.6 mph SW21.9 kmh SW 16.0 mph25.7 kmh 29.20 in988.8 mb 0.00 in0.0 mm 0.00 in0.0 mm 0.33 in8.4 mm
05:30 PM 40.7°F4.8°C 37.7°F3.2°C 89% 14.0 mph SW22.5 kmh SW 16.0 mph25.7 kmh 29.20 in988.8 mb 0.00 in0.0 mm 0.00 in0.0 mm 0.33 in8.4 mm
05:31 PM 40.7°F4.8°C 37.7°F3.2°C 89% 14.2 mph SW22.9 kmh SW 16.0 mph25.7 kmh 29.20 in988.8 mb 0.00 in0.0 mm 0.00 in0.0 mm 0.33 in8.4 mm
05:32 PM 40.7°F4.8°C 38.0°F3.3°C 90% 13.2 mph SW21.2 kmh SW 16.0 mph25.7 kmh 29.20 in988.8 mb 0.00 in0.0 mm 0.00 in0.0 mm 0.33 in8.4 mm
05:33 PM 40.7°F4.8°C 38.0°F3.3°C 90% 14.3 mph SW23.0 kmh SW 17.0 mph27.4 kmh 29.20 in988.8 mb 0.00 in0.0 mm 0.00 in0.0 mm 0.33 in8.4 mm
05:34 PM 40.7°F4.8°C 38.0°F3.3°C 90% 14.1 mph SW22.7 kmh SW 17.0 mph27.4 kmh 29.19 in988.5 mb 0.00 in0.0 mm 0.00 in0.0 mm 0.33 in8.4 mm
05:35 PM 40.6°F4.8°C 37.6°F3.1°C 89% 13.1 mph SW21.1 kmh SW 17.0 mph27.4 kmh 29.20 in988.8 mb 0.00 in0.0 mm 0.00 in0.0 mm 0.33 in8.4 mm
05:36 PM 40.6°F4.8°C 37.6°F3.1°C 89% 14.4 mph SW23.2 kmh SW 16.0 mph25.7 kmh 29.20 in988.8 mb 0.00 in0.0 mm 0.00 in0.0 mm 0.33 in8.4 mm
05:37 PM 40.6°F4.8°C 37.6°F3.1°C 89% 14.5 mph SW23.3 kmh SW 17.0 mph27.4 kmh 29.20 in988.8 mb 0.00 in0.0 mm 0.00 in0.0 mm 0.33 in8.4 mm
05:38 PM 40.6°F4.8°C 37.6°F3.1°C 89% 13.8 mph SW22.2 kmh SW 17.0 mph27.4 kmh 29.19 in988.5 mb 0.00 in0.0 mm 0.00 in0.0 mm 0.33 in8.4 mm
05:39 PM 40.6°F4.8°C 37.6°F3.1°C 89% 13.4 mph SW21.6 kmh SW 17.0 mph27.4 kmh 29.20 in988.8 mb 0.00 in0.0 mm 0.00 in0.0 mm 0.33 in8.4 mm
05:40 PM 40.6°F4.8°C 37.9°F3.3°C 90% 13.6 mph SW21.9 kmh SW 17.0 mph27.4 kmh 29.20 in988.8 mb 0.00 in0.0 mm 0.00 in0.0 mm 0.33 in8.4 mm
05:41 PM 40.6°F4.8°C 37.9°F3.3°C 90% 13.8 mph SW22.2 kmh SW 16.0 mph25.7 kmh 29.20 in988.8 mb 0.00 in0.0 mm 0.00 in0.0 mm 0.33 in8.4 mm
05:42 PM 40.6°F4.8°C 37.6°F3.1°C 89% 13.2 mph SW21.2 kmh SW 16.0 mph25.7 kmh 29.20 in988.8 mb 0.00 in0.0 mm 0.00 in0.0 mm 0.33 in8.4 mm
05:43 PM 40.7°F4.8°C 37.7°F3.2°C 89% 14.0 mph SW22.5 kmh SW 16.0 mph25.7 kmh 29.20 in988.8 mb 0.00 in0.0 mm 0.00 in0.0 mm 0.33 in8.4 mm
05:44 PM 40.7°F4.8°C 37.7°F3.2°C 89% 13.6 mph SW21.9 kmh SW 16.0 mph25.7 kmh 29.20 in988.8 mb 0.00 in0.0 mm 0.00 in0.0 mm 0.33 in8.4 mm
05:45 PM 40.7°F4.8°C 37.7°F3.2°C 89% 13.7 mph SW22.0 kmh SW 17.0 mph27.4 kmh 29.20 in988.8 mb 0.00 in0.0 mm 0.00 in0.0 mm 0.33 in8.4 mm
05:46 PM 40.7°F4.8°C 37.7°F3.2°C 89% 13.7 mph SW22.0 kmh SW 17.0 mph27.4 kmh 29.20 in988.8 mb 0.00 in0.0 mm 0.00 in0.0 mm 0.33 in8.4 mm
05:47 PM 40.7°F4.8°C 37.7°F3.2°C 89% 12.7 mph SW20.4 kmh SW 17.0 mph27.4 kmh 29.20 in988.8 mb 0.00 in0.0 mm 0.00 in0.0 mm 0.33 in8.4 mm
05:48 PM 40.7°F4.8°C 37.7°F3.2°C 89% 13.6 mph SW21.9 kmh SW 17.0 mph27.4 kmh 29.20 in988.8 mb 0.00 in0.0 mm 0.00 in0.0 mm 0.33 in8.4 mm
05:49 PM 40.7°F4.8°C 37.7°F3.2°C 89% 10.7 mph SW17.2 kmh SW 17.0 mph27.4 kmh 29.20 in988.8 mb 0.00 in0.0 mm 0.00 in0.0 mm 0.33 in8.4 mm
05:50 PM 40.6°F4.8°C 37.6°F3.1°C 89% 9.0 mph SW14.5 kmh SW 14.0 mph22.5 kmh 29.20 in988.8 mb 0.00 in0.0 mm 0.00 in0.0 mm 0.33 in8.4 mm
05:51 PM 40.6°F4.8°C 37.6°F3.1°C 89% 11.6 mph SW18.7 kmh SW 16.0 mph25.7 kmh 29.20 in988.8 mb 0.00 in0.0 mm 0.00 in0.0 mm 0.33 in8.4 mm
05:52 PM 40.6°F4.8°C 37.6°F3.1°C 89% 9.6 mph SW15.4 kmh SW 16.0 mph25.7 kmh 29.20 in988.8 mb 0.00 in0.0 mm 0.00 in0.0 mm 0.33 in8.4 mm
05:53 PM 40.5°F4.7°C 37.5°F3.1°C 89% 11.1 mph SW17.9 kmh SW 14.0 mph22.5 kmh 29.20 in988.8 mb 0.00 in0.0 mm 0.00 in0.0 mm 0.33 in8.4 mm
05:54 PM 40.5°F4.7°C 37.5°F3.1°C 89% 8.6 mph SW13.8 kmh SW 14.0 mph22.5 kmh 29.20 in988.8 mb 0.00 in0.0 mm 0.00 in0.0 mm 0.33 in8.4 mm
05:55 PM 40.5°F4.7°C 37.5°F3.1°C 89% 9.8 mph SW15.8 kmh SW 12.0 mph19.3 kmh 29.20 in988.8 mb 0.00 in0.0 mm 0.00 in0.0 mm 0.33 in8.4 mm
05:56 PM 40.5°F4.7°C 37.5°F3.1°C 89% 9.2 mph SW14.8 kmh SW 12.0 mph19.3 kmh 29.20 in988.8 mb 0.00 in0.0 mm 0.00 in0.0 mm 0.33 in8.4 mm
05:57 PM 40.5°F4.7°C 37.5°F3.1°C 89% 9.8 mph SW15.8 kmh SW 13.0 mph20.9 kmh 29.20 in988.8 mb 0.00 in0.0 mm 0.00 in0.0 mm 0.33 in8.4 mm
05:58 PM 40.4°F4.7°C 37.7°F3.2°C 90% 9.1 mph SW14.6 kmh SW 13.0 mph20.9 kmh 29.20 in988.8 mb 0.00 in0.0 mm 0.00 in0.0 mm 0.33 in8.4 mm
05:59 PM 40.4°F4.7°C 37.7°F3.2°C 90% 8.1 mph SW13.0 kmh SW 12.0 mph19.3 kmh 29.20 in988.8 mb 0.00 in0.0 mm 0.00 in0.0 mm 0.33 in8.4 mm
06:00 PM 40.4°F4.7°C 37.7°F3.2°C 90% 9.9 mph SW15.9 kmh SW 13.0 mph20.9 kmh 29.20 in988.8 mb 0.00 in0.0 mm 0.00 in0.0 mm 0.33 in8.4 mm
06:01 PM 40.4°F4.7°C 37.7°F3.2°C 90% 8.3 mph SW13.4 kmh SW 13.0 mph20.9 kmh 29.20 in988.8 mb 0.00 in0.0 mm 0.00 in0.0 mm 0.33 in8.4 mm
06:02 PM 40.3°F4.6°C 37.6°F3.1°C 90% 7.4 mph SW11.9 kmh SW 11.0 mph17.7 kmh 29.20 in988.8 mb 0.00 in0.0 mm 0.00 in0.0 mm 0.33 in8.4 mm
06:03 PM 40.3°F4.6°C 37.6°F3.1°C 90% 11.4 mph SW18.3 kmh SW 13.0 mph20.9 kmh 29.20 in988.8 mb 0.00 in0.0 mm 0.00 in0.0 mm 0.33 in8.4 mm
06:04 PM 40.3°F4.6°C 37.6°F3.1°C 90% 10.1 mph SW16.3 kmh SW 13.0 mph20.9 kmh 29.20 in988.8 mb 0.00 in0.0 mm 0.00 in0.0 mm 0.33 in8.4 mm
06:05 PM 40.3°F4.6°C 37.6°F3.1°C 90% 10.9 mph SW17.5 kmh SW 14.0 mph22.5 kmh 29.20 in988.8 mb 0.00 in0.0 mm 0.00 in0.0 mm 0.33 in8.4 mm
06:06 PM 40.3°F4.6°C 37.6°F3.1°C 90% 10.5 mph SW16.9 kmh SW 15.0 mph24.1 kmh 29.20 in988.8 mb 0.00 in0.0 mm 0.00 in0.0 mm 0.33 in8.4 mm
06:07 PM 40.3°F4.6°C 37.6°F3.1°C 90% 10.5 mph SW16.9 kmh SW 15.0 mph24.1 kmh 29.20 in988.8 mb 0.00 in0.0 mm 0.00 in0.0 mm 0.33 in8.4 mm
06:08 PM 40.3°F4.6°C 37.6°F3.1°C 90% 9.3 mph SW15.0 kmh SW 13.0 mph20.9 kmh 29.20 in988.8 mb 0.00 in0.0 mm 0.00 in0.0 mm 0.33 in8.4 mm
06:09 PM 40.3°F4.6°C 37.6°F3.1°C 90% 9.5 mph SW15.3 kmh SW 13.0 mph20.9 kmh 29.20 in988.8 mb 0.00 in0.0 mm 0.00 in0.0 mm 0.33 in8.4 mm
06:10 PM 40.3°F4.6°C 37.6°F3.1°C 90% 10.3 mph SW16.6 kmh SW 14.0 mph22.5 kmh 29.20 in988.8 mb 0.00 in0.0 mm 0.00 in0.0 mm 0.33 in8.4 mm
06:11 PM 40.3°F4.6°C 37.6°F3.1°C 90% 11.1 mph SW17.9 kmh SW 14.0 mph22.5 kmh 29.20 in988.8 mb 0.00 in0.0 mm 0.00 in0.0 mm 0.33 in8.4 mm
06:12 PM 40.3°F4.6°C 37.6°F3.1°C 90% 12.3 mph SW19.8 kmh SW 15.0 mph24.1 kmh 29.20 in988.8 mb 0.00 in0.0 mm 0.00 in0.0 mm 0.33 in8.4 mm
06:13 PM 40.3°F4.6°C 37.6°F3.1°C 90% 12.1 mph SW19.5 kmh SW 15.0 mph24.1 kmh 29.20 in988.8 mb 0.00 in0.0 mm 0.00 in0.0 mm 0.33 in8.4 mm
06:14 PM 40.4°F4.7°C 37.7°F3.2°C 90% 10.9 mph SW17.5 kmh SW 15.0 mph24.1 kmh 29.20 in988.8 mb 0.00 in0.0 mm 0.00 in0.0 mm 0.33 in8.4 mm
06:15 PM 40.4°F4.7°C 37.7°F3.2°C 90% 10.7 mph SW17.2 kmh SW 14.0 mph22.5 kmh 29.20 in988.8 mb 0.00 in0.0 mm 0.00 in0.0 mm 0.33 in8.4 mm
06:16 PM 40.4°F4.7°C 37.7°F3.2°C 90% 9.7 mph SW15.6 kmh SW 14.0 mph22.5 kmh 29.20 in988.8 mb 0.00 in0.0 mm 0.00 in0.0 mm 0.33 in8.4 mm
06:17 PM 40.4°F4.7°C 37.7°F3.2°C 90% 11.8 mph SW19.0 kmh SW 15.0 mph24.1 kmh 29.20 in988.8 mb 0.00 in0.0 mm 0.00 in0.0 mm 0.33 in8.4 mm
06:18 PM 40.5°F4.7°C 37.8°F3.2°C 90% 10.2 mph SW16.4 kmh SW 15.0 mph24.1 kmh 29.20 in988.8 mb 0.00 in0.0 mm 0.00 in0.0 mm 0.33 in8.4 mm
06:19 PM 40.4°F4.7°C 37.7°F3.2°C 90% 11.3 mph SW18.2 kmh SW 14.0 mph22.5 kmh 29.21 in989.2 mb 0.00 in0.0 mm 0.00 in0.0 mm 0.33 in8.4 mm
06:20 PM 40.4°F4.7°C 37.7°F3.2°C 90% 10.3 mph SW16.6 kmh SW 14.0 mph22.5 kmh 29.21 in989.2 mb 0.00 in0.0 mm 0.00 in0.0 mm 0.33 in8.4 mm
06:21 PM 40.4°F4.7°C 37.7°F3.2°C 90% 12.5 mph SW20.1 kmh SW 15.0 mph24.1 kmh 29.21 in989.2 mb 0.00 in0.0 mm 0.00 in0.0 mm 0.33 in8.4 mm
06:22 PM 40.5°F4.7°C 37.8°F3.2°C 90% 10.8 mph SW17.4 kmh SW 15.0 mph24.1 kmh 29.21 in989.2 mb 0.00 in0.0 mm 0.00 in0.0 mm 0.33 in8.4 mm
06:23 PM 40.5°F4.7°C 37.8°F3.2°C 90% 10.8 mph SW17.4 kmh SW 15.0 mph24.1 kmh 29.21 in989.2 mb 0.00 in0.0 mm 0.00 in0.0 mm 0.33 in8.4 mm
06:24 PM 40.5°F4.7°C 37.5°F3.1°C 89% 10.0 mph SW16.1 kmh SW 14.0 mph22.5 kmh 29.21 in989.2 mb 0.00 in0.0 mm 0.00 in0.0 mm 0.33 in8.4 mm
06:25 PM 40.5°F4.7°C 37.5°F3.1°C 89% 9.7 mph SW15.6 kmh SW 13.0 mph20.9 kmh 29.21 in989.2 mb 0.00 in0.0 mm 0.00 in0.0 mm 0.33 in8.4 mm
06:26 PM 40.5°F4.7°C 37.5°F3.1°C 89% 10.5 mph SW16.9 kmh SW 14.0 mph22.5 kmh 29.21 in989.2 mb 0.00 in0.0 mm 0.00 in0.0 mm 0.33 in8.4 mm
06:27 PM 40.5°F4.7°C 37.5°F3.1°C 89% 12.0 mph SW19.3 kmh SW 14.0 mph22.5 kmh 29.21 in989.2 mb 0.00 in0.0 mm 0.00 in0.0 mm 0.33 in8.4 mm
06:28 PM 40.5°F4.7°C 37.5°F3.1°C 89% 9.9 mph SW15.9 kmh SW 14.0 mph22.5 kmh 29.21 in989.2 mb 0.00 in0.0 mm 0.00 in0.0 mm 0.33 in8.4 mm
06:29 PM 40.5°F4.7°C 37.5°F3.1°C 89% 12.3 mph SW19.8 kmh SW 15.0 mph24.1 kmh 29.21 in989.2 mb 0.00 in0.0 mm 0.00 in0.0 mm 0.33 in8.4 mm
06:30 PM 40.5°F4.7°C 37.5°F3.1°C 89% 8.9 mph SW14.3 kmh SW 15.0 mph24.1 kmh 29.21 in989.2 mb 0.00 in0.0 mm 0.00 in0.0 mm 0.33 in8.4 mm
06:31 PM 40.5°F4.7°C 37.5°F3.1°C 89% 8.1 mph SW13.0 kmh SW 11.0 mph17.7 kmh 29.21 in989.2 mb 0.00 in0.0 mm 0.00 in0.0 mm 0.33 in8.4 mm
06:32 PM 40.5°F4.7°C 37.5°F3.1°C 89% 6.9 mph SW11.1 kmh SW 11.0 mph17.7 kmh 29.21 in989.2 mb 0.00 in0.0 mm 0.00 in0.0 mm 0.33 in8.4 mm
06:33 PM 40.5°F4.7°C 37.5°F3.1°C 89% 8.1 mph SW13.0 kmh SW 10.0 mph16.1 kmh 29.21 in989.2 mb 0.00 in0.0 mm 0.00 in0.0 mm 0.33 in8.4 mm
06:34 PM 40.4°F4.7°C 37.4°F3.0°C 89% 8.4 mph SW13.5 kmh SW 10.0 mph16.1 kmh 29.21 in989.2 mb 0.00 in0.0 mm 0.00 in0.0 mm 0.33 in8.4 mm
06:35 PM 40.4°F4.7°C 37.4°F3.0°C 89% 9.1 mph SSW14.6 kmh SSW 11.0 mph17.7 kmh 29.21 in989.2 mb 0.00 in0.0 mm 0.00 in0.0 mm 0.33 in8.4 mm
06:36 PM 40.4°F4.7°C 37.4°F3.0°C 89% 8.5 mph SSW13.7 kmh SSW 14.0 mph22.5 kmh 29.21 in989.2 mb 0.00 in0.0 mm 0.00 in0.0 mm 0.33 in8.4 mm
06:37 PM 40.4°F4.7°C 37.4°F3.0°C 89% 8.0 mph SSW12.9 kmh SSW 14.0 mph22.5 kmh 29.21 in989.2 mb 0.00 in0.0 mm 0.00 in0.0 mm 0.33 in8.4 mm
06:38 PM 40.4°F4.7°C 37.7°F3.2°C 90% 7.4 mph SSW11.9 kmh SSW 11.0 mph17.7 kmh 29.21 in989.2 mb 0.00 in0.0 mm 0.00 in0.0 mm 0.33 in8.4 mm
06:39 PM 40.4°F4.7°C 37.7°F3.2°C 90% 8.3 mph SSW13.4 kmh SSW 10.0 mph16.1 kmh 29.21 in989.2 mb 0.00 in0.0 mm 0.00 in0.0 mm 0.33 in8.4 mm
06:40 PM 40.3°F4.6°C 37.6°F3.1°C 90% 8.2 mph SSW13.2 kmh SSW 11.0 mph17.7 kmh 29.21 in989.2 mb 0.00 in0.0 mm 0.00 in0.0 mm 0.33 in8.4 mm
06:41 PM 40.2°F4.6°C 37.5°F3.1°C 90% 9.2 mph SSW14.8 kmh SSW 12.0 mph19.3 kmh 29.21 in989.2 mb 0.00 in0.0 mm 0.00 in0.0 mm 0.33 in8.4 mm
06:42 PM 40.2°F4.6°C 37.5°F3.1°C 90% 8.5 mph SSW13.7 kmh SSW 12.0 mph19.3 kmh 29.21 in989.2 mb 0.00 in0.0 mm 0.00 in0.0 mm 0.33 in8.4 mm
06:43 PM 40.2°F4.6°C 37.5°F3.1°C 90% 7.5 mph SSW12.1 kmh SSW 11.0 mph17.7 kmh 29.21 in989.2 mb 0.00 in0.0 mm 0.00 in0.0 mm 0.33 in8.4 mm
06:44 PM 40.2°F4.6°C 37.5°F3.1°C 90% 8.2 mph SSW13.2 kmh SSW 13.0 mph20.9 kmh 29.21 in989.2 mb 0.00 in0.0 mm 0.00 in0.0 mm 0.33 in8.4 mm
06:45 PM 40.2°F4.6°C 37.5°F3.1°C 90% 10.3 mph SSW16.6 kmh SSW 13.0 mph20.9 kmh 29.21 in989.2 mb 0.00 in0.0 mm 0.00 in0.0 mm 0.33 in8.4 mm
06:46 PM 40.2°F4.6°C 37.5°F3.1°C 90% 8.8 mph SSW14.2 kmh SSW 13.0 mph20.9 kmh 29.21 in989.2 mb 0.00 in0.0 mm 0.00 in0.0 mm 0.33 in8.4 mm
06:47 PM 40.2°F4.6°C 37.5°F3.1°C 90% 8.0 mph SW12.9 kmh SW 11.0 mph17.7 kmh 29.21 in989.2 mb 0.00 in0.0 mm 0.00 in0.0 mm 0.33 in8.4 mm
06:48 PM 40.2°F4.6°C 37.5°F3.1°C 90% 7.6 mph SSW12.2 kmh SSW 11.0 mph17.7 kmh 29.21 in989.2 mb 0.00 in0.0 mm 0.00 in0.0 mm 0.33 in8.4 mm
06:49 PM 40.1°F4.5°C 37.4°F3.0°C 90% 8.2 mph SSW13.2 kmh SSW 11.0 mph17.7 kmh 29.21 in989.2 mb 0.00 in0.0 mm 0.00 in0.0 mm 0.33 in8.4 mm
06:50 PM 40.2°F4.6°C 37.5°F3.1°C 90% 8.1 mph SSW13.0 kmh SSW 11.0 mph17.7 kmh 29.21 in989.2 mb 0.00 in0.0 mm 0.00 in0.0 mm 0.33 in8.4 mm
06:51 PM 40.1°F4.5°C 37.4°F3.0°C 90% 9.2 mph SSW14.8 kmh SSW 11.0 mph17.7 kmh 29.21 in989.2 mb 0.00 in0.0 mm 0.00 in0.0 mm 0.33 in8.4 mm
06:52 PM 40.1°F4.5°C 37.4°F3.0°C 90% 7.9 mph SSW12.7 kmh SSW 12.0 mph19.3 kmh 29.21 in989.2 mb 0.00 in0.0 mm 0.00 in0.0 mm 0.33 in8.4 mm
06:53 PM 40.1°F4.5°C 37.4°F3.0°C 90% 8.8 mph SSW14.2 kmh SSW 12.0 mph19.3 kmh 29.21 in989.2 mb 0.00 in0.0 mm 0.00 in0.0 mm 0.33 in8.4 mm
06:54 PM 40.1°F4.5°C 37.4°F3.0°C 90% 7.8 mph S12.6 kmh S 12.0 mph19.3 kmh 29.21 in989.2 mb 0.00 in0.0 mm 0.00 in0.0 mm 0.33 in8.4 mm
06:55 PM 40.1°F4.5°C 37.4°F3.0°C 90% 8.8 mph S14.2 kmh S 12.0 mph19.3 kmh 29.21 in989.2 mb 0.00 in0.0 mm 0.00 in0.0 mm 0.33 in8.4 mm
06:56 PM 40.0°F4.4°C 37.3°F2.9°C 90% 7.2 mph S11.6 kmh S 11.0 mph17.7 kmh 29.21 in989.2 mb 0.00 in0.0 mm 0.00 in0.0 mm 0.33 in8.4 mm
06:57 PM 40.0°F4.4°C 37.3°F2.9°C 90% 8.4 mph SSW13.5 kmh SSW 12.0 mph19.3 kmh 29.22 in989.5 mb 0.00 in0.0 mm 0.00 in0.0 mm 0.33 in8.4 mm
06:58 PM 39.9°F4.4°C 37.2°F2.9°C 90% 7.4 mph SSW11.9 kmh SSW 12.0 mph19.3 kmh 29.22 in989.5 mb 0.00 in0.0 mm 0.00 in0.0 mm 0.33 in8.4 mm
06:59 PM 40.0°F4.4°C 37.3°F2.9°C 90% 7.6 mph SSW12.2 kmh SSW 10.0 mph16.1 kmh 29.22 in989.5 mb 0.00 in0.0 mm 0.00 in0.0 mm 0.33 in8.4 mm
07:00 PM 40.0°F4.4°C 37.3°F2.9°C 90% 9.0 mph S14.5 kmh S 13.0 mph20.9 kmh 29.22 in989.5 mb 0.00 in0.0 mm 0.00 in0.0 mm 0.33 in8.4 mm
07:01 PM 40.0°F4.4°C 37.3°F2.9°C 90% 9.2 mph S14.8 kmh S 13.0 mph20.9 kmh 29.22 in989.5 mb 0.00 in0.0 mm 0.00 in0.0 mm 0.33 in8.4 mm
07:02 PM 40.0°F4.4°C 37.3°F2.9°C 90% 7.6 mph S12.2 kmh S 12.0 mph19.3 kmh 29.22 in989.5 mb 0.00 in0.0 mm 0.00 in0.0 mm 0.33 in8.4 mm
07:03 PM 40.1°F4.5°C 37.4°F3.0°C 90% 8.7 mph SSW14.0 kmh SSW 12.0 mph19.3 kmh 29.22 in989.5 mb 0.00 in0.0 mm 0.00 in0.0 mm 0.33 in8.4 mm
07:04 PM 40.1°F4.5°C 37.4°F3.0°C 90% 8.8 mph S14.2 kmh S 12.0 mph19.3 kmh 29.22 in989.5 mb 0.00 in0.0 mm 0.00 in0.0 mm 0.33 in8.4 mm
07:05 PM 40.1°F4.5°C 37.4°F3.0°C 90% 8.2 mph SSW13.2 kmh SSW 12.0 mph19.3 kmh 29.22 in989.5 mb 0.00 in0.0 mm 0.00 in0.0 mm 0.33 in8.4 mm
07:06 PM 40.1°F4.5°C 37.4°F3.0°C 90% 7.9 mph S12.7 kmh S 12.0 mph19.3 kmh 29.22 in989.5 mb 0.00 in0.0 mm 0.00 in0.0 mm 0.33 in8.4 mm
07:07 PM 40.1°F4.5°C 37.4°F3.0°C 90% 9.0 mph SSW14.5 kmh SSW 11.0 mph17.7 kmh 29.22 in989.5 mb 0.00 in0.0 mm 0.00 in0.0 mm 0.33 in8.4 mm
07:08 PM 40.0°F4.4°C 37.3°F2.9°C 90% 7.3 mph SSW11.7 kmh SSW 11.0 mph17.7 kmh 29.22 in989.5 mb 0.00 in0.0 mm 0.00 in0.0 mm 0.33 in8.4 mm
07:09 PM 40.0°F4.4°C 37.3°F2.9°C 90% 7.1 mph S11.4 kmh S 10.0 mph16.1 kmh 29.22 in989.5 mb 0.00 in0.0 mm 0.00 in0.0 mm 0.33 in8.4 mm
07:10 PM 40.0°F4.4°C 37.3°F2.9°C 90% 8.9 mph S14.3 kmh S 12.0 mph19.3 kmh 29.22 in989.5 mb 0.00 in0.0 mm 0.00 in0.0 mm 0.33 in8.4 mm
07:11 PM 40.0°F4.4°C 37.3°F2.9°C 90% 9.4 mph SSW15.1 kmh SSW 13.0 mph20.9 kmh 29.22 in989.5 mb 0.00 in0.0 mm 0.00 in0.0 mm 0.33 in8.4 mm
07:12 PM 40.0°F4.4°C 37.3°F2.9°C 90% 8.5 mph SSW13.7 kmh SSW 13.0 mph20.9 kmh 29.22 in989.5 mb 0.00 in0.0 mm 0.00 in0.0 mm 0.33 in8.4 mm
07:13 PM 40.0°F4.4°C 37.3°F2.9°C 90% 7.7 mph SSW12.4 kmh SSW 12.0 mph19.3 kmh 29.22 in989.5 mb 0.00 in0.0 mm 0.00 in0.0 mm 0.33 in8.4 mm
07:14 PM 40.0°F4.4°C 37.3°F2.9°C 90% 8.9 mph SSW14.3 kmh SSW 12.0 mph19.3 kmh 29.22 in989.5 mb 0.00 in0.0 mm 0.00 in0.0 mm 0.33 in8.4 mm
07:15 PM 40.0°F4.4°C 37.3°F2.9°C 90% 8.9 mph SSW14.3 kmh SSW 12.0 mph19.3 kmh 29.22 in989.5 mb 0.00 in0.0 mm 0.00 in0.0 mm 0.33 in8.4 mm
07:16 PM 40.0°F4.4°C 37.3°F2.9°C 90% 7.9 mph SSW12.7 kmh SSW 12.0 mph19.3 kmh 29.22 in989.5 mb 0.00 in0.0 mm 0.00 in0.0 mm 0.33 in8.4 mm
07:17 PM 40.0°F4.4°C 37.3°F2.9°C 90% 10.1 mph SSW16.3 kmh SSW 14.0 mph22.5 kmh 29.22 in989.5 mb 0.00 in0.0 mm 0.00 in0.0 mm 0.33 in8.4 mm
07:18 PM 40.1°F4.5°C 37.4°F3.0°C 90% 8.4 mph SSW13.5 kmh SSW 14.0 mph22.5 kmh 29.22 in989.5 mb 0.00 in0.0 mm 0.00 in0.0 mm 0.33 in8.4 mm
07:19 PM 40.1°F4.5°C 37.4°F3.0°C 90% 8.6 mph SSW13.8 kmh SSW 13.0 mph20.9 kmh 29.22 in989.5 mb 0.00 in0.0 mm 0.00 in0.0 mm 0.33 in8.4 mm
07:20 PM 40.1°F4.5°C 37.4°F3.0°C 90% 9.7 mph SSW15.6 kmh SSW 15.0 mph24.1 kmh 29.22 in989.5 mb 0.00 in0.0 mm 0.00 in0.0 mm 0.33 in8.4 mm
07:21 PM 40.2°F4.6°C 37.5°F3.1°C 90% 11.0 mph SSW17.7 kmh SSW 17.0 mph27.4 kmh 29.22 in989.5 mb 0.00 in0.0 mm 0.00 in0.0 mm 0.33 in8.4 mm
07:22 PM 40.2°F4.6°C 37.5°F3.1°C 90% 10.2 mph SSW16.4 kmh SSW 16.0 mph25.7 kmh 29.23 in989.8 mb 0.00 in0.0 mm 0.00 in0.0 mm 0.33 in8.4 mm
07:23 PM 40.2°F4.6°C 37.5°F3.1°C 90% 11.1 mph SSW17.9 kmh SSW 16.0 mph25.7 kmh 29.23 in989.8 mb 0.00 in0.0 mm 0.00 in0.0 mm 0.33 in8.4 mm
07:24 PM 40.2°F4.6°C 37.5°F3.1°C 90% 11.3 mph SSW18.2 kmh SSW 15.0 mph24.1 kmh 29.23 in989.8 mb 0.00 in0.0 mm 0.00 in0.0 mm 0.33 in8.4 mm
07:25 PM 40.3°F4.6°C 37.6°F3.1°C 90% 12.3 mph SW19.8 kmh SW 16.0 mph25.7 kmh 29.23 in989.8 mb 0.00 in0.0 mm 0.00 in0.0 mm 0.33 in8.4 mm
07:26 PM 40.3°F4.6°C 37.6°F3.1°C 90% 10.3 mph SSW16.6 kmh SSW 16.0 mph25.7 kmh 29.23 in989.8 mb 0.00 in0.0 mm 0.00 in0.0 mm 0.33 in8.4 mm
07:27 PM 40.3°F4.6°C 37.6°F3.1°C 90% 8.8 mph SSW14.2 kmh SSW 14.0 mph22.5 kmh 29.23 in989.8 mb 0.00 in0.0 mm 0.00 in0.0 mm 0.33 in8.4 mm
07:28 PM 40.4°F4.7°C 37.7°F3.2°C 90% 10.6 mph SSW17.1 kmh SSW 15.0 mph24.1 kmh 29.23 in989.8 mb 0.00 in0.0 mm 0.00 in0.0 mm 0.33 in8.4 mm
07:29 PM 40.4°F4.7°C 37.7°F3.2°C 90% 11.1 mph SSW17.9 kmh SSW 16.0 mph25.7 kmh 29.23 in989.8 mb 0.00 in0.0 mm 0.00 in0.0 mm 0.33 in8.4 mm
07:30 PM 40.4°F4.7°C 37.7°F3.2°C 90% 10.3 mph SW16.6 kmh SW 16.0 mph25.7 kmh 29.23 in989.8 mb 0.00 in0.0 mm 0.00 in0.0 mm 0.33 in8.4 mm
07:31 PM 40.4°F4.7°C 37.7°F3.2°C 90% 10.3 mph SW16.6 kmh SW 13.0 mph20.9 kmh 29.23 in989.8 mb 0.00 in0.0 mm 0.00 in0.0 mm 0.33 in8.4 mm
07:32 PM 40.5°F4.7°C 37.8°F3.2°C 90% 11.1 mph SW17.9 kmh SW 14.0 mph22.5 kmh 29.23 in989.8 mb 0.00 in0.0 mm 0.00 in0.0 mm 0.33 in8.4 mm
07:33 PM 40.5°F4.7°C 37.8°F3.2°C 90% 8.7 mph SSW14.0 kmh SSW 14.0 mph22.5 kmh 29.23 in989.8 mb 0.00 in0.0 mm 0.00 in0.0 mm 0.33 in8.4 mm
07:34 PM 40.6°F4.8°C 37.9°F3.3°C 90% 12.6 mph SSW20.3 kmh SSW 17.0 mph27.4 kmh 29.23 in989.8 mb 0.00 in0.0 mm 0.00 in0.0 mm 0.33 in8.4 mm
07:35 PM 40.6°F4.8°C 37.9°F3.3°C 90% 10.6 mph SW17.1 kmh SW 17.0 mph27.4 kmh 29.23 in989.8 mb 0.00 in0.0 mm 0.00 in0.0 mm 0.33 in8.4 mm
07:36 PM 40.6°F4.8°C 37.9°F3.3°C 90% 10.2 mph SW16.4 kmh SW 13.0 mph20.9 kmh 29.23 in989.8 mb